<?xml version="1.0" encoding="UTF-8" standalone="no" ?>
<gpx xmlns="http://www.topografix.com/GPX/1/1" xmlns:xsi="http://www.w3.org/2001/XMLSchema-instance" xsi:schemaLocation="http://www.topografix.com/GPX/1/1 http://www.topografix.com/GPX/1/1/gpx.xsd" version="1.1" creator="VisuGPX - https://www.visugpx.com">
  <metadata>
    <name>Aubance et Authion 56km</name>
  </metadata>
  <trk>
    <name><![CDATA[Trail]]></name>
    <trkseg>
      <trkpt lat="47.46" lon="-0.52424">
        <ele>37</ele>
        <time>2022-07-22T12:23:44.665Z</time>
      </trkpt>
      <trkpt lat="47.45977" lon="-0.52275">
        <ele>37.3</ele>
        <time>2022-07-22T12:23:45.665Z</time>
      </trkpt>
      <trkpt lat="47.45967" lon="-0.5223">
        <ele>38</ele>
        <time>2022-07-22T12:23:46.665Z</time>
      </trkpt>
      <trkpt lat="47.45948" lon="-0.52174">
        <ele>38.5</ele>
        <time>2022-07-22T12:23:47.665Z</time>
      </trkpt>
      <trkpt lat="47.45945" lon="-0.5213">
        <ele>38.8</ele>
        <time>2022-07-22T12:23:48.665Z</time>
      </trkpt>
      <trkpt lat="47.45939" lon="-0.52087">
        <ele>39.1</ele>
        <time>2022-07-22T12:23:49.665Z</time>
      </trkpt>
      <trkpt lat="47.4594" lon="-0.52071">
        <ele>39.4</ele>
        <time>2022-07-22T12:23:50.665Z</time>
      </trkpt>
      <trkpt lat="47.45937" lon="-0.52048">
        <ele>39.7</ele>
        <time>2022-07-22T12:23:51.665Z</time>
      </trkpt>
      <trkpt lat="47.4592" lon="-0.51994">
        <ele>40</ele>
        <time>2022-07-22T12:23:52.665Z</time>
      </trkpt>
      <trkpt lat="47.45913" lon="-0.51981">
        <ele>40</ele>
        <time>2022-07-22T12:23:53.665Z</time>
      </trkpt>
      <trkpt lat="47.45903" lon="-0.51984">
        <ele>40</ele>
        <time>2022-07-22T12:23:54.665Z</time>
      </trkpt>
      <trkpt lat="47.45889" lon="-0.51995">
        <ele>40</ele>
        <time>2022-07-22T12:23:55.665Z</time>
      </trkpt>
      <trkpt lat="47.45774" lon="-0.52053">
        <ele>39.5</ele>
        <time>2022-07-22T12:23:56.665Z</time>
      </trkpt>
      <trkpt lat="47.4576" lon="-0.52064">
        <ele>39.3</ele>
        <time>2022-07-22T12:23:57.665Z</time>
      </trkpt>
      <trkpt lat="47.45747" lon="-0.52069">
        <ele>39.2</ele>
        <time>2022-07-22T12:23:58.665Z</time>
      </trkpt>
      <trkpt lat="47.45715" lon="-0.52071">
        <ele>39.6</ele>
        <time>2022-07-22T12:23:59.665Z</time>
      </trkpt>
      <trkpt lat="47.45682" lon="-0.52085">
        <ele>40</ele>
        <time>2022-07-22T12:24:00.665Z</time>
      </trkpt>
      <trkpt lat="47.45665" lon="-0.52101">
        <ele>39.9</ele>
        <time>2022-07-22T12:24:01.665Z</time>
      </trkpt>
      <trkpt lat="47.45651" lon="-0.52119">
        <ele>39.9</ele>
        <time>2022-07-22T12:24:02.665Z</time>
      </trkpt>
      <trkpt lat="47.45587" lon="-0.52183">
        <ele>40</ele>
        <time>2022-07-22T12:24:03.665Z</time>
      </trkpt>
      <trkpt lat="47.45544" lon="-0.52238">
        <ele>39.7</ele>
        <time>2022-07-22T12:24:04.665Z</time>
      </trkpt>
      <trkpt lat="47.45527" lon="-0.52255">
        <ele>38.9</ele>
        <time>2022-07-22T12:24:05.665Z</time>
      </trkpt>
      <trkpt lat="47.45443" lon="-0.52318">
        <ele>35.1</ele>
        <time>2022-07-22T12:24:06.665Z</time>
      </trkpt>
      <trkpt lat="47.4542" lon="-0.52337">
        <ele>34.1</ele>
        <time>2022-07-22T12:24:07.665Z</time>
      </trkpt>
      <trkpt lat="47.45364" lon="-0.52356">
        <ele>33.4</ele>
        <time>2022-07-22T12:24:08.665Z</time>
      </trkpt>
      <trkpt lat="47.45346" lon="-0.52354">
        <ele>33.4</ele>
        <time>2022-07-22T12:24:09.665Z</time>
      </trkpt>
      <trkpt lat="47.45333" lon="-0.52322">
        <ele>33</ele>
        <time>2022-07-22T12:24:10.665Z</time>
      </trkpt>
      <trkpt lat="47.45327" lon="-0.52299">
        <ele>33</ele>
        <time>2022-07-22T12:24:11.665Z</time>
      </trkpt>
      <trkpt lat="47.45325" lon="-0.52274">
        <ele>32.9</ele>
        <time>2022-07-22T12:24:12.665Z</time>
      </trkpt>
      <trkpt lat="47.45308" lon="-0.52279">
        <ele>32.7</ele>
        <time>2022-07-22T12:24:13.665Z</time>
      </trkpt>
      <trkpt lat="47.45299" lon="-0.5229">
        <ele>32.7</ele>
        <time>2022-07-22T12:24:14.665Z</time>
      </trkpt>
      <trkpt lat="47.4529" lon="-0.52341">
        <ele>33.2</ele>
        <time>2022-07-22T12:24:15.665Z</time>
      </trkpt>
      <trkpt lat="47.45287" lon="-0.5237">
        <ele>33.7</ele>
        <time>2022-07-22T12:24:16.665Z</time>
      </trkpt>
      <trkpt lat="47.45277" lon="-0.5239">
        <ele>34</ele>
        <time>2022-07-22T12:24:17.665Z</time>
      </trkpt>
      <trkpt lat="47.45264" lon="-0.52398">
        <ele>34.1</ele>
        <time>2022-07-22T12:24:18.665Z</time>
      </trkpt>
      <trkpt lat="47.45253" lon="-0.52414">
        <ele>34.4</ele>
        <time>2022-07-22T12:24:19.665Z</time>
      </trkpt>
      <trkpt lat="47.45242" lon="-0.52449">
        <ele>34.9</ele>
        <time>2022-07-22T12:24:20.665Z</time>
      </trkpt>
      <trkpt lat="47.45232" lon="-0.52465">
        <ele>35</ele>
        <time>2022-07-22T12:24:21.665Z</time>
      </trkpt>
      <trkpt lat="47.45227" lon="-0.52488">
        <ele>34.9</ele>
        <time>2022-07-22T12:24:22.665Z</time>
      </trkpt>
      <trkpt lat="47.45213" lon="-0.525">
        <ele>34.9</ele>
        <time>2022-07-22T12:24:23.665Z</time>
      </trkpt>
      <trkpt lat="47.452" lon="-0.52501">
        <ele>34.8</ele>
        <time>2022-07-22T12:24:24.665Z</time>
      </trkpt>
      <trkpt lat="47.45182" lon="-0.52493">
        <ele>34.6</ele>
        <time>2022-07-22T12:24:25.665Z</time>
      </trkpt>
      <trkpt lat="47.45106" lon="-0.52429">
        <ele>34</ele>
        <time>2022-07-22T12:24:26.665Z</time>
      </trkpt>
      <trkpt lat="47.45084" lon="-0.52425">
        <ele>34</ele>
        <time>2022-07-22T12:24:27.665Z</time>
      </trkpt>
      <trkpt lat="47.45041" lon="-0.52407">
        <ele>33.7</ele>
        <time>2022-07-22T12:24:28.665Z</time>
      </trkpt>
      <trkpt lat="47.4502" lon="-0.52409">
        <ele>33.2</ele>
        <time>2022-07-22T12:24:29.665Z</time>
      </trkpt>
      <trkpt lat="47.44999" lon="-0.5243">
        <ele>32.8</ele>
        <time>2022-07-22T12:24:30.665Z</time>
      </trkpt>
      <trkpt lat="47.44978" lon="-0.52459">
        <ele>32.5</ele>
        <time>2022-07-22T12:24:31.665Z</time>
      </trkpt>
      <trkpt lat="47.44954" lon="-0.52472">
        <ele>32.4</ele>
        <time>2022-07-22T12:24:32.665Z</time>
      </trkpt>
      <trkpt lat="47.44932" lon="-0.52491">
        <ele>32.2</ele>
        <time>2022-07-22T12:24:33.665Z</time>
      </trkpt>
      <trkpt lat="47.44739" lon="-0.52563">
        <ele>29.1</ele>
        <time>2022-07-22T12:24:34.665Z</time>
      </trkpt>
      <trkpt lat="47.44687" lon="-0.52579">
        <ele>27.9</ele>
        <time>2022-07-22T12:24:35.665Z</time>
      </trkpt>
      <trkpt lat="47.4464" lon="-0.52609">
        <ele>27.8</ele>
        <time>2022-07-22T12:24:36.665Z</time>
      </trkpt>
      <trkpt lat="47.44567" lon="-0.52687">
        <ele>28</ele>
        <time>2022-07-22T12:24:37.665Z</time>
      </trkpt>
      <trkpt lat="47.44492" lon="-0.52718">
        <ele>28.6</ele>
        <time>2022-07-22T12:24:38.665Z</time>
      </trkpt>
      <trkpt lat="47.44458" lon="-0.52727">
        <ele>28.7</ele>
        <time>2022-07-22T12:24:39.665Z</time>
      </trkpt>
      <trkpt lat="47.44427" lon="-0.52727">
        <ele>28.8</ele>
        <time>2022-07-22T12:24:40.665Z</time>
      </trkpt>
      <trkpt lat="47.4439" lon="-0.52717">
        <ele>28.6</ele>
        <time>2022-07-22T12:24:41.665Z</time>
      </trkpt>
      <trkpt lat="47.44349" lon="-0.52715">
        <ele>28.6</ele>
        <time>2022-07-22T12:24:42.665Z</time>
      </trkpt>
      <trkpt lat="47.44327" lon="-0.52721">
        <ele>28.7</ele>
        <time>2022-07-22T12:24:43.665Z</time>
      </trkpt>
      <trkpt lat="47.44303" lon="-0.52738">
        <ele>28.5</ele>
        <time>2022-07-22T12:24:44.665Z</time>
      </trkpt>
      <trkpt lat="47.44278" lon="-0.52747">
        <ele>28.2</ele>
        <time>2022-07-22T12:24:45.665Z</time>
      </trkpt>
      <trkpt lat="47.4421" lon="-0.52792">
        <ele>27.4</ele>
        <time>2022-07-22T12:24:46.665Z</time>
      </trkpt>
      <trkpt lat="47.44189" lon="-0.5281">
        <ele>27</ele>
        <time>2022-07-22T12:24:47.665Z</time>
      </trkpt>
      <trkpt lat="47.44122" lon="-0.52849">
        <ele>25.3</ele>
        <time>2022-07-22T12:24:48.665Z</time>
      </trkpt>
      <trkpt lat="47.44086" lon="-0.52864">
        <ele>24.7</ele>
        <time>2022-07-22T12:24:49.665Z</time>
      </trkpt>
      <trkpt lat="47.44074" lon="-0.52862">
        <ele>24.5</ele>
        <time>2022-07-22T12:24:50.665Z</time>
      </trkpt>
      <trkpt lat="47.44058" lon="-0.52818">
        <ele>24</ele>
        <time>2022-07-22T12:24:51.665Z</time>
      </trkpt>
      <trkpt lat="47.44046" lon="-0.52765">
        <ele>23.8</ele>
        <time>2022-07-22T12:24:52.665Z</time>
      </trkpt>
      <trkpt lat="47.44038" lon="-0.5273">
        <ele>23.6</ele>
        <time>2022-07-22T12:24:53.665Z</time>
      </trkpt>
      <trkpt lat="47.44028" lon="-0.52712">
        <ele>23.3</ele>
        <time>2022-07-22T12:24:54.665Z</time>
      </trkpt>
      <trkpt lat="47.44025" lon="-0.52694">
        <ele>23.3</ele>
        <time>2022-07-22T12:24:55.665Z</time>
      </trkpt>
      <trkpt lat="47.44018" lon="-0.52675">
        <ele>23.1</ele>
        <time>2022-07-22T12:24:56.665Z</time>
      </trkpt>
      <trkpt lat="47.44009" lon="-0.52638">
        <ele>23</ele>
        <time>2022-07-22T12:24:57.665Z</time>
      </trkpt>
      <trkpt lat="47.43974" lon="-0.52528">
        <ele>23</ele>
        <time>2022-07-22T12:24:58.665Z</time>
      </trkpt>
      <trkpt lat="47.43955" lon="-0.52459">
        <ele>23</ele>
        <time>2022-07-22T12:24:59.665Z</time>
      </trkpt>
      <trkpt lat="47.43949" lon="-0.52423">
        <ele>23.2</ele>
        <time>2022-07-22T12:25:00.665Z</time>
      </trkpt>
      <trkpt lat="47.43934" lon="-0.52399">
        <ele>23.1</ele>
        <time>2022-07-22T12:25:01.665Z</time>
      </trkpt>
      <trkpt lat="47.4391" lon="-0.52319">
        <ele>23</ele>
        <time>2022-07-22T12:25:02.665Z</time>
      </trkpt>
      <trkpt lat="47.439" lon="-0.52296">
        <ele>23.1</ele>
        <time>2022-07-22T12:25:03.665Z</time>
      </trkpt>
      <trkpt lat="47.43894" lon="-0.5227">
        <ele>23.1</ele>
        <time>2022-07-22T12:25:04.665Z</time>
      </trkpt>
      <trkpt lat="47.4389" lon="-0.52241">
        <ele>23.2</ele>
        <time>2022-07-22T12:25:05.665Z</time>
      </trkpt>
      <trkpt lat="47.43895" lon="-0.52213">
        <ele>23.7</ele>
        <time>2022-07-22T12:25:06.665Z</time>
      </trkpt>
      <trkpt lat="47.43877" lon="-0.52193">
        <ele>23.6</ele>
        <time>2022-07-22T12:25:07.665Z</time>
      </trkpt>
      <trkpt lat="47.43869" lon="-0.52171">
        <ele>23.7</ele>
        <time>2022-07-22T12:25:08.665Z</time>
      </trkpt>
      <trkpt lat="47.43856" lon="-0.5215">
        <ele>23.7</ele>
        <time>2022-07-22T12:25:09.665Z</time>
      </trkpt>
      <trkpt lat="47.43824" lon="-0.5208">
        <ele>23.5</ele>
        <time>2022-07-22T12:25:10.665Z</time>
      </trkpt>
      <trkpt lat="47.43821" lon="-0.52058">
        <ele>23.4</ele>
        <time>2022-07-22T12:25:11.665Z</time>
      </trkpt>
      <trkpt lat="47.43794" lon="-0.52014">
        <ele>22.8</ele>
        <time>2022-07-22T12:25:12.665Z</time>
      </trkpt>
      <trkpt lat="47.43741" lon="-0.51915">
        <ele>22.4</ele>
        <time>2022-07-22T12:25:13.665Z</time>
      </trkpt>
      <trkpt lat="47.43731" lon="-0.51891">
        <ele>22.3</ele>
        <time>2022-07-22T12:25:14.665Z</time>
      </trkpt>
      <trkpt lat="47.43686" lon="-0.51807">
        <ele>22.1</ele>
        <time>2022-07-22T12:25:15.665Z</time>
      </trkpt>
      <trkpt lat="47.43676" lon="-0.51779">
        <ele>22</ele>
        <time>2022-07-22T12:25:16.665Z</time>
      </trkpt>
      <trkpt lat="47.43651" lon="-0.51742">
        <ele>22</ele>
        <time>2022-07-22T12:25:17.665Z</time>
      </trkpt>
      <trkpt lat="47.43645" lon="-0.51726">
        <ele>22</ele>
        <time>2022-07-22T12:25:18.665Z</time>
      </trkpt>
      <trkpt lat="47.43646" lon="-0.51713">
        <ele>22</ele>
        <time>2022-07-22T12:25:19.665Z</time>
      </trkpt>
      <trkpt lat="47.43641" lon="-0.51714">
        <ele>22</ele>
        <time>2022-07-22T12:25:20.665Z</time>
      </trkpt>
      <trkpt lat="47.43633" lon="-0.51709">
        <ele>22</ele>
        <time>2022-07-22T12:25:21.665Z</time>
      </trkpt>
      <trkpt lat="47.43587" lon="-0.5164">
        <ele>21.9</ele>
        <time>2022-07-22T12:25:22.665Z</time>
      </trkpt>
      <trkpt lat="47.43549" lon="-0.51576">
        <ele>21</ele>
        <time>2022-07-22T12:25:23.665Z</time>
      </trkpt>
      <trkpt lat="47.43529" lon="-0.51556">
        <ele>20.6</ele>
        <time>2022-07-22T12:25:24.665Z</time>
      </trkpt>
      <trkpt lat="47.43497" lon="-0.51509">
        <ele>20</ele>
        <time>2022-07-22T12:25:25.665Z</time>
      </trkpt>
      <trkpt lat="47.4347" lon="-0.51474">
        <ele>20</ele>
        <time>2022-07-22T12:25:26.665Z</time>
      </trkpt>
      <trkpt lat="47.43425" lon="-0.51406">
        <ele>20</ele>
        <time>2022-07-22T12:25:27.665Z</time>
      </trkpt>
      <trkpt lat="47.43401" lon="-0.51401">
        <ele>19.7</ele>
        <time>2022-07-22T12:25:28.665Z</time>
      </trkpt>
      <trkpt lat="47.43352" lon="-0.51378">
        <ele>19</ele>
        <time>2022-07-22T12:25:29.665Z</time>
      </trkpt>
      <trkpt lat="47.43318" lon="-0.51369">
        <ele>18.8</ele>
        <time>2022-07-22T12:25:30.665Z</time>
      </trkpt>
      <trkpt lat="47.43304" lon="-0.5138">
        <ele>18.5</ele>
        <time>2022-07-22T12:25:31.665Z</time>
      </trkpt>
      <trkpt lat="47.43297" lon="-0.51401">
        <ele>18.4</ele>
        <time>2022-07-22T12:25:32.665Z</time>
      </trkpt>
      <trkpt lat="47.43276" lon="-0.51438">
        <ele>18</ele>
        <time>2022-07-22T12:25:33.665Z</time>
      </trkpt>
      <trkpt lat="47.43272" lon="-0.51456">
        <ele>18</ele>
        <time>2022-07-22T12:25:34.665Z</time>
      </trkpt>
      <trkpt lat="47.43276" lon="-0.51476">
        <ele>18</ele>
        <time>2022-07-22T12:25:35.665Z</time>
      </trkpt>
      <trkpt lat="47.43276" lon="-0.51501">
        <ele>18</ele>
        <time>2022-07-22T12:25:36.665Z</time>
      </trkpt>
      <trkpt lat="47.43268" lon="-0.51525">
        <ele>18</ele>
        <time>2022-07-22T12:25:37.665Z</time>
      </trkpt>
      <trkpt lat="47.4326" lon="-0.51576">
        <ele>18</ele>
        <time>2022-07-22T12:25:38.665Z</time>
      </trkpt>
      <trkpt lat="47.43246" lon="-0.51588">
        <ele>18</ele>
        <time>2022-07-22T12:25:39.665Z</time>
      </trkpt>
      <trkpt lat="47.4324" lon="-0.51585">
        <ele>18</ele>
        <time>2022-07-22T12:25:40.665Z</time>
      </trkpt>
      <trkpt lat="47.43229" lon="-0.51573">
        <ele>18</ele>
        <time>2022-07-22T12:25:41.665Z</time>
      </trkpt>
      <trkpt lat="47.43202" lon="-0.51568">
        <ele>18</ele>
        <time>2022-07-22T12:25:42.665Z</time>
      </trkpt>
      <trkpt lat="47.43185" lon="-0.51558">
        <ele>18</ele>
        <time>2022-07-22T12:25:43.665Z</time>
      </trkpt>
      <trkpt lat="47.43173" lon="-0.51544">
        <ele>17.7</ele>
        <time>2022-07-22T12:25:44.665Z</time>
      </trkpt>
      <trkpt lat="47.43158" lon="-0.51555">
        <ele>17.5</ele>
        <time>2022-07-22T12:25:45.665Z</time>
      </trkpt>
      <trkpt lat="47.4315" lon="-0.51579">
        <ele>17.6</ele>
        <time>2022-07-22T12:25:46.665Z</time>
      </trkpt>
      <trkpt lat="47.43131" lon="-0.51656">
        <ele>18</ele>
        <time>2022-07-22T12:25:47.665Z</time>
      </trkpt>
      <trkpt lat="47.43124" lon="-0.51671">
        <ele>18</ele>
        <time>2022-07-22T12:25:48.665Z</time>
      </trkpt>
      <trkpt lat="47.43119" lon="-0.51708">
        <ele>18</ele>
        <time>2022-07-22T12:25:49.665Z</time>
      </trkpt>
      <trkpt lat="47.43107" lon="-0.51748">
        <ele>18</ele>
        <time>2022-07-22T12:25:50.665Z</time>
      </trkpt>
      <trkpt lat="47.43111" lon="-0.51819">
        <ele>17.9</ele>
        <time>2022-07-22T12:25:51.665Z</time>
      </trkpt>
      <trkpt lat="47.43109" lon="-0.51844">
        <ele>17.8</ele>
        <time>2022-07-22T12:25:52.665Z</time>
      </trkpt>
      <trkpt lat="47.43111" lon="-0.51921">
        <ele>17.5</ele>
        <time>2022-07-22T12:25:53.665Z</time>
      </trkpt>
      <trkpt lat="47.43115" lon="-0.51953">
        <ele>17.4</ele>
        <time>2022-07-22T12:25:54.665Z</time>
      </trkpt>
      <trkpt lat="47.43115" lon="-0.52036">
        <ele>17.7</ele>
        <time>2022-07-22T12:25:55.665Z</time>
      </trkpt>
      <trkpt lat="47.43119" lon="-0.52068">
        <ele>17.3</ele>
        <time>2022-07-22T12:25:56.665Z</time>
      </trkpt>
      <trkpt lat="47.43115" lon="-0.52121">
        <ele>17.3</ele>
        <time>2022-07-22T12:25:57.665Z</time>
      </trkpt>
      <trkpt lat="47.43118" lon="-0.52227">
        <ele>18</ele>
        <time>2022-07-22T12:25:58.665Z</time>
      </trkpt>
      <trkpt lat="47.43113" lon="-0.52253">
        <ele>18</ele>
        <time>2022-07-22T12:25:59.665Z</time>
      </trkpt>
      <trkpt lat="47.43112" lon="-0.52387">
        <ele>18</ele>
        <time>2022-07-22T12:26:00.665Z</time>
      </trkpt>
      <trkpt lat="47.43113" lon="-0.52413">
        <ele>18</ele>
        <time>2022-07-22T12:26:01.665Z</time>
      </trkpt>
      <trkpt lat="47.43119" lon="-0.52436">
        <ele>18</ele>
        <time>2022-07-22T12:26:02.665Z</time>
      </trkpt>
      <trkpt lat="47.43121" lon="-0.52464">
        <ele>18</ele>
        <time>2022-07-22T12:26:03.665Z</time>
      </trkpt>
      <trkpt lat="47.43113" lon="-0.52511">
        <ele>18.6</ele>
        <time>2022-07-22T12:26:04.665Z</time>
      </trkpt>
      <trkpt lat="47.43099" lon="-0.52529">
        <ele>18.8</ele>
        <time>2022-07-22T12:26:05.665Z</time>
      </trkpt>
      <trkpt lat="47.43093" lon="-0.52556">
        <ele>19</ele>
        <time>2022-07-22T12:26:06.665Z</time>
      </trkpt>
      <trkpt lat="47.43089" lon="-0.52605">
        <ele>19</ele>
        <time>2022-07-22T12:26:07.665Z</time>
      </trkpt>
      <trkpt lat="47.43086" lon="-0.52611">
        <ele>19</ele>
        <time>2022-07-22T12:26:08.665Z</time>
      </trkpt>
      <trkpt lat="47.43056" lon="-0.52609">
        <ele>19</ele>
        <time>2022-07-22T12:26:09.665Z</time>
      </trkpt>
      <trkpt lat="47.43046" lon="-0.52596">
        <ele>19</ele>
        <time>2022-07-22T12:26:10.665Z</time>
      </trkpt>
      <trkpt lat="47.43027" lon="-0.52584">
        <ele>19</ele>
        <time>2022-07-22T12:26:11.665Z</time>
      </trkpt>
      <trkpt lat="47.42981" lon="-0.52572">
        <ele>19</ele>
        <time>2022-07-22T12:26:12.665Z</time>
      </trkpt>
      <trkpt lat="47.42953" lon="-0.52577">
        <ele>19</ele>
        <time>2022-07-22T12:26:13.665Z</time>
      </trkpt>
      <trkpt lat="47.42935" lon="-0.52584">
        <ele>19</ele>
        <time>2022-07-22T12:26:14.665Z</time>
      </trkpt>
      <trkpt lat="47.42914" lon="-0.52584">
        <ele>19.4</ele>
        <time>2022-07-22T12:26:15.665Z</time>
      </trkpt>
      <trkpt lat="47.42875" lon="-0.52594">
        <ele>20</ele>
        <time>2022-07-22T12:26:16.665Z</time>
      </trkpt>
      <trkpt lat="47.42855" lon="-0.52606">
        <ele>20</ele>
        <time>2022-07-22T12:26:17.665Z</time>
      </trkpt>
      <trkpt lat="47.4283" lon="-0.52628">
        <ele>20</ele>
        <time>2022-07-22T12:26:18.665Z</time>
      </trkpt>
      <trkpt lat="47.42818" lon="-0.52668">
        <ele>20</ele>
        <time>2022-07-22T12:26:19.665Z</time>
      </trkpt>
      <trkpt lat="47.42804" lon="-0.52739">
        <ele>20</ele>
        <time>2022-07-22T12:26:20.665Z</time>
      </trkpt>
      <trkpt lat="47.42749" lon="-0.527">
        <ele>20</ele>
        <time>2022-07-22T12:26:21.665Z</time>
      </trkpt>
      <trkpt lat="47.42735" lon="-0.52696">
        <ele>20</ele>
        <time>2022-07-22T12:26:22.665Z</time>
      </trkpt>
      <trkpt lat="47.42613" lon="-0.52616">
        <ele>20</ele>
        <time>2022-07-22T12:26:23.665Z</time>
      </trkpt>
      <trkpt lat="47.42576" lon="-0.52585">
        <ele>20</ele>
        <time>2022-07-22T12:26:24.665Z</time>
      </trkpt>
      <trkpt lat="47.42503" lon="-0.52538">
        <ele>20</ele>
        <time>2022-07-22T12:26:25.665Z</time>
      </trkpt>
      <trkpt lat="47.42463" lon="-0.52538">
        <ele>20</ele>
        <time>2022-07-22T12:26:26.665Z</time>
      </trkpt>
      <trkpt lat="47.42442" lon="-0.52492">
        <ele>20</ele>
        <time>2022-07-22T12:26:27.665Z</time>
      </trkpt>
      <trkpt lat="47.42407" lon="-0.52459">
        <ele>20</ele>
        <time>2022-07-22T12:26:28.665Z</time>
      </trkpt>
      <trkpt lat="47.42387" lon="-0.52449">
        <ele>20</ele>
        <time>2022-07-22T12:26:29.665Z</time>
      </trkpt>
      <trkpt lat="47.4237" lon="-0.52432">
        <ele>20</ele>
        <time>2022-07-22T12:26:30.665Z</time>
      </trkpt>
      <trkpt lat="47.42352" lon="-0.52425">
        <ele>20</ele>
        <time>2022-07-22T12:26:31.665Z</time>
      </trkpt>
      <trkpt lat="47.42278" lon="-0.52371">
        <ele>20</ele>
        <time>2022-07-22T12:26:32.665Z</time>
      </trkpt>
      <trkpt lat="47.42224" lon="-0.52356">
        <ele>20</ele>
        <time>2022-07-22T12:26:33.665Z</time>
      </trkpt>
      <trkpt lat="47.42099" lon="-0.52358">
        <ele>20</ele>
        <time>2022-07-22T12:26:34.665Z</time>
      </trkpt>
      <trkpt lat="47.41933" lon="-0.52344">
        <ele>20</ele>
        <time>2022-07-22T12:26:35.665Z</time>
      </trkpt>
      <trkpt lat="47.4185" lon="-0.52331">
        <ele>20.2</ele>
        <time>2022-07-22T12:26:36.665Z</time>
      </trkpt>
      <trkpt lat="47.41811" lon="-0.52332">
        <ele>20.9</ele>
        <time>2022-07-22T12:26:37.665Z</time>
      </trkpt>
      <trkpt lat="47.41791" lon="-0.52336">
        <ele>21</ele>
        <time>2022-07-22T12:26:38.665Z</time>
      </trkpt>
      <trkpt lat="47.41594" lon="-0.52322">
        <ele>22.8</ele>
        <time>2022-07-22T12:26:39.665Z</time>
      </trkpt>
      <trkpt lat="47.41571" lon="-0.52316">
        <ele>23.3</ele>
        <time>2022-07-22T12:26:40.665Z</time>
      </trkpt>
      <trkpt lat="47.41468" lon="-0.52311">
        <ele>22.4</ele>
        <time>2022-07-22T12:26:41.665Z</time>
      </trkpt>
      <trkpt lat="47.41427" lon="-0.52319">
        <ele>20.6</ele>
        <time>2022-07-22T12:26:42.665Z</time>
      </trkpt>
      <trkpt lat="47.41408" lon="-0.52328">
        <ele>19.6</ele>
        <time>2022-07-22T12:26:43.665Z</time>
      </trkpt>
      <trkpt lat="47.41366" lon="-0.52339">
        <ele>17.4</ele>
        <time>2022-07-22T12:26:44.665Z</time>
      </trkpt>
      <trkpt lat="47.41287" lon="-0.52372">
        <ele>18.7</ele>
        <time>2022-07-22T12:26:45.665Z</time>
      </trkpt>
      <trkpt lat="47.41244" lon="-0.52379">
        <ele>19.7</ele>
        <time>2022-07-22T12:26:46.665Z</time>
      </trkpt>
      <trkpt lat="47.41095" lon="-0.52423">
        <ele>19</ele>
        <time>2022-07-22T12:26:47.665Z</time>
      </trkpt>
      <trkpt lat="47.41056" lon="-0.5243">
        <ele>19</ele>
        <time>2022-07-22T12:26:48.665Z</time>
      </trkpt>
      <trkpt lat="47.4104" lon="-0.52441">
        <ele>19</ele>
        <time>2022-07-22T12:26:49.665Z</time>
      </trkpt>
      <trkpt lat="47.41003" lon="-0.52453">
        <ele>19</ele>
        <time>2022-07-22T12:26:50.665Z</time>
      </trkpt>
      <trkpt lat="47.40946" lon="-0.52484">
        <ele>19</ele>
        <time>2022-07-22T12:26:51.665Z</time>
      </trkpt>
      <trkpt lat="47.40843" lon="-0.52522">
        <ele>19</ele>
        <time>2022-07-22T12:26:52.665Z</time>
      </trkpt>
      <trkpt lat="47.40804" lon="-0.52533">
        <ele>19</ele>
        <time>2022-07-22T12:26:53.665Z</time>
      </trkpt>
      <trkpt lat="47.40735" lon="-0.52559">
        <ele>18.8</ele>
        <time>2022-07-22T12:26:54.665Z</time>
      </trkpt>
      <trkpt lat="47.40699" lon="-0.52577">
        <ele>18.1</ele>
        <time>2022-07-22T12:26:55.665Z</time>
      </trkpt>
      <trkpt lat="47.40599" lon="-0.52604">
        <ele>20.8</ele>
        <time>2022-07-22T12:26:56.665Z</time>
      </trkpt>
      <trkpt lat="47.40601" lon="-0.52607">
        <ele>20.7</ele>
        <time>2022-07-22T12:26:57.665Z</time>
      </trkpt>
      <trkpt lat="47.40595" lon="-0.52618">
        <ele>20.6</ele>
        <time>2022-07-22T12:26:58.665Z</time>
      </trkpt>
      <trkpt lat="47.40581" lon="-0.52632">
        <ele>20.7</ele>
        <time>2022-07-22T12:26:59.665Z</time>
      </trkpt>
      <trkpt lat="47.40571" lon="-0.52654">
        <ele>20.5</ele>
        <time>2022-07-22T12:27:00.665Z</time>
      </trkpt>
      <trkpt lat="47.40554" lon="-0.52703">
        <ele>20.2</ele>
        <time>2022-07-22T12:27:01.665Z</time>
      </trkpt>
      <trkpt lat="47.40543" lon="-0.5275">
        <ele>20.2</ele>
        <time>2022-07-22T12:27:02.665Z</time>
      </trkpt>
      <trkpt lat="47.40537" lon="-0.52796">
        <ele>19.7</ele>
        <time>2022-07-22T12:27:03.665Z</time>
      </trkpt>
      <trkpt lat="47.4052" lon="-0.52856">
        <ele>19.7</ele>
        <time>2022-07-22T12:27:04.665Z</time>
      </trkpt>
      <trkpt lat="47.40515" lon="-0.52863">
        <ele>19.7</ele>
        <time>2022-07-22T12:27:05.665Z</time>
      </trkpt>
      <trkpt lat="47.40505" lon="-0.5287">
        <ele>19.8</ele>
        <time>2022-07-22T12:27:06.665Z</time>
      </trkpt>
      <trkpt lat="47.405" lon="-0.52885">
        <ele>19.6</ele>
        <time>2022-07-22T12:27:07.665Z</time>
      </trkpt>
      <trkpt lat="47.40499" lon="-0.52907">
        <ele>19.3</ele>
        <time>2022-07-22T12:27:08.665Z</time>
      </trkpt>
      <trkpt lat="47.40463" lon="-0.52972">
        <ele>19.8</ele>
        <time>2022-07-22T12:27:09.665Z</time>
      </trkpt>
      <trkpt lat="47.40445" lon="-0.53007">
        <ele>20.2</ele>
        <time>2022-07-22T12:27:10.665Z</time>
      </trkpt>
      <trkpt lat="47.40439" lon="-0.53027">
        <ele>20.2</ele>
        <time>2022-07-22T12:27:11.665Z</time>
      </trkpt>
      <trkpt lat="47.4041" lon="-0.53086">
        <ele>19.6</ele>
        <time>2022-07-22T12:27:12.665Z</time>
      </trkpt>
      <trkpt lat="47.40398" lon="-0.5314">
        <ele>18.1</ele>
        <time>2022-07-22T12:27:13.665Z</time>
      </trkpt>
      <trkpt lat="47.40391" lon="-0.53168">
        <ele>18.1</ele>
        <time>2022-07-22T12:27:14.665Z</time>
      </trkpt>
      <trkpt lat="47.40381" lon="-0.53189">
        <ele>18</ele>
        <time>2022-07-22T12:27:15.665Z</time>
      </trkpt>
      <trkpt lat="47.40386" lon="-0.53213">
        <ele>18.2</ele>
        <time>2022-07-22T12:27:16.665Z</time>
      </trkpt>
      <trkpt lat="47.40399" lon="-0.53218">
        <ele>18</ele>
        <time>2022-07-22T12:27:17.665Z</time>
      </trkpt>
      <trkpt lat="47.40414" lon="-0.53233">
        <ele>18</ele>
        <time>2022-07-22T12:27:18.665Z</time>
      </trkpt>
      <trkpt lat="47.40419" lon="-0.53256">
        <ele>18</ele>
        <time>2022-07-22T12:27:19.665Z</time>
      </trkpt>
      <trkpt lat="47.40404" lon="-0.53303">
        <ele>18</ele>
        <time>2022-07-22T12:27:20.665Z</time>
      </trkpt>
      <trkpt lat="47.40394" lon="-0.53357">
        <ele>17.5</ele>
        <time>2022-07-22T12:27:21.665Z</time>
      </trkpt>
      <trkpt lat="47.4039" lon="-0.53403">
        <ele>17</ele>
        <time>2022-07-22T12:27:22.665Z</time>
      </trkpt>
      <trkpt lat="47.40385" lon="-0.53416">
        <ele>17</ele>
        <time>2022-07-22T12:27:23.665Z</time>
      </trkpt>
      <trkpt lat="47.40385" lon="-0.53436">
        <ele>16.8</ele>
        <time>2022-07-22T12:27:24.665Z</time>
      </trkpt>
      <trkpt lat="47.40374" lon="-0.5347">
        <ele>17.4</ele>
        <time>2022-07-22T12:27:25.665Z</time>
      </trkpt>
      <trkpt lat="47.40372" lon="-0.53556">
        <ele>17.6</ele>
        <time>2022-07-22T12:27:26.665Z</time>
      </trkpt>
      <trkpt lat="47.40374" lon="-0.53602">
        <ele>17.4</ele>
        <time>2022-07-22T12:27:27.665Z</time>
      </trkpt>
      <trkpt lat="47.40376" lon="-0.53618">
        <ele>17.3</ele>
        <time>2022-07-22T12:27:28.665Z</time>
      </trkpt>
      <trkpt lat="47.40387" lon="-0.53651">
        <ele>17</ele>
        <time>2022-07-22T12:27:29.665Z</time>
      </trkpt>
      <trkpt lat="47.40391" lon="-0.5367">
        <ele>17.2</ele>
        <time>2022-07-22T12:27:30.665Z</time>
      </trkpt>
      <trkpt lat="47.40388" lon="-0.53692">
        <ele>17.6</ele>
        <time>2022-07-22T12:27:31.665Z</time>
      </trkpt>
      <trkpt lat="47.40389" lon="-0.53731">
        <ele>18</ele>
        <time>2022-07-22T12:27:32.665Z</time>
      </trkpt>
      <trkpt lat="47.40394" lon="-0.53754">
        <ele>17.9</ele>
        <time>2022-07-22T12:27:33.665Z</time>
      </trkpt>
      <trkpt lat="47.40395" lon="-0.53817">
        <ele>17.9</ele>
        <time>2022-07-22T12:27:34.665Z</time>
      </trkpt>
      <trkpt lat="47.40392" lon="-0.53828">
        <ele>17.9</ele>
        <time>2022-07-22T12:27:35.665Z</time>
      </trkpt>
      <trkpt lat="47.40389" lon="-0.53831">
        <ele>17.9</ele>
        <time>2022-07-22T12:27:36.665Z</time>
      </trkpt>
      <trkpt lat="47.40399" lon="-0.53982">
        <ele>17.6</ele>
        <time>2022-07-22T12:27:37.665Z</time>
      </trkpt>
      <trkpt lat="47.4041" lon="-0.54021">
        <ele>17.3</ele>
        <time>2022-07-22T12:27:38.665Z</time>
      </trkpt>
      <trkpt lat="47.40414" lon="-0.54045">
        <ele>17.2</ele>
        <time>2022-07-22T12:27:39.665Z</time>
      </trkpt>
      <trkpt lat="47.4041" lon="-0.54068">
        <ele>17.5</ele>
        <time>2022-07-22T12:27:40.665Z</time>
      </trkpt>
      <trkpt lat="47.40398" lon="-0.54108">
        <ele>17.9</ele>
        <time>2022-07-22T12:27:41.665Z</time>
      </trkpt>
      <trkpt lat="47.40396" lon="-0.54131">
        <ele>18.2</ele>
        <time>2022-07-22T12:27:42.665Z</time>
      </trkpt>
      <trkpt lat="47.4039" lon="-0.54157">
        <ele>18.8</ele>
        <time>2022-07-22T12:27:43.665Z</time>
      </trkpt>
      <trkpt lat="47.40388" lon="-0.54209">
        <ele>20</ele>
        <time>2022-07-22T12:27:44.665Z</time>
      </trkpt>
      <trkpt lat="47.40382" lon="-0.54257">
        <ele>21.5</ele>
        <time>2022-07-22T12:27:45.665Z</time>
      </trkpt>
      <trkpt lat="47.40385" lon="-0.54277">
        <ele>21.6</ele>
        <time>2022-07-22T12:27:46.665Z</time>
      </trkpt>
      <trkpt lat="47.40387" lon="-0.54324">
        <ele>22.1</ele>
        <time>2022-07-22T12:27:47.665Z</time>
      </trkpt>
      <trkpt lat="47.40377" lon="-0.54363">
        <ele>24.1</ele>
        <time>2022-07-22T12:27:48.665Z</time>
      </trkpt>
      <trkpt lat="47.40386" lon="-0.54389">
        <ele>22.4</ele>
        <time>2022-07-22T12:27:49.665Z</time>
      </trkpt>
      <trkpt lat="47.40374" lon="-0.54416">
        <ele>25.9</ele>
        <time>2022-07-22T12:27:50.665Z</time>
      </trkpt>
      <trkpt lat="47.40378" lon="-0.54427">
        <ele>25.4</ele>
        <time>2022-07-22T12:27:51.665Z</time>
      </trkpt>
      <trkpt lat="47.40373" lon="-0.54427">
        <ele>26.6</ele>
        <time>2022-07-22T12:27:52.665Z</time>
      </trkpt>
      <trkpt lat="47.40379" lon="-0.5443">
        <ele>25.2</ele>
        <time>2022-07-22T12:27:53.665Z</time>
      </trkpt>
      <trkpt lat="47.40382" lon="-0.54455">
        <ele>24.6</ele>
        <time>2022-07-22T12:27:54.665Z</time>
      </trkpt>
      <trkpt lat="47.4038" lon="-0.54462">
        <ele>24.7</ele>
        <time>2022-07-22T12:27:55.665Z</time>
      </trkpt>
      <trkpt lat="47.40366" lon="-0.54471">
        <ele>27.9</ele>
        <time>2022-07-22T12:27:56.665Z</time>
      </trkpt>
      <trkpt lat="47.40362" lon="-0.54478">
        <ele>29.9</ele>
        <time>2022-07-22T12:27:57.665Z</time>
      </trkpt>
      <trkpt lat="47.4036" lon="-0.54498">
        <ele>29.9</ele>
        <time>2022-07-22T12:27:58.665Z</time>
      </trkpt>
      <trkpt lat="47.40366" lon="-0.54517">
        <ele>25.3</ele>
        <time>2022-07-22T12:27:59.665Z</time>
      </trkpt>
      <trkpt lat="47.40382" lon="-0.54552">
        <ele>23</ele>
        <time>2022-07-22T12:28:00.665Z</time>
      </trkpt>
      <trkpt lat="47.40379" lon="-0.54568">
        <ele>24.2</ele>
        <time>2022-07-22T12:28:01.665Z</time>
      </trkpt>
      <trkpt lat="47.40373" lon="-0.54579">
        <ele>26.1</ele>
        <time>2022-07-22T12:28:02.665Z</time>
      </trkpt>
      <trkpt lat="47.40382" lon="-0.54606">
        <ele>23.8</ele>
        <time>2022-07-22T12:28:03.665Z</time>
      </trkpt>
      <trkpt lat="47.40384" lon="-0.5462">
        <ele>23.3</ele>
        <time>2022-07-22T12:28:04.665Z</time>
      </trkpt>
      <trkpt lat="47.40371" lon="-0.54699">
        <ele>22.9</ele>
        <time>2022-07-22T12:28:05.665Z</time>
      </trkpt>
      <trkpt lat="47.40366" lon="-0.54716">
        <ele>22.4</ele>
        <time>2022-07-22T12:28:06.665Z</time>
      </trkpt>
      <trkpt lat="47.40365" lon="-0.54755">
        <ele>20.2</ele>
        <time>2022-07-22T12:28:07.665Z</time>
      </trkpt>
      <trkpt lat="47.40361" lon="-0.54774">
        <ele>19.3</ele>
        <time>2022-07-22T12:28:08.665Z</time>
      </trkpt>
      <trkpt lat="47.40361" lon="-0.54819">
        <ele>18.3</ele>
        <time>2022-07-22T12:28:09.665Z</time>
      </trkpt>
      <trkpt lat="47.40364" lon="-0.54858">
        <ele>17.9</ele>
        <time>2022-07-22T12:28:10.665Z</time>
      </trkpt>
      <trkpt lat="47.4036" lon="-0.54876">
        <ele>18</ele>
        <time>2022-07-22T12:28:11.665Z</time>
      </trkpt>
      <trkpt lat="47.40327" lon="-0.54926">
        <ele>18</ele>
        <time>2022-07-22T12:28:12.665Z</time>
      </trkpt>
      <trkpt lat="47.40295" lon="-0.54982">
        <ele>17.7</ele>
        <time>2022-07-22T12:28:13.665Z</time>
      </trkpt>
      <trkpt lat="47.40267" lon="-0.55004">
        <ele>17.5</ele>
        <time>2022-07-22T12:28:14.665Z</time>
      </trkpt>
      <trkpt lat="47.40234" lon="-0.55021">
        <ele>17.9</ele>
        <time>2022-07-22T12:28:15.665Z</time>
      </trkpt>
      <trkpt lat="47.40202" lon="-0.55032">
        <ele>18</ele>
        <time>2022-07-22T12:28:16.665Z</time>
      </trkpt>
      <trkpt lat="47.4016" lon="-0.55037">
        <ele>18</ele>
        <time>2022-07-22T12:28:17.665Z</time>
      </trkpt>
      <trkpt lat="47.40095" lon="-0.55061">
        <ele>18</ele>
        <time>2022-07-22T12:28:18.665Z</time>
      </trkpt>
      <trkpt lat="47.40064" lon="-0.55069">
        <ele>18</ele>
        <time>2022-07-22T12:28:19.665Z</time>
      </trkpt>
      <trkpt lat="47.39996" lon="-0.55099">
        <ele>18</ele>
        <time>2022-07-22T12:28:20.665Z</time>
      </trkpt>
      <trkpt lat="47.39964" lon="-0.55107">
        <ele>18</ele>
        <time>2022-07-22T12:28:21.665Z</time>
      </trkpt>
      <trkpt lat="47.3994" lon="-0.55107">
        <ele>18</ele>
        <time>2022-07-22T12:28:22.665Z</time>
      </trkpt>
      <trkpt lat="47.39846" lon="-0.55142">
        <ele>18</ele>
        <time>2022-07-22T12:28:23.665Z</time>
      </trkpt>
      <trkpt lat="47.39822" lon="-0.55109">
        <ele>18</ele>
        <time>2022-07-22T12:28:24.665Z</time>
      </trkpt>
      <trkpt lat="47.39753" lon="-0.55135">
        <ele>19.1</ele>
        <time>2022-07-22T12:28:25.665Z</time>
      </trkpt>
      <trkpt lat="47.39736" lon="-0.55145">
        <ele>19</ele>
        <time>2022-07-22T12:28:26.665Z</time>
      </trkpt>
      <trkpt lat="47.39707" lon="-0.55172">
        <ele>19.2</ele>
        <time>2022-07-22T12:28:27.665Z</time>
      </trkpt>
      <trkpt lat="47.39686" lon="-0.55211">
        <ele>18.7</ele>
        <time>2022-07-22T12:28:28.665Z</time>
      </trkpt>
      <trkpt lat="47.39679" lon="-0.55235">
        <ele>18.5</ele>
        <time>2022-07-22T12:28:29.665Z</time>
      </trkpt>
      <trkpt lat="47.39648" lon="-0.55288">
        <ele>19.9</ele>
        <time>2022-07-22T12:28:30.665Z</time>
      </trkpt>
      <trkpt lat="47.39625" lon="-0.55309">
        <ele>21.1</ele>
        <time>2022-07-22T12:28:31.665Z</time>
      </trkpt>
      <trkpt lat="47.39598" lon="-0.55328">
        <ele>24.1</ele>
        <time>2022-07-22T12:28:32.665Z</time>
      </trkpt>
      <trkpt lat="47.39594" lon="-0.55326">
        <ele>24.7</ele>
        <time>2022-07-22T12:28:33.665Z</time>
      </trkpt>
      <trkpt lat="47.39591" lon="-0.5531">
        <ele>25.6</ele>
        <time>2022-07-22T12:28:34.665Z</time>
      </trkpt>
      <trkpt lat="47.39599" lon="-0.55266">
        <ele>26.1</ele>
        <time>2022-07-22T12:28:35.665Z</time>
      </trkpt>
      <trkpt lat="47.39608" lon="-0.5525">
        <ele>25.5</ele>
        <time>2022-07-22T12:28:36.665Z</time>
      </trkpt>
      <trkpt lat="47.39597" lon="-0.55292">
        <ele>25.5</ele>
        <time>2022-07-22T12:28:37.665Z</time>
      </trkpt>
      <trkpt lat="47.39587" lon="-0.55299">
        <ele>26.5</ele>
        <time>2022-07-22T12:28:38.665Z</time>
      </trkpt>
      <trkpt lat="47.39578" lon="-0.5529">
        <ele>27.8</ele>
        <time>2022-07-22T12:28:39.665Z</time>
      </trkpt>
      <trkpt lat="47.39566" lon="-0.55264">
        <ele>29.6</ele>
        <time>2022-07-22T12:28:40.665Z</time>
      </trkpt>
      <trkpt lat="47.39558" lon="-0.55253">
        <ele>30.5</ele>
        <time>2022-07-22T12:28:41.665Z</time>
      </trkpt>
      <trkpt lat="47.39539" lon="-0.55202">
        <ele>32</ele>
        <time>2022-07-22T12:28:42.665Z</time>
      </trkpt>
      <trkpt lat="47.39544" lon="-0.55179">
        <ele>31.3</ele>
        <time>2022-07-22T12:28:43.665Z</time>
      </trkpt>
      <trkpt lat="47.39578" lon="-0.5508">
        <ele>27.6</ele>
        <time>2022-07-22T12:28:44.665Z</time>
      </trkpt>
      <trkpt lat="47.39582" lon="-0.55058">
        <ele>27.1</ele>
        <time>2022-07-22T12:28:45.665Z</time>
      </trkpt>
      <trkpt lat="47.39586" lon="-0.54958">
        <ele>25.5</ele>
        <time>2022-07-22T12:28:46.665Z</time>
      </trkpt>
      <trkpt lat="47.39571" lon="-0.54815">
        <ele>24.8</ele>
        <time>2022-07-22T12:28:47.665Z</time>
      </trkpt>
      <trkpt lat="47.39549" lon="-0.54742">
        <ele>28.6</ele>
        <time>2022-07-22T12:28:48.665Z</time>
      </trkpt>
      <trkpt lat="47.3953" lon="-0.54698">
        <ele>29.7</ele>
        <time>2022-07-22T12:28:49.665Z</time>
      </trkpt>
      <trkpt lat="47.39491" lon="-0.54638">
        <ele>30.5</ele>
        <time>2022-07-22T12:28:50.665Z</time>
      </trkpt>
      <trkpt lat="47.39475" lon="-0.54621">
        <ele>30.2</ele>
        <time>2022-07-22T12:28:51.665Z</time>
      </trkpt>
      <trkpt lat="47.39452" lon="-0.54588">
        <ele>30.5</ele>
        <time>2022-07-22T12:28:52.665Z</time>
      </trkpt>
      <trkpt lat="47.39436" lon="-0.54574">
        <ele>28.2</ele>
        <time>2022-07-22T12:28:53.665Z</time>
      </trkpt>
      <trkpt lat="47.39422" lon="-0.54555">
        <ele>27.1</ele>
        <time>2022-07-22T12:28:54.665Z</time>
      </trkpt>
      <trkpt lat="47.39397" lon="-0.54535">
        <ele>24.6</ele>
        <time>2022-07-22T12:28:55.665Z</time>
      </trkpt>
      <trkpt lat="47.39376" lon="-0.5451">
        <ele>22.1</ele>
        <time>2022-07-22T12:28:56.665Z</time>
      </trkpt>
      <trkpt lat="47.39349" lon="-0.54486">
        <ele>19.8</ele>
        <time>2022-07-22T12:28:57.665Z</time>
      </trkpt>
      <trkpt lat="47.39311" lon="-0.54464">
        <ele>18.7</ele>
        <time>2022-07-22T12:28:58.665Z</time>
      </trkpt>
      <trkpt lat="47.3932" lon="-0.54438">
        <ele>20.6</ele>
        <time>2022-07-22T12:28:59.665Z</time>
      </trkpt>
      <trkpt lat="47.39323" lon="-0.54423">
        <ele>21.8</ele>
        <time>2022-07-22T12:29:00.665Z</time>
      </trkpt>
      <trkpt lat="47.39348" lon="-0.54359">
        <ele>27.5</ele>
        <time>2022-07-22T12:29:01.665Z</time>
      </trkpt>
      <trkpt lat="47.3935" lon="-0.54346">
        <ele>28.8</ele>
        <time>2022-07-22T12:29:02.665Z</time>
      </trkpt>
      <trkpt lat="47.3936" lon="-0.5433">
        <ele>29.8</ele>
        <time>2022-07-22T12:29:03.665Z</time>
      </trkpt>
      <trkpt lat="47.39391" lon="-0.54298">
        <ele>31.1</ele>
        <time>2022-07-22T12:29:04.665Z</time>
      </trkpt>
      <trkpt lat="47.39409" lon="-0.54254">
        <ele>33.3</ele>
        <time>2022-07-22T12:29:05.665Z</time>
      </trkpt>
      <trkpt lat="47.39422" lon="-0.54209">
        <ele>35</ele>
        <time>2022-07-22T12:29:06.665Z</time>
      </trkpt>
      <trkpt lat="47.39428" lon="-0.54177">
        <ele>35.9</ele>
        <time>2022-07-22T12:29:07.665Z</time>
      </trkpt>
      <trkpt lat="47.39426" lon="-0.54105">
        <ele>38.4</ele>
        <time>2022-07-22T12:29:08.665Z</time>
      </trkpt>
      <trkpt lat="47.39428" lon="-0.53996">
        <ele>41.7</ele>
        <time>2022-07-22T12:29:09.665Z</time>
      </trkpt>
      <trkpt lat="47.39424" lon="-0.53979">
        <ele>43</ele>
        <time>2022-07-22T12:29:10.665Z</time>
      </trkpt>
      <trkpt lat="47.39405" lon="-0.53942">
        <ele>45</ele>
        <time>2022-07-22T12:29:11.665Z</time>
      </trkpt>
      <trkpt lat="47.39406" lon="-0.53926">
        <ele>45.6</ele>
        <time>2022-07-22T12:29:12.665Z</time>
      </trkpt>
      <trkpt lat="47.3941" lon="-0.53918">
        <ele>46</ele>
        <time>2022-07-22T12:29:13.665Z</time>
      </trkpt>
      <trkpt lat="47.39424" lon="-0.53908">
        <ele>47</ele>
        <time>2022-07-22T12:29:14.665Z</time>
      </trkpt>
      <trkpt lat="47.39432" lon="-0.53897">
        <ele>47.9</ele>
        <time>2022-07-22T12:29:15.665Z</time>
      </trkpt>
      <trkpt lat="47.39454" lon="-0.53878">
        <ele>50.5</ele>
        <time>2022-07-22T12:29:16.665Z</time>
      </trkpt>
      <trkpt lat="47.39458" lon="-0.53871">
        <ele>51.2</ele>
        <time>2022-07-22T12:29:17.665Z</time>
      </trkpt>
      <trkpt lat="47.39456" lon="-0.5386">
        <ele>51.4</ele>
        <time>2022-07-22T12:29:18.665Z</time>
      </trkpt>
      <trkpt lat="47.39443" lon="-0.53838">
        <ele>51.1</ele>
        <time>2022-07-22T12:29:19.665Z</time>
      </trkpt>
      <trkpt lat="47.39441" lon="-0.53827">
        <ele>51.3</ele>
        <time>2022-07-22T12:29:20.665Z</time>
      </trkpt>
      <trkpt lat="47.39451" lon="-0.53811">
        <ele>52.2</ele>
        <time>2022-07-22T12:29:21.665Z</time>
      </trkpt>
      <trkpt lat="47.3949" lon="-0.53774">
        <ele>54.6</ele>
        <time>2022-07-22T12:29:22.665Z</time>
      </trkpt>
      <trkpt lat="47.39505" lon="-0.53752">
        <ele>55.3</ele>
        <time>2022-07-22T12:29:23.665Z</time>
      </trkpt>
      <trkpt lat="47.39511" lon="-0.53738">
        <ele>55.5</ele>
        <time>2022-07-22T12:29:24.665Z</time>
      </trkpt>
      <trkpt lat="47.39511" lon="-0.53728">
        <ele>55.9</ele>
        <time>2022-07-22T12:29:25.665Z</time>
      </trkpt>
      <trkpt lat="47.39502" lon="-0.5373">
        <ele>55.6</ele>
        <time>2022-07-22T12:29:26.665Z</time>
      </trkpt>
      <trkpt lat="47.3946" lon="-0.53781">
        <ele>53.3</ele>
        <time>2022-07-22T12:29:27.665Z</time>
      </trkpt>
      <trkpt lat="47.39328" lon="-0.53834">
        <ele>50.4</ele>
        <time>2022-07-22T12:29:28.665Z</time>
      </trkpt>
      <trkpt lat="47.39322" lon="-0.53825">
        <ele>50.8</ele>
        <time>2022-07-22T12:29:29.665Z</time>
      </trkpt>
      <trkpt lat="47.39339" lon="-0.53823">
        <ele>50</ele>
        <time>2022-07-22T12:29:30.665Z</time>
      </trkpt>
      <trkpt lat="47.39344" lon="-0.53814">
        <ele>50</ele>
        <time>2022-07-22T12:29:31.665Z</time>
      </trkpt>
      <trkpt lat="47.39342" lon="-0.53794">
        <ele>50.4</ele>
        <time>2022-07-22T12:29:32.665Z</time>
      </trkpt>
      <trkpt lat="47.39343" lon="-0.53768">
        <ele>51.1</ele>
        <time>2022-07-22T12:29:33.665Z</time>
      </trkpt>
      <trkpt lat="47.39352" lon="-0.53707">
        <ele>52.7</ele>
        <time>2022-07-22T12:29:34.665Z</time>
      </trkpt>
      <trkpt lat="47.39346" lon="-0.53682">
        <ele>53.4</ele>
        <time>2022-07-22T12:29:35.665Z</time>
      </trkpt>
      <trkpt lat="47.39324" lon="-0.53635">
        <ele>54.2</ele>
        <time>2022-07-22T12:29:36.665Z</time>
      </trkpt>
      <trkpt lat="47.39285" lon="-0.53582">
        <ele>53.6</ele>
        <time>2022-07-22T12:29:37.665Z</time>
      </trkpt>
      <trkpt lat="47.39264" lon="-0.53541">
        <ele>53.5</ele>
        <time>2022-07-22T12:29:38.665Z</time>
      </trkpt>
      <trkpt lat="47.39238" lon="-0.53479">
        <ele>56.1</ele>
        <time>2022-07-22T12:29:39.665Z</time>
      </trkpt>
      <trkpt lat="47.3917" lon="-0.53301">
        <ele>58.2</ele>
        <time>2022-07-22T12:29:40.665Z</time>
      </trkpt>
      <trkpt lat="47.3915" lon="-0.5326">
        <ele>58.2</ele>
        <time>2022-07-22T12:29:41.665Z</time>
      </trkpt>
      <trkpt lat="47.39116" lon="-0.53176">
        <ele>57.4</ele>
        <time>2022-07-22T12:29:42.665Z</time>
      </trkpt>
      <trkpt lat="47.39081" lon="-0.53117">
        <ele>55</ele>
        <time>2022-07-22T12:29:43.665Z</time>
      </trkpt>
      <trkpt lat="47.39059" lon="-0.53071">
        <ele>54.1</ele>
        <time>2022-07-22T12:29:44.665Z</time>
      </trkpt>
      <trkpt lat="47.39037" lon="-0.53022">
        <ele>53.9</ele>
        <time>2022-07-22T12:29:45.665Z</time>
      </trkpt>
      <trkpt lat="47.39012" lon="-0.5298">
        <ele>55.2</ele>
        <time>2022-07-22T12:29:46.665Z</time>
      </trkpt>
      <trkpt lat="47.38971" lon="-0.52861">
        <ele>54.6</ele>
        <time>2022-07-22T12:29:47.665Z</time>
      </trkpt>
      <trkpt lat="47.38948" lon="-0.52818">
        <ele>50.8</ele>
        <time>2022-07-22T12:29:48.665Z</time>
      </trkpt>
      <trkpt lat="47.38909" lon="-0.52716">
        <ele>51.7</ele>
        <time>2022-07-22T12:29:49.665Z</time>
      </trkpt>
      <trkpt lat="47.38895" lon="-0.52695">
        <ele>51.5</ele>
        <time>2022-07-22T12:29:50.665Z</time>
      </trkpt>
      <trkpt lat="47.38866" lon="-0.5266">
        <ele>51.5</ele>
        <time>2022-07-22T12:29:51.665Z</time>
      </trkpt>
      <trkpt lat="47.38857" lon="-0.52643">
        <ele>53</ele>
        <time>2022-07-22T12:29:52.665Z</time>
      </trkpt>
      <trkpt lat="47.38842" lon="-0.52629">
        <ele>52.9</ele>
        <time>2022-07-22T12:29:53.665Z</time>
      </trkpt>
      <trkpt lat="47.38817" lon="-0.52569">
        <ele>57.8</ele>
        <time>2022-07-22T12:29:54.665Z</time>
      </trkpt>
      <trkpt lat="47.388" lon="-0.5251">
        <ele>60.9</ele>
        <time>2022-07-22T12:29:55.665Z</time>
      </trkpt>
      <trkpt lat="47.38781" lon="-0.5246">
        <ele>61.6</ele>
        <time>2022-07-22T12:29:56.665Z</time>
      </trkpt>
      <trkpt lat="47.38758" lon="-0.52428">
        <ele>62</ele>
        <time>2022-07-22T12:29:57.665Z</time>
      </trkpt>
      <trkpt lat="47.38737" lon="-0.52382">
        <ele>61.5</ele>
        <time>2022-07-22T12:29:58.665Z</time>
      </trkpt>
      <trkpt lat="47.38715" lon="-0.52316">
        <ele>61</ele>
        <time>2022-07-22T12:29:59.665Z</time>
      </trkpt>
      <trkpt lat="47.38698" lon="-0.52254">
        <ele>59.1</ele>
        <time>2022-07-22T12:30:00.665Z</time>
      </trkpt>
      <trkpt lat="47.38651" lon="-0.5212">
        <ele>56.5</ele>
        <time>2022-07-22T12:30:01.665Z</time>
      </trkpt>
      <trkpt lat="47.38647" lon="-0.52099">
        <ele>56.7</ele>
        <time>2022-07-22T12:30:02.665Z</time>
      </trkpt>
      <trkpt lat="47.38613" lon="-0.52006">
        <ele>53.8</ele>
        <time>2022-07-22T12:30:03.665Z</time>
      </trkpt>
      <trkpt lat="47.38594" lon="-0.51935">
        <ele>53.6</ele>
        <time>2022-07-22T12:30:04.665Z</time>
      </trkpt>
      <trkpt lat="47.38552" lon="-0.51801">
        <ele>54</ele>
        <time>2022-07-22T12:30:05.665Z</time>
      </trkpt>
      <trkpt lat="47.38538" lon="-0.51768">
        <ele>54.5</ele>
        <time>2022-07-22T12:30:06.665Z</time>
      </trkpt>
      <trkpt lat="47.38523" lon="-0.51723">
        <ele>55.8</ele>
        <time>2022-07-22T12:30:07.665Z</time>
      </trkpt>
      <trkpt lat="47.38511" lon="-0.51705">
        <ele>56.6</ele>
        <time>2022-07-22T12:30:08.665Z</time>
      </trkpt>
      <trkpt lat="47.38498" lon="-0.51662">
        <ele>57.6</ele>
        <time>2022-07-22T12:30:09.665Z</time>
      </trkpt>
      <trkpt lat="47.38484" lon="-0.51628">
        <ele>58.1</ele>
        <time>2022-07-22T12:30:10.665Z</time>
      </trkpt>
      <trkpt lat="47.38459" lon="-0.51585">
        <ele>58.8</ele>
        <time>2022-07-22T12:30:11.665Z</time>
      </trkpt>
      <trkpt lat="47.38424" lon="-0.51538">
        <ele>58.6</ele>
        <time>2022-07-22T12:30:12.665Z</time>
      </trkpt>
      <trkpt lat="47.38407" lon="-0.51525">
        <ele>58.1</ele>
        <time>2022-07-22T12:30:13.665Z</time>
      </trkpt>
      <trkpt lat="47.38388" lon="-0.51516">
        <ele>57.1</ele>
        <time>2022-07-22T12:30:14.665Z</time>
      </trkpt>
      <trkpt lat="47.38359" lon="-0.51495">
        <ele>56.2</ele>
        <time>2022-07-22T12:30:15.665Z</time>
      </trkpt>
      <trkpt lat="47.38351" lon="-0.51484">
        <ele>56.1</ele>
        <time>2022-07-22T12:30:16.665Z</time>
      </trkpt>
      <trkpt lat="47.38341" lon="-0.51479">
        <ele>55.2</ele>
        <time>2022-07-22T12:30:17.665Z</time>
      </trkpt>
      <trkpt lat="47.38316" lon="-0.51451">
        <ele>55.2</ele>
        <time>2022-07-22T12:30:18.665Z</time>
      </trkpt>
      <trkpt lat="47.38261" lon="-0.514">
        <ele>57.4</ele>
        <time>2022-07-22T12:30:19.665Z</time>
      </trkpt>
      <trkpt lat="47.38218" lon="-0.51352">
        <ele>58.8</ele>
        <time>2022-07-22T12:30:20.665Z</time>
      </trkpt>
      <trkpt lat="47.38208" lon="-0.51328">
        <ele>59</ele>
        <time>2022-07-22T12:30:21.665Z</time>
      </trkpt>
      <trkpt lat="47.38152" lon="-0.51227">
        <ele>59.2</ele>
        <time>2022-07-22T12:30:22.665Z</time>
      </trkpt>
      <trkpt lat="47.38147" lon="-0.51208">
        <ele>59</ele>
        <time>2022-07-22T12:30:23.665Z</time>
      </trkpt>
      <trkpt lat="47.38113" lon="-0.51159">
        <ele>59.1</ele>
        <time>2022-07-22T12:30:24.665Z</time>
      </trkpt>
      <trkpt lat="47.38104" lon="-0.51151">
        <ele>59.2</ele>
        <time>2022-07-22T12:30:25.665Z</time>
      </trkpt>
      <trkpt lat="47.38098" lon="-0.51156">
        <ele>59.5</ele>
        <time>2022-07-22T12:30:26.665Z</time>
      </trkpt>
      <trkpt lat="47.38091" lon="-0.51197">
        <ele>60.2</ele>
        <time>2022-07-22T12:30:27.665Z</time>
      </trkpt>
      <trkpt lat="47.38087" lon="-0.51206">
        <ele>60.4</ele>
        <time>2022-07-22T12:30:28.665Z</time>
      </trkpt>
      <trkpt lat="47.38078" lon="-0.51208">
        <ele>60.7</ele>
        <time>2022-07-22T12:30:29.665Z</time>
      </trkpt>
      <trkpt lat="47.3805" lon="-0.51203">
        <ele>60.6</ele>
        <time>2022-07-22T12:30:30.665Z</time>
      </trkpt>
      <trkpt lat="47.38016" lon="-0.51205">
        <ele>59.9</ele>
        <time>2022-07-22T12:30:31.665Z</time>
      </trkpt>
      <trkpt lat="47.38002" lon="-0.51201">
        <ele>59.6</ele>
        <time>2022-07-22T12:30:32.665Z</time>
      </trkpt>
      <trkpt lat="47.37932" lon="-0.51209">
        <ele>56.7</ele>
        <time>2022-07-22T12:30:33.665Z</time>
      </trkpt>
      <trkpt lat="47.37905" lon="-0.51218">
        <ele>53.7</ele>
        <time>2022-07-22T12:30:34.665Z</time>
      </trkpt>
      <trkpt lat="47.37883" lon="-0.51233">
        <ele>50.4</ele>
        <time>2022-07-22T12:30:35.665Z</time>
      </trkpt>
      <trkpt lat="47.37869" lon="-0.51248">
        <ele>48.6</ele>
        <time>2022-07-22T12:30:36.665Z</time>
      </trkpt>
      <trkpt lat="47.37778" lon="-0.5131">
        <ele>47.4</ele>
        <time>2022-07-22T12:30:37.665Z</time>
      </trkpt>
      <trkpt lat="47.37629" lon="-0.51425">
        <ele>44.3</ele>
        <time>2022-07-22T12:30:38.665Z</time>
      </trkpt>
      <trkpt lat="47.37592" lon="-0.51442">
        <ele>38.8</ele>
        <time>2022-07-22T12:30:39.665Z</time>
      </trkpt>
      <trkpt lat="47.37584" lon="-0.5145">
        <ele>37.2</ele>
        <time>2022-07-22T12:30:40.665Z</time>
      </trkpt>
      <trkpt lat="47.37537" lon="-0.51474">
        <ele>29.9</ele>
        <time>2022-07-22T12:30:41.665Z</time>
      </trkpt>
      <trkpt lat="47.37525" lon="-0.51488">
        <ele>27.9</ele>
        <time>2022-07-22T12:30:42.665Z</time>
      </trkpt>
      <trkpt lat="47.37517" lon="-0.51491">
        <ele>26.7</ele>
        <time>2022-07-22T12:30:43.665Z</time>
      </trkpt>
      <trkpt lat="47.375" lon="-0.5149">
        <ele>25.4</ele>
        <time>2022-07-22T12:30:44.665Z</time>
      </trkpt>
      <trkpt lat="47.37494" lon="-0.51479">
        <ele>25.2</ele>
        <time>2022-07-22T12:30:45.665Z</time>
      </trkpt>
      <trkpt lat="47.37484" lon="-0.51449">
        <ele>24.9</ele>
        <time>2022-07-22T12:30:46.665Z</time>
      </trkpt>
      <trkpt lat="47.37479" lon="-0.51424">
        <ele>24.8</ele>
        <time>2022-07-22T12:30:47.665Z</time>
      </trkpt>
      <trkpt lat="47.37454" lon="-0.51347">
        <ele>23.8</ele>
        <time>2022-07-22T12:30:48.665Z</time>
      </trkpt>
      <trkpt lat="47.37455" lon="-0.51325">
        <ele>23.7</ele>
        <time>2022-07-22T12:30:49.665Z</time>
      </trkpt>
      <trkpt lat="47.37476" lon="-0.51284">
        <ele>23.6</ele>
        <time>2022-07-22T12:30:50.665Z</time>
      </trkpt>
      <trkpt lat="47.37517" lon="-0.51249">
        <ele>26.7</ele>
        <time>2022-07-22T12:30:51.665Z</time>
      </trkpt>
      <trkpt lat="47.37521" lon="-0.51237">
        <ele>26.6</ele>
        <time>2022-07-22T12:30:52.665Z</time>
      </trkpt>
      <trkpt lat="47.37529" lon="-0.5123">
        <ele>27.7</ele>
        <time>2022-07-22T12:30:53.665Z</time>
      </trkpt>
      <trkpt lat="47.3753" lon="-0.51222">
        <ele>27.4</ele>
        <time>2022-07-22T12:30:54.665Z</time>
      </trkpt>
      <trkpt lat="47.37537" lon="-0.51206">
        <ele>27.5</ele>
        <time>2022-07-22T12:30:55.665Z</time>
      </trkpt>
      <trkpt lat="47.37572" lon="-0.51173">
        <ele>27.3</ele>
        <time>2022-07-22T12:30:56.665Z</time>
      </trkpt>
      <trkpt lat="47.37584" lon="-0.51157">
        <ele>29.1</ele>
        <time>2022-07-22T12:30:57.665Z</time>
      </trkpt>
      <trkpt lat="47.37619" lon="-0.51099">
        <ele>26.5</ele>
        <time>2022-07-22T12:30:58.665Z</time>
      </trkpt>
      <trkpt lat="47.37629" lon="-0.51076">
        <ele>26.3</ele>
        <time>2022-07-22T12:30:59.665Z</time>
      </trkpt>
      <trkpt lat="47.37636" lon="-0.51045">
        <ele>24.7</ele>
        <time>2022-07-22T12:31:00.665Z</time>
      </trkpt>
      <trkpt lat="47.37643" lon="-0.51033">
        <ele>24.8</ele>
        <time>2022-07-22T12:31:01.665Z</time>
      </trkpt>
      <trkpt lat="47.37652" lon="-0.51013">
        <ele>24.9</ele>
        <time>2022-07-22T12:31:02.665Z</time>
      </trkpt>
      <trkpt lat="47.37661" lon="-0.50982">
        <ele>24.9</ele>
        <time>2022-07-22T12:31:03.665Z</time>
      </trkpt>
      <trkpt lat="47.37653" lon="-0.50926">
        <ele>25.1</ele>
        <time>2022-07-22T12:31:04.665Z</time>
      </trkpt>
      <trkpt lat="47.37655" lon="-0.50907">
        <ele>25.5</ele>
        <time>2022-07-22T12:31:05.665Z</time>
      </trkpt>
      <trkpt lat="47.37651" lon="-0.50887">
        <ele>25.5</ele>
        <time>2022-07-22T12:31:06.665Z</time>
      </trkpt>
      <trkpt lat="47.37651" lon="-0.50847">
        <ele>25.8</ele>
        <time>2022-07-22T12:31:07.665Z</time>
      </trkpt>
      <trkpt lat="47.37663" lon="-0.50786">
        <ele>25.7</ele>
        <time>2022-07-22T12:31:08.665Z</time>
      </trkpt>
      <trkpt lat="47.37672" lon="-0.50758">
        <ele>25.6</ele>
        <time>2022-07-22T12:31:09.665Z</time>
      </trkpt>
      <trkpt lat="47.37678" lon="-0.50749">
        <ele>25.7</ele>
        <time>2022-07-22T12:31:10.665Z</time>
      </trkpt>
      <trkpt lat="47.37695" lon="-0.50744">
        <ele>26.4</ele>
        <time>2022-07-22T12:31:11.665Z</time>
      </trkpt>
      <trkpt lat="47.37698" lon="-0.50748">
        <ele>26.6</ele>
        <time>2022-07-22T12:31:12.665Z</time>
      </trkpt>
      <trkpt lat="47.37698" lon="-0.50753">
        <ele>26.6</ele>
        <time>2022-07-22T12:31:13.665Z</time>
      </trkpt>
      <trkpt lat="47.37694" lon="-0.50757">
        <ele>26.5</ele>
        <time>2022-07-22T12:31:14.665Z</time>
      </trkpt>
      <trkpt lat="47.37698" lon="-0.50765">
        <ele>26.9</ele>
        <time>2022-07-22T12:31:15.665Z</time>
      </trkpt>
      <trkpt lat="47.37694" lon="-0.50758">
        <ele>26.6</ele>
        <time>2022-07-22T12:31:16.665Z</time>
      </trkpt>
      <trkpt lat="47.37695" lon="-0.5076">
        <ele>26.6</ele>
        <time>2022-07-22T12:31:17.665Z</time>
      </trkpt>
      <trkpt lat="47.37691" lon="-0.50759">
        <ele>26.4</ele>
        <time>2022-07-22T12:31:18.665Z</time>
      </trkpt>
      <trkpt lat="47.37695" lon="-0.50761">
        <ele>26.6</ele>
        <time>2022-07-22T12:31:19.665Z</time>
      </trkpt>
      <trkpt lat="47.37694" lon="-0.50756">
        <ele>26.5</ele>
        <time>2022-07-22T12:31:20.665Z</time>
      </trkpt>
      <trkpt lat="47.37694" lon="-0.5076">
        <ele>26.6</ele>
        <time>2022-07-22T12:31:21.665Z</time>
      </trkpt>
      <trkpt lat="47.37692" lon="-0.50758">
        <ele>26.4</ele>
        <time>2022-07-22T12:31:22.665Z</time>
      </trkpt>
      <trkpt lat="47.37702" lon="-0.50733">
        <ele>26.5</ele>
        <time>2022-07-22T12:31:23.665Z</time>
      </trkpt>
      <trkpt lat="47.37716" lon="-0.5071">
        <ele>27.5</ele>
        <time>2022-07-22T12:31:24.665Z</time>
      </trkpt>
      <trkpt lat="47.37724" lon="-0.50687">
        <ele>28.4</ele>
        <time>2022-07-22T12:31:25.665Z</time>
      </trkpt>
      <trkpt lat="47.37726" lon="-0.50674">
        <ele>28.8</ele>
        <time>2022-07-22T12:31:26.665Z</time>
      </trkpt>
      <trkpt lat="47.37682" lon="-0.50668">
        <ele>27.1</ele>
        <time>2022-07-22T12:31:27.665Z</time>
      </trkpt>
      <trkpt lat="47.37659" lon="-0.50669">
        <ele>26.3</ele>
        <time>2022-07-22T12:31:28.665Z</time>
      </trkpt>
      <trkpt lat="47.37648" lon="-0.50666">
        <ele>26.2</ele>
        <time>2022-07-22T12:31:29.665Z</time>
      </trkpt>
      <trkpt lat="47.376" lon="-0.50672">
        <ele>24.6</ele>
        <time>2022-07-22T12:31:30.665Z</time>
      </trkpt>
      <trkpt lat="47.37562" lon="-0.50692">
        <ele>24</ele>
        <time>2022-07-22T12:31:31.665Z</time>
      </trkpt>
      <trkpt lat="47.37545" lon="-0.50708">
        <ele>24</ele>
        <time>2022-07-22T12:31:32.665Z</time>
      </trkpt>
      <trkpt lat="47.37539" lon="-0.50719">
        <ele>24</ele>
        <time>2022-07-22T12:31:33.665Z</time>
      </trkpt>
      <trkpt lat="47.37521" lon="-0.50733">
        <ele>24.1</ele>
        <time>2022-07-22T12:31:34.665Z</time>
      </trkpt>
      <trkpt lat="47.37505" lon="-0.50731">
        <ele>24.2</ele>
        <time>2022-07-22T12:31:35.665Z</time>
      </trkpt>
      <trkpt lat="47.37506" lon="-0.50717">
        <ele>24</ele>
        <time>2022-07-22T12:31:36.665Z</time>
      </trkpt>
      <trkpt lat="47.37501" lon="-0.50669">
        <ele>24.6</ele>
        <time>2022-07-22T12:31:37.665Z</time>
      </trkpt>
      <trkpt lat="47.37499" lon="-0.50667">
        <ele>24.6</ele>
        <time>2022-07-22T12:31:38.665Z</time>
      </trkpt>
      <trkpt lat="47.3749" lon="-0.50671">
        <ele>24.8</ele>
        <time>2022-07-22T12:31:39.665Z</time>
      </trkpt>
      <trkpt lat="47.37491" lon="-0.5065">
        <ele>25.1</ele>
        <time>2022-07-22T12:31:40.665Z</time>
      </trkpt>
      <trkpt lat="47.37486" lon="-0.50644">
        <ele>25.4</ele>
        <time>2022-07-22T12:31:41.665Z</time>
      </trkpt>
      <trkpt lat="47.37478" lon="-0.50645">
        <ele>26</ele>
        <time>2022-07-22T12:31:42.665Z</time>
      </trkpt>
      <trkpt lat="47.37477" lon="-0.50651">
        <ele>26</ele>
        <time>2022-07-22T12:31:43.665Z</time>
      </trkpt>
      <trkpt lat="47.37478" lon="-0.50667">
        <ele>25.5</ele>
        <time>2022-07-22T12:31:44.665Z</time>
      </trkpt>
      <trkpt lat="47.37473" lon="-0.50686">
        <ele>25.2</ele>
        <time>2022-07-22T12:31:45.665Z</time>
      </trkpt>
      <trkpt lat="47.37469" lon="-0.50691">
        <ele>25.2</ele>
        <time>2022-07-22T12:31:46.665Z</time>
      </trkpt>
      <trkpt lat="47.37454" lon="-0.50695">
        <ele>25.5</ele>
        <time>2022-07-22T12:31:47.665Z</time>
      </trkpt>
      <trkpt lat="47.37447" lon="-0.50691">
        <ele>26</ele>
        <time>2022-07-22T12:31:48.665Z</time>
      </trkpt>
      <trkpt lat="47.37434" lon="-0.50695">
        <ele>26.7</ele>
        <time>2022-07-22T12:31:49.665Z</time>
      </trkpt>
      <trkpt lat="47.37418" lon="-0.5071">
        <ele>26.9</ele>
        <time>2022-07-22T12:31:50.665Z</time>
      </trkpt>
      <trkpt lat="47.37412" lon="-0.50721">
        <ele>27.2</ele>
        <time>2022-07-22T12:31:51.665Z</time>
      </trkpt>
      <trkpt lat="47.37385" lon="-0.5072">
        <ele>28.7</ele>
        <time>2022-07-22T12:31:52.665Z</time>
      </trkpt>
      <trkpt lat="47.37371" lon="-0.50736">
        <ele>28.8</ele>
        <time>2022-07-22T12:31:53.665Z</time>
      </trkpt>
      <trkpt lat="47.37373" lon="-0.50752">
        <ele>27.9</ele>
        <time>2022-07-22T12:31:54.665Z</time>
      </trkpt>
      <trkpt lat="47.3737" lon="-0.50759">
        <ele>27.7</ele>
        <time>2022-07-22T12:31:55.665Z</time>
      </trkpt>
      <trkpt lat="47.37353" lon="-0.5076">
        <ele>27.8</ele>
        <time>2022-07-22T12:31:56.665Z</time>
      </trkpt>
      <trkpt lat="47.37345" lon="-0.50768">
        <ele>27.2</ele>
        <time>2022-07-22T12:31:57.665Z</time>
      </trkpt>
      <trkpt lat="47.37342" lon="-0.50775">
        <ele>26.9</ele>
        <time>2022-07-22T12:31:58.665Z</time>
      </trkpt>
      <trkpt lat="47.37338" lon="-0.50798">
        <ele>28.8</ele>
        <time>2022-07-22T12:31:59.665Z</time>
      </trkpt>
      <trkpt lat="47.37318" lon="-0.50806">
        <ele>28.9</ele>
        <time>2022-07-22T12:32:00.665Z</time>
      </trkpt>
      <trkpt lat="47.37314" lon="-0.50812">
        <ele>29.2</ele>
        <time>2022-07-22T12:32:01.665Z</time>
      </trkpt>
      <trkpt lat="47.37308" lon="-0.50836">
        <ele>30.9</ele>
        <time>2022-07-22T12:32:02.665Z</time>
      </trkpt>
      <trkpt lat="47.37293" lon="-0.50876">
        <ele>32.5</ele>
        <time>2022-07-22T12:32:03.665Z</time>
      </trkpt>
      <trkpt lat="47.37289" lon="-0.50909">
        <ele>34.1</ele>
        <time>2022-07-22T12:32:04.665Z</time>
      </trkpt>
      <trkpt lat="47.37285" lon="-0.5092">
        <ele>34.2</ele>
        <time>2022-07-22T12:32:05.665Z</time>
      </trkpt>
      <trkpt lat="47.37281" lon="-0.50924">
        <ele>34.1</ele>
        <time>2022-07-22T12:32:06.665Z</time>
      </trkpt>
      <trkpt lat="47.37237" lon="-0.50933">
        <ele>32.7</ele>
        <time>2022-07-22T12:32:07.665Z</time>
      </trkpt>
      <trkpt lat="47.37209" lon="-0.50934">
        <ele>32.1</ele>
        <time>2022-07-22T12:32:08.665Z</time>
      </trkpt>
      <trkpt lat="47.37169" lon="-0.50922">
        <ele>31.6</ele>
        <time>2022-07-22T12:32:09.665Z</time>
      </trkpt>
      <trkpt lat="47.37099" lon="-0.50942">
        <ele>32.5</ele>
        <time>2022-07-22T12:32:10.665Z</time>
      </trkpt>
      <trkpt lat="47.37024" lon="-0.50921">
        <ele>31.5</ele>
        <time>2022-07-22T12:32:11.665Z</time>
      </trkpt>
      <trkpt lat="47.37" lon="-0.50922">
        <ele>31.6</ele>
        <time>2022-07-22T12:32:12.665Z</time>
      </trkpt>
      <trkpt lat="47.36976" lon="-0.50934">
        <ele>31.5</ele>
        <time>2022-07-22T12:32:13.665Z</time>
      </trkpt>
      <trkpt lat="47.36957" lon="-0.50953">
        <ele>30.9</ele>
        <time>2022-07-22T12:32:14.665Z</time>
      </trkpt>
      <trkpt lat="47.36927" lon="-0.51019">
        <ele>33.4</ele>
        <time>2022-07-22T12:32:15.665Z</time>
      </trkpt>
      <trkpt lat="47.36922" lon="-0.51035">
        <ele>33.8</ele>
        <time>2022-07-22T12:32:16.665Z</time>
      </trkpt>
      <trkpt lat="47.36865" lon="-0.51144">
        <ele>34.6</ele>
        <time>2022-07-22T12:32:17.665Z</time>
      </trkpt>
      <trkpt lat="47.36805" lon="-0.51177">
        <ele>35</ele>
        <time>2022-07-22T12:32:18.665Z</time>
      </trkpt>
      <trkpt lat="47.36792" lon="-0.51195">
        <ele>34.8</ele>
        <time>2022-07-22T12:32:19.665Z</time>
      </trkpt>
      <trkpt lat="47.36787" lon="-0.51217">
        <ele>35.1</ele>
        <time>2022-07-22T12:32:20.665Z</time>
      </trkpt>
      <trkpt lat="47.36774" lon="-0.51241">
        <ele>35.9</ele>
        <time>2022-07-22T12:32:21.665Z</time>
      </trkpt>
      <trkpt lat="47.36762" lon="-0.5125">
        <ele>36.1</ele>
        <time>2022-07-22T12:32:22.665Z</time>
      </trkpt>
      <trkpt lat="47.36706" lon="-0.51273">
        <ele>35.2</ele>
        <time>2022-07-22T12:32:23.665Z</time>
      </trkpt>
      <trkpt lat="47.36671" lon="-0.51294">
        <ele>36.2</ele>
        <time>2022-07-22T12:32:24.665Z</time>
      </trkpt>
      <trkpt lat="47.36651" lon="-0.51311">
        <ele>36.7</ele>
        <time>2022-07-22T12:32:25.665Z</time>
      </trkpt>
      <trkpt lat="47.36626" lon="-0.51344">
        <ele>36.8</ele>
        <time>2022-07-22T12:32:26.665Z</time>
      </trkpt>
      <trkpt lat="47.36578" lon="-0.51459">
        <ele>38.2</ele>
        <time>2022-07-22T12:32:27.665Z</time>
      </trkpt>
      <trkpt lat="47.36569" lon="-0.51494">
        <ele>38.5</ele>
        <time>2022-07-22T12:32:28.665Z</time>
      </trkpt>
      <trkpt lat="47.36559" lon="-0.5154">
        <ele>39.3</ele>
        <time>2022-07-22T12:32:29.665Z</time>
      </trkpt>
      <trkpt lat="47.36539" lon="-0.51687">
        <ele>40.7</ele>
        <time>2022-07-22T12:32:30.665Z</time>
      </trkpt>
      <trkpt lat="47.36539" lon="-0.51745">
        <ele>41.1</ele>
        <time>2022-07-22T12:32:31.665Z</time>
      </trkpt>
      <trkpt lat="47.36536" lon="-0.51761">
        <ele>41.3</ele>
        <time>2022-07-22T12:32:32.665Z</time>
      </trkpt>
      <trkpt lat="47.36536" lon="-0.51812">
        <ele>42.1</ele>
        <time>2022-07-22T12:32:33.665Z</time>
      </trkpt>
      <trkpt lat="47.36527" lon="-0.51866">
        <ele>42.6</ele>
        <time>2022-07-22T12:32:34.665Z</time>
      </trkpt>
      <trkpt lat="47.36521" lon="-0.51878">
        <ele>42.5</ele>
        <time>2022-07-22T12:32:35.665Z</time>
      </trkpt>
      <trkpt lat="47.36483" lon="-0.51931">
        <ele>42.6</ele>
        <time>2022-07-22T12:32:36.665Z</time>
      </trkpt>
      <trkpt lat="47.36467" lon="-0.51959">
        <ele>43.1</ele>
        <time>2022-07-22T12:32:37.665Z</time>
      </trkpt>
      <trkpt lat="47.36434" lon="-0.51989">
        <ele>43.3</ele>
        <time>2022-07-22T12:32:38.665Z</time>
      </trkpt>
      <trkpt lat="47.36418" lon="-0.52014">
        <ele>43.5</ele>
        <time>2022-07-22T12:32:39.665Z</time>
      </trkpt>
      <trkpt lat="47.36402" lon="-0.52053">
        <ele>44.1</ele>
        <time>2022-07-22T12:32:40.665Z</time>
      </trkpt>
      <trkpt lat="47.36396" lon="-0.52055">
        <ele>44.1</ele>
        <time>2022-07-22T12:32:41.665Z</time>
      </trkpt>
      <trkpt lat="47.36387" lon="-0.52048">
        <ele>44</ele>
        <time>2022-07-22T12:32:42.665Z</time>
      </trkpt>
      <trkpt lat="47.36383" lon="-0.52028">
        <ele>43.7</ele>
        <time>2022-07-22T12:32:43.665Z</time>
      </trkpt>
      <trkpt lat="47.36377" lon="-0.5202">
        <ele>43.7</ele>
        <time>2022-07-22T12:32:44.665Z</time>
      </trkpt>
      <trkpt lat="47.36358" lon="-0.52008">
        <ele>44.6</ele>
        <time>2022-07-22T12:32:45.665Z</time>
      </trkpt>
      <trkpt lat="47.36356" lon="-0.51997">
        <ele>44.7</ele>
        <time>2022-07-22T12:32:46.665Z</time>
      </trkpt>
      <trkpt lat="47.36357" lon="-0.51973">
        <ele>44.5</ele>
        <time>2022-07-22T12:32:47.665Z</time>
      </trkpt>
      <trkpt lat="47.36361" lon="-0.52019">
        <ele>44.6</ele>
        <time>2022-07-22T12:32:48.665Z</time>
      </trkpt>
      <trkpt lat="47.36358" lon="-0.5203">
        <ele>44.8</ele>
        <time>2022-07-22T12:32:49.665Z</time>
      </trkpt>
      <trkpt lat="47.3635" lon="-0.52033">
        <ele>45.2</ele>
        <time>2022-07-22T12:32:50.665Z</time>
      </trkpt>
      <trkpt lat="47.36307" lon="-0.52007">
        <ele>47.2</ele>
        <time>2022-07-22T12:32:51.665Z</time>
      </trkpt>
      <trkpt lat="47.36284" lon="-0.52005">
        <ele>48.3</ele>
        <time>2022-07-22T12:32:52.665Z</time>
      </trkpt>
      <trkpt lat="47.36237" lon="-0.51993">
        <ele>50.6</ele>
        <time>2022-07-22T12:32:53.665Z</time>
      </trkpt>
      <trkpt lat="47.36193" lon="-0.51967">
        <ele>52</ele>
        <time>2022-07-22T12:32:54.665Z</time>
      </trkpt>
      <trkpt lat="47.36148" lon="-0.5191">
        <ele>50.9</ele>
        <time>2022-07-22T12:32:55.665Z</time>
      </trkpt>
      <trkpt lat="47.36113" lon="-0.51852">
        <ele>48.6</ele>
        <time>2022-07-22T12:32:56.665Z</time>
      </trkpt>
      <trkpt lat="47.36091" lon="-0.5183">
        <ele>47</ele>
        <time>2022-07-22T12:32:57.665Z</time>
      </trkpt>
      <trkpt lat="47.36066" lon="-0.51817">
        <ele>45.9</ele>
        <time>2022-07-22T12:32:58.665Z</time>
      </trkpt>
      <trkpt lat="47.36048" lon="-0.51777">
        <ele>47</ele>
        <time>2022-07-22T12:32:59.665Z</time>
      </trkpt>
      <trkpt lat="47.36046" lon="-0.51751">
        <ele>47.1</ele>
        <time>2022-07-22T12:33:00.665Z</time>
      </trkpt>
      <trkpt lat="47.3603" lon="-0.5167">
        <ele>47</ele>
        <time>2022-07-22T12:33:01.665Z</time>
      </trkpt>
      <trkpt lat="47.36014" lon="-0.51613">
        <ele>45.6</ele>
        <time>2022-07-22T12:33:02.665Z</time>
      </trkpt>
      <trkpt lat="47.35983" lon="-0.51549">
        <ele>43.6</ele>
        <time>2022-07-22T12:33:03.665Z</time>
      </trkpt>
      <trkpt lat="47.35973" lon="-0.51514">
        <ele>42.9</ele>
        <time>2022-07-22T12:33:04.665Z</time>
      </trkpt>
      <trkpt lat="47.35944" lon="-0.5146">
        <ele>45.9</ele>
        <time>2022-07-22T12:33:05.665Z</time>
      </trkpt>
      <trkpt lat="47.35939" lon="-0.5144">
        <ele>47.5</ele>
        <time>2022-07-22T12:33:06.665Z</time>
      </trkpt>
      <trkpt lat="47.35925" lon="-0.51419">
        <ele>49.4</ele>
        <time>2022-07-22T12:33:07.665Z</time>
      </trkpt>
      <trkpt lat="47.35854" lon="-0.51358">
        <ele>54</ele>
        <time>2022-07-22T12:33:08.665Z</time>
      </trkpt>
      <trkpt lat="47.35846" lon="-0.51364">
        <ele>54.1</ele>
        <time>2022-07-22T12:33:09.665Z</time>
      </trkpt>
      <trkpt lat="47.35843" lon="-0.51375">
        <ele>54</ele>
        <time>2022-07-22T12:33:10.665Z</time>
      </trkpt>
      <trkpt lat="47.35825" lon="-0.51414">
        <ele>53.7</ele>
        <time>2022-07-22T12:33:11.665Z</time>
      </trkpt>
      <trkpt lat="47.35783" lon="-0.5146">
        <ele>52.4</ele>
        <time>2022-07-22T12:33:12.665Z</time>
      </trkpt>
      <trkpt lat="47.35757" lon="-0.51494">
        <ele>50.3</ele>
        <time>2022-07-22T12:33:13.665Z</time>
      </trkpt>
      <trkpt lat="47.3573" lon="-0.51525">
        <ele>47.7</ele>
        <time>2022-07-22T12:33:14.665Z</time>
      </trkpt>
      <trkpt lat="47.35704" lon="-0.51548">
        <ele>46.8</ele>
        <time>2022-07-22T12:33:15.665Z</time>
      </trkpt>
      <trkpt lat="47.35691" lon="-0.51567">
        <ele>47.3</ele>
        <time>2022-07-22T12:33:16.665Z</time>
      </trkpt>
      <trkpt lat="47.35682" lon="-0.51573">
        <ele>47.7</ele>
        <time>2022-07-22T12:33:17.665Z</time>
      </trkpt>
      <trkpt lat="47.35681" lon="-0.51568">
        <ele>47.9</ele>
        <time>2022-07-22T12:33:18.665Z</time>
      </trkpt>
      <trkpt lat="47.35676" lon="-0.51576">
        <ele>48.1</ele>
        <time>2022-07-22T12:33:19.665Z</time>
      </trkpt>
      <trkpt lat="47.35666" lon="-0.51582">
        <ele>48.6</ele>
        <time>2022-07-22T12:33:20.665Z</time>
      </trkpt>
      <trkpt lat="47.35645" lon="-0.51619">
        <ele>48.8</ele>
        <time>2022-07-22T12:33:21.665Z</time>
      </trkpt>
      <trkpt lat="47.35634" lon="-0.51643">
        <ele>48.5</ele>
        <time>2022-07-22T12:33:22.665Z</time>
      </trkpt>
      <trkpt lat="47.3562" lon="-0.51663">
        <ele>48.5</ele>
        <time>2022-07-22T12:33:23.665Z</time>
      </trkpt>
      <trkpt lat="47.35572" lon="-0.51769">
        <ele>49.7</ele>
        <time>2022-07-22T12:33:24.665Z</time>
      </trkpt>
      <trkpt lat="47.35557" lon="-0.51811">
        <ele>50.1</ele>
        <time>2022-07-22T12:33:25.665Z</time>
      </trkpt>
      <trkpt lat="47.35556" lon="-0.5182">
        <ele>50.1</ele>
        <time>2022-07-22T12:33:26.665Z</time>
      </trkpt>
      <trkpt lat="47.35552" lon="-0.51825">
        <ele>50.3</ele>
        <time>2022-07-22T12:33:27.665Z</time>
      </trkpt>
      <trkpt lat="47.35549" lon="-0.51844">
        <ele>50.3</ele>
        <time>2022-07-22T12:33:28.665Z</time>
      </trkpt>
      <trkpt lat="47.35533" lon="-0.51875">
        <ele>50.6</ele>
        <time>2022-07-22T12:33:29.665Z</time>
      </trkpt>
      <trkpt lat="47.35527" lon="-0.51895">
        <ele>50.2</ele>
        <time>2022-07-22T12:33:30.665Z</time>
      </trkpt>
      <trkpt lat="47.35526" lon="-0.51913">
        <ele>49.7</ele>
        <time>2022-07-22T12:33:31.665Z</time>
      </trkpt>
      <trkpt lat="47.35539" lon="-0.51926">
        <ele>49.2</ele>
        <time>2022-07-22T12:33:32.665Z</time>
      </trkpt>
      <trkpt lat="47.35553" lon="-0.51927">
        <ele>49.1</ele>
        <time>2022-07-22T12:33:33.665Z</time>
      </trkpt>
      <trkpt lat="47.35587" lon="-0.5195">
        <ele>49.6</ele>
        <time>2022-07-22T12:33:34.665Z</time>
      </trkpt>
      <trkpt lat="47.35585" lon="-0.51953">
        <ele>49.6</ele>
        <time>2022-07-22T12:33:35.665Z</time>
      </trkpt>
      <trkpt lat="47.3556" lon="-0.51951">
        <ele>49.2</ele>
        <time>2022-07-22T12:33:36.665Z</time>
      </trkpt>
      <trkpt lat="47.3554" lon="-0.51948">
        <ele>49.1</ele>
        <time>2022-07-22T12:33:37.665Z</time>
      </trkpt>
      <trkpt lat="47.35531" lon="-0.51973">
        <ele>49.1</ele>
        <time>2022-07-22T12:33:38.665Z</time>
      </trkpt>
      <trkpt lat="47.35527" lon="-0.5202">
        <ele>49.4</ele>
        <time>2022-07-22T12:33:39.665Z</time>
      </trkpt>
      <trkpt lat="47.3551" lon="-0.52068">
        <ele>50.3</ele>
        <time>2022-07-22T12:33:40.665Z</time>
      </trkpt>
      <trkpt lat="47.355" lon="-0.52074">
        <ele>50.7</ele>
        <time>2022-07-22T12:33:41.665Z</time>
      </trkpt>
      <trkpt lat="47.35489" lon="-0.52094">
        <ele>51.3</ele>
        <time>2022-07-22T12:33:42.665Z</time>
      </trkpt>
      <trkpt lat="47.35453" lon="-0.52197">
        <ele>53.9</ele>
        <time>2022-07-22T12:33:43.665Z</time>
      </trkpt>
      <trkpt lat="47.35423" lon="-0.52197">
        <ele>55.3</ele>
        <time>2022-07-22T12:33:44.665Z</time>
      </trkpt>
      <trkpt lat="47.35422" lon="-0.52194">
        <ele>55.3</ele>
        <time>2022-07-22T12:33:45.665Z</time>
      </trkpt>
      <trkpt lat="47.35406" lon="-0.52199">
        <ele>55.9</ele>
        <time>2022-07-22T12:33:46.665Z</time>
      </trkpt>
      <trkpt lat="47.3538" lon="-0.52189">
        <ele>57.3</ele>
        <time>2022-07-22T12:33:47.665Z</time>
      </trkpt>
      <trkpt lat="47.35372" lon="-0.52193">
        <ele>57.8</ele>
        <time>2022-07-22T12:33:48.665Z</time>
      </trkpt>
      <trkpt lat="47.35342" lon="-0.52232">
        <ele>59.7</ele>
        <time>2022-07-22T12:33:49.665Z</time>
      </trkpt>
      <trkpt lat="47.35323" lon="-0.52266">
        <ele>60.8</ele>
        <time>2022-07-22T12:33:50.665Z</time>
      </trkpt>
      <trkpt lat="47.35312" lon="-0.52308">
        <ele>60.9</ele>
        <time>2022-07-22T12:33:51.665Z</time>
      </trkpt>
      <trkpt lat="47.35301" lon="-0.52328">
        <ele>61.2</ele>
        <time>2022-07-22T12:33:52.665Z</time>
      </trkpt>
      <trkpt lat="47.35284" lon="-0.52374">
        <ele>61.7</ele>
        <time>2022-07-22T12:33:53.665Z</time>
      </trkpt>
      <trkpt lat="47.35277" lon="-0.52382">
        <ele>62.2</ele>
        <time>2022-07-22T12:33:54.665Z</time>
      </trkpt>
      <trkpt lat="47.35268" lon="-0.52401">
        <ele>62.4</ele>
        <time>2022-07-22T12:33:55.665Z</time>
      </trkpt>
      <trkpt lat="47.35247" lon="-0.52426">
        <ele>63.4</ele>
        <time>2022-07-22T12:33:56.665Z</time>
      </trkpt>
      <trkpt lat="47.35242" lon="-0.52441">
        <ele>63.4</ele>
        <time>2022-07-22T12:33:57.665Z</time>
      </trkpt>
      <trkpt lat="47.35178" lon="-0.5256">
        <ele>65.5</ele>
        <time>2022-07-22T12:33:58.665Z</time>
      </trkpt>
      <trkpt lat="47.35103" lon="-0.52657">
        <ele>69.5</ele>
        <time>2022-07-22T12:33:59.665Z</time>
      </trkpt>
      <trkpt lat="47.35088" lon="-0.52666">
        <ele>70.3</ele>
        <time>2022-07-22T12:34:00.665Z</time>
      </trkpt>
      <trkpt lat="47.35079" lon="-0.52665">
        <ele>71</ele>
        <time>2022-07-22T12:34:01.665Z</time>
      </trkpt>
      <trkpt lat="47.35078" lon="-0.52662">
        <ele>71.2</ele>
        <time>2022-07-22T12:34:02.665Z</time>
      </trkpt>
      <trkpt lat="47.35033" lon="-0.52638">
        <ele>74.7</ele>
        <time>2022-07-22T12:34:03.665Z</time>
      </trkpt>
      <trkpt lat="47.34991" lon="-0.52607">
        <ele>77.4</ele>
        <time>2022-07-22T12:34:04.665Z</time>
      </trkpt>
      <trkpt lat="47.34977" lon="-0.52592">
        <ele>78.3</ele>
        <time>2022-07-22T12:34:05.665Z</time>
      </trkpt>
      <trkpt lat="47.34956" lon="-0.52563">
        <ele>79.3</ele>
        <time>2022-07-22T12:34:06.665Z</time>
      </trkpt>
      <trkpt lat="47.34945" lon="-0.52558">
        <ele>79.6</ele>
        <time>2022-07-22T12:34:07.665Z</time>
      </trkpt>
      <trkpt lat="47.34898" lon="-0.5255">
        <ele>80.6</ele>
        <time>2022-07-22T12:34:08.665Z</time>
      </trkpt>
      <trkpt lat="47.34858" lon="-0.52534">
        <ele>81.3</ele>
        <time>2022-07-22T12:34:09.665Z</time>
      </trkpt>
      <trkpt lat="47.34822" lon="-0.52526">
        <ele>81.6</ele>
        <time>2022-07-22T12:34:10.665Z</time>
      </trkpt>
      <trkpt lat="47.34804" lon="-0.52512">
        <ele>81.5</ele>
        <time>2022-07-22T12:34:11.665Z</time>
      </trkpt>
      <trkpt lat="47.34776" lon="-0.52477">
        <ele>80.8</ele>
        <time>2022-07-22T12:34:12.665Z</time>
      </trkpt>
      <trkpt lat="47.34763" lon="-0.52447">
        <ele>79.8</ele>
        <time>2022-07-22T12:34:13.665Z</time>
      </trkpt>
      <trkpt lat="47.34751" lon="-0.52434">
        <ele>79.4</ele>
        <time>2022-07-22T12:34:14.665Z</time>
      </trkpt>
      <trkpt lat="47.34708" lon="-0.52415">
        <ele>80.8</ele>
        <time>2022-07-22T12:34:15.665Z</time>
      </trkpt>
      <trkpt lat="47.34691" lon="-0.52414">
        <ele>81.6</ele>
        <time>2022-07-22T12:34:16.665Z</time>
      </trkpt>
      <trkpt lat="47.34668" lon="-0.52403">
        <ele>82.6</ele>
        <time>2022-07-22T12:34:17.665Z</time>
      </trkpt>
      <trkpt lat="47.34645" lon="-0.52386">
        <ele>83.3</ele>
        <time>2022-07-22T12:34:18.665Z</time>
      </trkpt>
      <trkpt lat="47.34611" lon="-0.52355">
        <ele>84.2</ele>
        <time>2022-07-22T12:34:19.665Z</time>
      </trkpt>
      <trkpt lat="47.34591" lon="-0.52329">
        <ele>84.9</ele>
        <time>2022-07-22T12:34:20.665Z</time>
      </trkpt>
      <trkpt lat="47.34514" lon="-0.5229">
        <ele>86.5</ele>
        <time>2022-07-22T12:34:21.665Z</time>
      </trkpt>
      <trkpt lat="47.34411" lon="-0.52274">
        <ele>87</ele>
        <time>2022-07-22T12:34:22.665Z</time>
      </trkpt>
      <trkpt lat="47.34398" lon="-0.52266">
        <ele>87</ele>
        <time>2022-07-22T12:34:23.665Z</time>
      </trkpt>
      <trkpt lat="47.34378" lon="-0.52239">
        <ele>87</ele>
        <time>2022-07-22T12:34:24.665Z</time>
      </trkpt>
      <trkpt lat="47.34363" lon="-0.52204">
        <ele>87</ele>
        <time>2022-07-22T12:34:25.665Z</time>
      </trkpt>
      <trkpt lat="47.34331" lon="-0.52142">
        <ele>85.7</ele>
        <time>2022-07-22T12:34:26.665Z</time>
      </trkpt>
      <trkpt lat="47.34325" lon="-0.52118">
        <ele>84.9</ele>
        <time>2022-07-22T12:34:27.665Z</time>
      </trkpt>
      <trkpt lat="47.34319" lon="-0.52105">
        <ele>84.4</ele>
        <time>2022-07-22T12:34:28.665Z</time>
      </trkpt>
      <trkpt lat="47.34315" lon="-0.52105">
        <ele>84.3</ele>
        <time>2022-07-22T12:34:29.665Z</time>
      </trkpt>
      <trkpt lat="47.34314" lon="-0.52091">
        <ele>83.9</ele>
        <time>2022-07-22T12:34:30.665Z</time>
      </trkpt>
      <trkpt lat="47.34322" lon="-0.52053">
        <ele>83.1</ele>
        <time>2022-07-22T12:34:31.665Z</time>
      </trkpt>
      <trkpt lat="47.34327" lon="-0.51978">
        <ele>82.4</ele>
        <time>2022-07-22T12:34:32.665Z</time>
      </trkpt>
      <trkpt lat="47.34332" lon="-0.51953">
        <ele>82.4</ele>
        <time>2022-07-22T12:34:33.665Z</time>
      </trkpt>
      <trkpt lat="47.34332" lon="-0.5193">
        <ele>82.7</ele>
        <time>2022-07-22T12:34:34.665Z</time>
      </trkpt>
      <trkpt lat="47.34342" lon="-0.51838">
        <ele>83.9</ele>
        <time>2022-07-22T12:34:35.665Z</time>
      </trkpt>
      <trkpt lat="47.3434" lon="-0.51813">
        <ele>84.6</ele>
        <time>2022-07-22T12:34:36.665Z</time>
      </trkpt>
      <trkpt lat="47.34348" lon="-0.51727">
        <ele>85.9</ele>
        <time>2022-07-22T12:34:37.665Z</time>
      </trkpt>
      <trkpt lat="47.34349" lon="-0.51654">
        <ele>87.3</ele>
        <time>2022-07-22T12:34:38.665Z</time>
      </trkpt>
      <trkpt lat="47.34354" lon="-0.51612">
        <ele>87.2</ele>
        <time>2022-07-22T12:34:39.665Z</time>
      </trkpt>
      <trkpt lat="47.34354" lon="-0.5159">
        <ele>87.4</ele>
        <time>2022-07-22T12:34:40.665Z</time>
      </trkpt>
      <trkpt lat="47.34359" lon="-0.51569">
        <ele>87.6</ele>
        <time>2022-07-22T12:34:41.665Z</time>
      </trkpt>
      <trkpt lat="47.34356" lon="-0.51537">
        <ele>87.9</ele>
        <time>2022-07-22T12:34:42.665Z</time>
      </trkpt>
      <trkpt lat="47.34368" lon="-0.51447">
        <ele>86.6</ele>
        <time>2022-07-22T12:34:43.665Z</time>
      </trkpt>
      <trkpt lat="47.3439" lon="-0.51366">
        <ele>84.7</ele>
        <time>2022-07-22T12:34:44.665Z</time>
      </trkpt>
      <trkpt lat="47.34399" lon="-0.51305">
        <ele>82.2</ele>
        <time>2022-07-22T12:34:45.665Z</time>
      </trkpt>
      <trkpt lat="47.34401" lon="-0.51309">
        <ele>82.4</ele>
        <time>2022-07-22T12:34:46.665Z</time>
      </trkpt>
      <trkpt lat="47.34392" lon="-0.51374">
        <ele>84.9</ele>
        <time>2022-07-22T12:34:47.665Z</time>
      </trkpt>
      <trkpt lat="47.34386" lon="-0.51389">
        <ele>85.4</ele>
        <time>2022-07-22T12:34:48.665Z</time>
      </trkpt>
      <trkpt lat="47.34376" lon="-0.51385">
        <ele>85.3</ele>
        <time>2022-07-22T12:34:49.665Z</time>
      </trkpt>
      <trkpt lat="47.34363" lon="-0.51346">
        <ele>84.1</ele>
        <time>2022-07-22T12:34:50.665Z</time>
      </trkpt>
      <trkpt lat="47.34349" lon="-0.51334">
        <ele>83.7</ele>
        <time>2022-07-22T12:34:51.665Z</time>
      </trkpt>
      <trkpt lat="47.34322" lon="-0.51336">
        <ele>83.9</ele>
        <time>2022-07-22T12:34:52.665Z</time>
      </trkpt>
      <trkpt lat="47.34288" lon="-0.51331">
        <ele>84.5</ele>
        <time>2022-07-22T12:34:53.665Z</time>
      </trkpt>
      <trkpt lat="47.34235" lon="-0.51335">
        <ele>85</ele>
        <time>2022-07-22T12:34:54.665Z</time>
      </trkpt>
      <trkpt lat="47.34225" lon="-0.51331">
        <ele>84.9</ele>
        <time>2022-07-22T12:34:55.665Z</time>
      </trkpt>
      <trkpt lat="47.34193" lon="-0.51328">
        <ele>84.8</ele>
        <time>2022-07-22T12:34:56.665Z</time>
      </trkpt>
      <trkpt lat="47.34173" lon="-0.51331">
        <ele>85.4</ele>
        <time>2022-07-22T12:34:57.665Z</time>
      </trkpt>
      <trkpt lat="47.34128" lon="-0.51326">
        <ele>85.9</ele>
        <time>2022-07-22T12:34:58.665Z</time>
      </trkpt>
      <trkpt lat="47.34123" lon="-0.51319">
        <ele>85.7</ele>
        <time>2022-07-22T12:34:59.665Z</time>
      </trkpt>
      <trkpt lat="47.34125" lon="-0.51254">
        <ele>83.6</ele>
        <time>2022-07-22T12:35:00.665Z</time>
      </trkpt>
      <trkpt lat="47.34123" lon="-0.512">
        <ele>81.7</ele>
        <time>2022-07-22T12:35:01.665Z</time>
      </trkpt>
      <trkpt lat="47.34127" lon="-0.51142">
        <ele>79.4</ele>
        <time>2022-07-22T12:35:02.665Z</time>
      </trkpt>
      <trkpt lat="47.34123" lon="-0.51112">
        <ele>78.3</ele>
        <time>2022-07-22T12:35:03.665Z</time>
      </trkpt>
      <trkpt lat="47.34191" lon="-0.5099">
        <ele>73.6</ele>
        <time>2022-07-22T12:35:04.665Z</time>
      </trkpt>
      <trkpt lat="47.34196" lon="-0.50931">
        <ele>71.9</ele>
        <time>2022-07-22T12:35:05.665Z</time>
      </trkpt>
      <trkpt lat="47.34209" lon="-0.50889">
        <ele>70.7</ele>
        <time>2022-07-22T12:35:06.665Z</time>
      </trkpt>
      <trkpt lat="47.34213" lon="-0.50888">
        <ele>70.8</ele>
        <time>2022-07-22T12:35:07.665Z</time>
      </trkpt>
      <trkpt lat="47.34215" lon="-0.50891">
        <ele>70.9</ele>
        <time>2022-07-22T12:35:08.665Z</time>
      </trkpt>
      <trkpt lat="47.34208" lon="-0.50908">
        <ele>71.3</ele>
        <time>2022-07-22T12:35:09.665Z</time>
      </trkpt>
      <trkpt lat="47.34203" lon="-0.50953">
        <ele>72.5</ele>
        <time>2022-07-22T12:35:10.665Z</time>
      </trkpt>
      <trkpt lat="47.34209" lon="-0.50959">
        <ele>72.9</ele>
        <time>2022-07-22T12:35:11.665Z</time>
      </trkpt>
      <trkpt lat="47.34237" lon="-0.50954">
        <ele>73.3</ele>
        <time>2022-07-22T12:35:12.665Z</time>
      </trkpt>
      <trkpt lat="47.34376" lon="-0.50944">
        <ele>70.2</ele>
        <time>2022-07-22T12:35:13.665Z</time>
      </trkpt>
      <trkpt lat="47.34401" lon="-0.50951">
        <ele>69.6</ele>
        <time>2022-07-22T12:35:14.665Z</time>
      </trkpt>
      <trkpt lat="47.34418" lon="-0.50961">
        <ele>69.3</ele>
        <time>2022-07-22T12:35:15.665Z</time>
      </trkpt>
      <trkpt lat="47.3448" lon="-0.50959">
        <ele>69.3</ele>
        <time>2022-07-22T12:35:16.665Z</time>
      </trkpt>
      <trkpt lat="47.34502" lon="-0.50946">
        <ele>68.8</ele>
        <time>2022-07-22T12:35:17.665Z</time>
      </trkpt>
      <trkpt lat="47.34522" lon="-0.50918">
        <ele>68</ele>
        <time>2022-07-22T12:35:18.665Z</time>
      </trkpt>
      <trkpt lat="47.34544" lon="-0.50869">
        <ele>67</ele>
        <time>2022-07-22T12:35:19.665Z</time>
      </trkpt>
      <trkpt lat="47.34557" lon="-0.50859">
        <ele>67</ele>
        <time>2022-07-22T12:35:20.665Z</time>
      </trkpt>
      <trkpt lat="47.34585" lon="-0.50849">
        <ele>66.7</ele>
        <time>2022-07-22T12:35:21.665Z</time>
      </trkpt>
      <trkpt lat="47.34605" lon="-0.50835">
        <ele>66.3</ele>
        <time>2022-07-22T12:35:22.665Z</time>
      </trkpt>
      <trkpt lat="47.34627" lon="-0.5081">
        <ele>65.3</ele>
        <time>2022-07-22T12:35:23.665Z</time>
      </trkpt>
      <trkpt lat="47.34644" lon="-0.50803">
        <ele>65.2</ele>
        <time>2022-07-22T12:35:24.665Z</time>
      </trkpt>
      <trkpt lat="47.34654" lon="-0.50795">
        <ele>65</ele>
        <time>2022-07-22T12:35:25.665Z</time>
      </trkpt>
      <trkpt lat="47.34736" lon="-0.50773">
        <ele>65.9</ele>
        <time>2022-07-22T12:35:26.665Z</time>
      </trkpt>
      <trkpt lat="47.3478" lon="-0.50752">
        <ele>66.8</ele>
        <time>2022-07-22T12:35:27.665Z</time>
      </trkpt>
      <trkpt lat="47.34811" lon="-0.5073">
        <ele>67.2</ele>
        <time>2022-07-22T12:35:28.665Z</time>
      </trkpt>
      <trkpt lat="47.34836" lon="-0.50698">
        <ele>66.9</ele>
        <time>2022-07-22T12:35:29.665Z</time>
      </trkpt>
      <trkpt lat="47.34863" lon="-0.50622">
        <ele>65.7</ele>
        <time>2022-07-22T12:35:30.665Z</time>
      </trkpt>
      <trkpt lat="47.34872" lon="-0.50608">
        <ele>65.5</ele>
        <time>2022-07-22T12:35:31.665Z</time>
      </trkpt>
      <trkpt lat="47.34882" lon="-0.50596">
        <ele>65.3</ele>
        <time>2022-07-22T12:35:32.665Z</time>
      </trkpt>
      <trkpt lat="47.3492" lon="-0.50574">
        <ele>64.9</ele>
        <time>2022-07-22T12:35:33.665Z</time>
      </trkpt>
      <trkpt lat="47.34944" lon="-0.50547">
        <ele>64</ele>
        <time>2022-07-22T12:35:34.665Z</time>
      </trkpt>
      <trkpt lat="47.34969" lon="-0.50512">
        <ele>63</ele>
        <time>2022-07-22T12:35:35.665Z</time>
      </trkpt>
      <trkpt lat="47.3502" lon="-0.50446">
        <ele>61.9</ele>
        <time>2022-07-22T12:35:36.665Z</time>
      </trkpt>
      <trkpt lat="47.35059" lon="-0.50385">
        <ele>61</ele>
        <time>2022-07-22T12:35:37.665Z</time>
      </trkpt>
      <trkpt lat="47.35078" lon="-0.50349">
        <ele>59.7</ele>
        <time>2022-07-22T12:35:38.665Z</time>
      </trkpt>
      <trkpt lat="47.3511" lon="-0.50302">
        <ele>57.7</ele>
        <time>2022-07-22T12:35:39.665Z</time>
      </trkpt>
      <trkpt lat="47.35127" lon="-0.50258">
        <ele>56.8</ele>
        <time>2022-07-22T12:35:40.665Z</time>
      </trkpt>
      <trkpt lat="47.35134" lon="-0.50218">
        <ele>56.3</ele>
        <time>2022-07-22T12:35:41.665Z</time>
      </trkpt>
      <trkpt lat="47.35133" lon="-0.50193">
        <ele>56</ele>
        <time>2022-07-22T12:35:42.665Z</time>
      </trkpt>
      <trkpt lat="47.35119" lon="-0.50149">
        <ele>55.3</ele>
        <time>2022-07-22T12:35:43.665Z</time>
      </trkpt>
      <trkpt lat="47.35118" lon="-0.50076">
        <ele>53.5</ele>
        <time>2022-07-22T12:35:44.665Z</time>
      </trkpt>
      <trkpt lat="47.35123" lon="-0.50065">
        <ele>53.2</ele>
        <time>2022-07-22T12:35:45.665Z</time>
      </trkpt>
      <trkpt lat="47.35155" lon="-0.50063">
        <ele>52.3</ele>
        <time>2022-07-22T12:35:46.665Z</time>
      </trkpt>
      <trkpt lat="47.35167" lon="-0.50064">
        <ele>52.1</ele>
        <time>2022-07-22T12:35:47.665Z</time>
      </trkpt>
      <trkpt lat="47.35176" lon="-0.5006">
        <ele>51.6</ele>
        <time>2022-07-22T12:35:48.665Z</time>
      </trkpt>
      <trkpt lat="47.35247" lon="-0.50065">
        <ele>49.2</ele>
        <time>2022-07-22T12:35:49.665Z</time>
      </trkpt>
      <trkpt lat="47.35275" lon="-0.50054">
        <ele>50.1</ele>
        <time>2022-07-22T12:35:50.665Z</time>
      </trkpt>
      <trkpt lat="47.3529" lon="-0.50038">
        <ele>51</ele>
        <time>2022-07-22T12:35:51.665Z</time>
      </trkpt>
      <trkpt lat="47.35331" lon="-0.49965">
        <ele>52.8</ele>
        <time>2022-07-22T12:35:52.665Z</time>
      </trkpt>
      <trkpt lat="47.35354" lon="-0.49937">
        <ele>52.9</ele>
        <time>2022-07-22T12:35:53.665Z</time>
      </trkpt>
      <trkpt lat="47.35391" lon="-0.49917">
        <ele>51.8</ele>
        <time>2022-07-22T12:35:54.665Z</time>
      </trkpt>
      <trkpt lat="47.35439" lon="-0.49881">
        <ele>50.2</ele>
        <time>2022-07-22T12:35:55.665Z</time>
      </trkpt>
      <trkpt lat="47.35458" lon="-0.49873">
        <ele>51</ele>
        <time>2022-07-22T12:35:56.665Z</time>
      </trkpt>
      <trkpt lat="47.3554" lon="-0.49804">
        <ele>54.1</ele>
        <time>2022-07-22T12:35:57.665Z</time>
      </trkpt>
      <trkpt lat="47.3556" lon="-0.49783">
        <ele>54.7</ele>
        <time>2022-07-22T12:35:58.665Z</time>
      </trkpt>
      <trkpt lat="47.35587" lon="-0.49772">
        <ele>56.1</ele>
        <time>2022-07-22T12:35:59.665Z</time>
      </trkpt>
      <trkpt lat="47.35626" lon="-0.49767">
        <ele>58.4</ele>
        <time>2022-07-22T12:36:00.665Z</time>
      </trkpt>
      <trkpt lat="47.35627" lon="-0.49759">
        <ele>58.3</ele>
        <time>2022-07-22T12:36:01.665Z</time>
      </trkpt>
      <trkpt lat="47.35596" lon="-0.49721">
        <ele>54.2</ele>
        <time>2022-07-22T12:36:02.665Z</time>
      </trkpt>
      <trkpt lat="47.35574" lon="-0.49667">
        <ele>50</ele>
        <time>2022-07-22T12:36:03.665Z</time>
      </trkpt>
      <trkpt lat="47.35547" lon="-0.4962">
        <ele>46.8</ele>
        <time>2022-07-22T12:36:04.665Z</time>
      </trkpt>
      <trkpt lat="47.35523" lon="-0.49588">
        <ele>44</ele>
        <time>2022-07-22T12:36:05.665Z</time>
      </trkpt>
      <trkpt lat="47.35502" lon="-0.49562">
        <ele>41.3</ele>
        <time>2022-07-22T12:36:06.665Z</time>
      </trkpt>
      <trkpt lat="47.35474" lon="-0.49538">
        <ele>39.8</ele>
        <time>2022-07-22T12:36:07.665Z</time>
      </trkpt>
      <trkpt lat="47.35464" lon="-0.49523">
        <ele>39.7</ele>
        <time>2022-07-22T12:36:08.665Z</time>
      </trkpt>
      <trkpt lat="47.3545" lon="-0.49517">
        <ele>40.1</ele>
        <time>2022-07-22T12:36:09.665Z</time>
      </trkpt>
      <trkpt lat="47.35438" lon="-0.49503">
        <ele>41.7</ele>
        <time>2022-07-22T12:36:10.665Z</time>
      </trkpt>
      <trkpt lat="47.35429" lon="-0.49483">
        <ele>42.9</ele>
        <time>2022-07-22T12:36:11.665Z</time>
      </trkpt>
      <trkpt lat="47.3541" lon="-0.49461">
        <ele>44.8</ele>
        <time>2022-07-22T12:36:12.665Z</time>
      </trkpt>
      <trkpt lat="47.35406" lon="-0.49444">
        <ele>44.6</ele>
        <time>2022-07-22T12:36:13.665Z</time>
      </trkpt>
      <trkpt lat="47.35395" lon="-0.49427">
        <ele>44.8</ele>
        <time>2022-07-22T12:36:14.665Z</time>
      </trkpt>
      <trkpt lat="47.35368" lon="-0.49403">
        <ele>46.4</ele>
        <time>2022-07-22T12:36:15.665Z</time>
      </trkpt>
      <trkpt lat="47.35337" lon="-0.49403">
        <ele>48.6</ele>
        <time>2022-07-22T12:36:16.665Z</time>
      </trkpt>
      <trkpt lat="47.35323" lon="-0.49407">
        <ele>49.6</ele>
        <time>2022-07-22T12:36:17.665Z</time>
      </trkpt>
      <trkpt lat="47.35313" lon="-0.49404">
        <ele>50.5</ele>
        <time>2022-07-22T12:36:18.665Z</time>
      </trkpt>
      <trkpt lat="47.3528" lon="-0.49404">
        <ele>54.2</ele>
        <time>2022-07-22T12:36:19.665Z</time>
      </trkpt>
      <trkpt lat="47.35251" lon="-0.49411">
        <ele>56.1</ele>
        <time>2022-07-22T12:36:20.665Z</time>
      </trkpt>
      <trkpt lat="47.35212" lon="-0.49424">
        <ele>56.8</ele>
        <time>2022-07-22T12:36:21.665Z</time>
      </trkpt>
      <trkpt lat="47.35155" lon="-0.49412">
        <ele>54.4</ele>
        <time>2022-07-22T12:36:22.665Z</time>
      </trkpt>
      <trkpt lat="47.35157" lon="-0.4941">
        <ele>54.7</ele>
        <time>2022-07-22T12:36:23.665Z</time>
      </trkpt>
      <trkpt lat="47.35167" lon="-0.49416">
        <ele>55.2</ele>
        <time>2022-07-22T12:36:24.665Z</time>
      </trkpt>
      <trkpt lat="47.35181" lon="-0.49419">
        <ele>56.3</ele>
        <time>2022-07-22T12:36:25.665Z</time>
      </trkpt>
      <trkpt lat="47.35186" lon="-0.49416">
        <ele>56.5</ele>
        <time>2022-07-22T12:36:26.665Z</time>
      </trkpt>
      <trkpt lat="47.35185" lon="-0.49406">
        <ele>56.8</ele>
        <time>2022-07-22T12:36:27.665Z</time>
      </trkpt>
      <trkpt lat="47.35141" lon="-0.49326">
        <ele>57.2</ele>
        <time>2022-07-22T12:36:28.665Z</time>
      </trkpt>
      <trkpt lat="47.35133" lon="-0.49296">
        <ele>58.5</ele>
        <time>2022-07-22T12:36:29.665Z</time>
      </trkpt>
      <trkpt lat="47.35127" lon="-0.49284">
        <ele>59</ele>
        <time>2022-07-22T12:36:30.665Z</time>
      </trkpt>
      <trkpt lat="47.35102" lon="-0.49254">
        <ele>60.4</ele>
        <time>2022-07-22T12:36:31.665Z</time>
      </trkpt>
      <trkpt lat="47.35085" lon="-0.49242">
        <ele>60.8</ele>
        <time>2022-07-22T12:36:32.665Z</time>
      </trkpt>
      <trkpt lat="47.35081" lon="-0.49236">
        <ele>61.1</ele>
        <time>2022-07-22T12:36:33.665Z</time>
      </trkpt>
      <trkpt lat="47.35072" lon="-0.49208">
        <ele>62.8</ele>
        <time>2022-07-22T12:36:34.665Z</time>
      </trkpt>
      <trkpt lat="47.35049" lon="-0.49189">
        <ele>64.2</ele>
        <time>2022-07-22T12:36:35.665Z</time>
      </trkpt>
      <trkpt lat="47.3503" lon="-0.4917">
        <ele>64.9</ele>
        <time>2022-07-22T12:36:36.665Z</time>
      </trkpt>
      <trkpt lat="47.35017" lon="-0.49147">
        <ele>65.9</ele>
        <time>2022-07-22T12:36:37.665Z</time>
      </trkpt>
      <trkpt lat="47.35001" lon="-0.4913">
        <ele>66.7</ele>
        <time>2022-07-22T12:36:38.665Z</time>
      </trkpt>
      <trkpt lat="47.34986" lon="-0.4912">
        <ele>67.1</ele>
        <time>2022-07-22T12:36:39.665Z</time>
      </trkpt>
      <trkpt lat="47.34965" lon="-0.49092">
        <ele>67.9</ele>
        <time>2022-07-22T12:36:40.665Z</time>
      </trkpt>
      <trkpt lat="47.34962" lon="-0.49079">
        <ele>68.3</ele>
        <time>2022-07-22T12:36:41.665Z</time>
      </trkpt>
      <trkpt lat="47.34951" lon="-0.49059">
        <ele>68.9</ele>
        <time>2022-07-22T12:36:42.665Z</time>
      </trkpt>
      <trkpt lat="47.34928" lon="-0.48982">
        <ele>71.1</ele>
        <time>2022-07-22T12:36:43.665Z</time>
      </trkpt>
      <trkpt lat="47.34919" lon="-0.48928">
        <ele>71.9</ele>
        <time>2022-07-22T12:36:44.665Z</time>
      </trkpt>
      <trkpt lat="47.34918" lon="-0.48899">
        <ele>72</ele>
        <time>2022-07-22T12:36:45.665Z</time>
      </trkpt>
      <trkpt lat="47.34898" lon="-0.48823">
        <ele>71.8</ele>
        <time>2022-07-22T12:36:46.665Z</time>
      </trkpt>
      <trkpt lat="47.34898" lon="-0.4878">
        <ele>71.6</ele>
        <time>2022-07-22T12:36:47.665Z</time>
      </trkpt>
      <trkpt lat="47.34906" lon="-0.48758">
        <ele>71.3</ele>
        <time>2022-07-22T12:36:48.665Z</time>
      </trkpt>
      <trkpt lat="47.34918" lon="-0.48704">
        <ele>70.7</ele>
        <time>2022-07-22T12:36:49.665Z</time>
      </trkpt>
      <trkpt lat="47.34924" lon="-0.4869">
        <ele>70.5</ele>
        <time>2022-07-22T12:36:50.665Z</time>
      </trkpt>
      <trkpt lat="47.34937" lon="-0.4864">
        <ele>69.3</ele>
        <time>2022-07-22T12:36:51.665Z</time>
      </trkpt>
      <trkpt lat="47.34942" lon="-0.48568">
        <ele>67.3</ele>
        <time>2022-07-22T12:36:52.665Z</time>
      </trkpt>
      <trkpt lat="47.34955" lon="-0.48497">
        <ele>65.5</ele>
        <time>2022-07-22T12:36:53.665Z</time>
      </trkpt>
      <trkpt lat="47.34961" lon="-0.4848">
        <ele>65</ele>
        <time>2022-07-22T12:36:54.665Z</time>
      </trkpt>
      <trkpt lat="47.34981" lon="-0.48449">
        <ele>63.8</ele>
        <time>2022-07-22T12:36:55.665Z</time>
      </trkpt>
      <trkpt lat="47.34995" lon="-0.48434">
        <ele>62.7</ele>
        <time>2022-07-22T12:36:56.665Z</time>
      </trkpt>
      <trkpt lat="47.35043" lon="-0.48412">
        <ele>59.8</ele>
        <time>2022-07-22T12:36:57.665Z</time>
      </trkpt>
      <trkpt lat="47.35057" lon="-0.484">
        <ele>59.3</ele>
        <time>2022-07-22T12:36:58.665Z</time>
      </trkpt>
      <trkpt lat="47.35095" lon="-0.48353">
        <ele>58.8</ele>
        <time>2022-07-22T12:36:59.665Z</time>
      </trkpt>
      <trkpt lat="47.35109" lon="-0.4834">
        <ele>58.3</ele>
        <time>2022-07-22T12:37:00.665Z</time>
      </trkpt>
      <trkpt lat="47.35119" lon="-0.48321">
        <ele>57.8</ele>
        <time>2022-07-22T12:37:01.665Z</time>
      </trkpt>
      <trkpt lat="47.35155" lon="-0.48275">
        <ele>56.3</ele>
        <time>2022-07-22T12:37:02.665Z</time>
      </trkpt>
      <trkpt lat="47.35163" lon="-0.48273">
        <ele>56.1</ele>
        <time>2022-07-22T12:37:03.665Z</time>
      </trkpt>
      <trkpt lat="47.35192" lon="-0.48291">
        <ele>56.5</ele>
        <time>2022-07-22T12:37:04.665Z</time>
      </trkpt>
      <trkpt lat="47.35238" lon="-0.48305">
        <ele>56.9</ele>
        <time>2022-07-22T12:37:05.665Z</time>
      </trkpt>
      <trkpt lat="47.35329" lon="-0.48313">
        <ele>55.8</ele>
        <time>2022-07-22T12:37:06.665Z</time>
      </trkpt>
      <trkpt lat="47.35354" lon="-0.48318">
        <ele>55.3</ele>
        <time>2022-07-22T12:37:07.665Z</time>
      </trkpt>
      <trkpt lat="47.3541" lon="-0.48309">
        <ele>53.9</ele>
        <time>2022-07-22T12:37:08.665Z</time>
      </trkpt>
      <trkpt lat="47.35424" lon="-0.48312">
        <ele>53.6</ele>
        <time>2022-07-22T12:37:09.665Z</time>
      </trkpt>
      <trkpt lat="47.35474" lon="-0.48288">
        <ele>52.1</ele>
        <time>2022-07-22T12:37:10.665Z</time>
      </trkpt>
      <trkpt lat="47.35532" lon="-0.48245">
        <ele>50.8</ele>
        <time>2022-07-22T12:37:11.665Z</time>
      </trkpt>
      <trkpt lat="47.35617" lon="-0.48175">
        <ele>49</ele>
        <time>2022-07-22T12:37:12.665Z</time>
      </trkpt>
      <trkpt lat="47.35639" lon="-0.48163">
        <ele>49</ele>
        <time>2022-07-22T12:37:13.665Z</time>
      </trkpt>
      <trkpt lat="47.3566" lon="-0.48157">
        <ele>48.9</ele>
        <time>2022-07-22T12:37:14.665Z</time>
      </trkpt>
      <trkpt lat="47.35712" lon="-0.48156">
        <ele>48</ele>
        <time>2022-07-22T12:37:15.665Z</time>
      </trkpt>
      <trkpt lat="47.35751" lon="-0.48162">
        <ele>47.9</ele>
        <time>2022-07-22T12:37:16.665Z</time>
      </trkpt>
      <trkpt lat="47.35826" lon="-0.48156">
        <ele>47</ele>
        <time>2022-07-22T12:37:17.665Z</time>
      </trkpt>
      <trkpt lat="47.35847" lon="-0.48159">
        <ele>47</ele>
        <time>2022-07-22T12:37:18.665Z</time>
      </trkpt>
      <trkpt lat="47.35912" lon="-0.48138">
        <ele>46.5</ele>
        <time>2022-07-22T12:37:19.665Z</time>
      </trkpt>
      <trkpt lat="47.35923" lon="-0.48165">
        <ele>46.2</ele>
        <time>2022-07-22T12:37:20.665Z</time>
      </trkpt>
      <trkpt lat="47.35922" lon="-0.48162">
        <ele>46.3</ele>
        <time>2022-07-22T12:37:21.665Z</time>
      </trkpt>
      <trkpt lat="47.35925" lon="-0.48164">
        <ele>46.2</ele>
        <time>2022-07-22T12:37:22.665Z</time>
      </trkpt>
      <trkpt lat="47.35922" lon="-0.48164">
        <ele>46.3</ele>
        <time>2022-07-22T12:37:23.665Z</time>
      </trkpt>
      <trkpt lat="47.35922" lon="-0.48157">
        <ele>46.3</ele>
        <time>2022-07-22T12:37:24.665Z</time>
      </trkpt>
      <trkpt lat="47.35926" lon="-0.48154">
        <ele>46.2</ele>
        <time>2022-07-22T12:37:25.665Z</time>
      </trkpt>
      <trkpt lat="47.35967" lon="-0.48153">
        <ele>46</ele>
        <time>2022-07-22T12:37:26.665Z</time>
      </trkpt>
      <trkpt lat="47.36117" lon="-0.48162">
        <ele>39.3</ele>
        <time>2022-07-22T12:37:27.665Z</time>
      </trkpt>
      <trkpt lat="47.36129" lon="-0.48166">
        <ele>38.6</ele>
        <time>2022-07-22T12:37:28.665Z</time>
      </trkpt>
      <trkpt lat="47.36131" lon="-0.48176">
        <ele>38.2</ele>
        <time>2022-07-22T12:37:29.665Z</time>
      </trkpt>
      <trkpt lat="47.36123" lon="-0.48207">
        <ele>38.3</ele>
        <time>2022-07-22T12:37:30.665Z</time>
      </trkpt>
      <trkpt lat="47.36116" lon="-0.48251">
        <ele>38.7</ele>
        <time>2022-07-22T12:37:31.665Z</time>
      </trkpt>
      <trkpt lat="47.36114" lon="-0.48253">
        <ele>38.8</ele>
        <time>2022-07-22T12:37:32.665Z</time>
      </trkpt>
      <trkpt lat="47.36113" lon="-0.48249">
        <ele>38.9</ele>
        <time>2022-07-22T12:37:33.665Z</time>
      </trkpt>
      <trkpt lat="47.36119" lon="-0.48223">
        <ele>38.5</ele>
        <time>2022-07-22T12:37:34.665Z</time>
      </trkpt>
      <trkpt lat="47.36118" lon="-0.4822">
        <ele>38.6</ele>
        <time>2022-07-22T12:37:35.665Z</time>
      </trkpt>
      <trkpt lat="47.35929" lon="-0.48198">
        <ele>46.1</ele>
        <time>2022-07-22T12:37:36.665Z</time>
      </trkpt>
      <trkpt lat="47.35927" lon="-0.48203">
        <ele>46.1</ele>
        <time>2022-07-22T12:37:37.665Z</time>
      </trkpt>
      <trkpt lat="47.35942" lon="-0.48257">
        <ele>45.8</ele>
        <time>2022-07-22T12:37:38.665Z</time>
      </trkpt>
      <trkpt lat="47.3596" lon="-0.48306">
        <ele>45.3</ele>
        <time>2022-07-22T12:37:39.665Z</time>
      </trkpt>
      <trkpt lat="47.3606" lon="-0.48477">
        <ele>38.3</ele>
        <time>2022-07-22T12:37:40.665Z</time>
      </trkpt>
      <trkpt lat="47.36067" lon="-0.48478">
        <ele>38</ele>
        <time>2022-07-22T12:37:41.665Z</time>
      </trkpt>
      <trkpt lat="47.3607" lon="-0.48482">
        <ele>37.7</ele>
        <time>2022-07-22T12:37:42.665Z</time>
      </trkpt>
      <trkpt lat="47.36071" lon="-0.48494">
        <ele>37.3</ele>
        <time>2022-07-22T12:37:43.665Z</time>
      </trkpt>
      <trkpt lat="47.36097" lon="-0.48552">
        <ele>34.8</ele>
        <time>2022-07-22T12:37:44.665Z</time>
      </trkpt>
      <trkpt lat="47.36101" lon="-0.48577">
        <ele>34.2</ele>
        <time>2022-07-22T12:37:45.665Z</time>
      </trkpt>
      <trkpt lat="47.36111" lon="-0.48591">
        <ele>34</ele>
        <time>2022-07-22T12:37:46.665Z</time>
      </trkpt>
      <trkpt lat="47.36117" lon="-0.48591">
        <ele>34</ele>
        <time>2022-07-22T12:37:47.665Z</time>
      </trkpt>
      <trkpt lat="47.36115" lon="-0.48607">
        <ele>34</ele>
        <time>2022-07-22T12:37:48.665Z</time>
      </trkpt>
      <trkpt lat="47.36117" lon="-0.48605">
        <ele>34</ele>
        <time>2022-07-22T12:37:49.665Z</time>
      </trkpt>
      <trkpt lat="47.36123" lon="-0.48613">
        <ele>34</ele>
        <time>2022-07-22T12:37:50.665Z</time>
      </trkpt>
      <trkpt lat="47.36149" lon="-0.48617">
        <ele>34</ele>
        <time>2022-07-22T12:37:51.665Z</time>
      </trkpt>
      <trkpt lat="47.36185" lon="-0.48637">
        <ele>35.4</ele>
        <time>2022-07-22T12:37:52.665Z</time>
      </trkpt>
      <trkpt lat="47.36209" lon="-0.48659">
        <ele>36.8</ele>
        <time>2022-07-22T12:37:53.665Z</time>
      </trkpt>
      <trkpt lat="47.36272" lon="-0.48733">
        <ele>40.7</ele>
        <time>2022-07-22T12:37:54.665Z</time>
      </trkpt>
      <trkpt lat="47.36311" lon="-0.48758">
        <ele>44</ele>
        <time>2022-07-22T12:37:55.665Z</time>
      </trkpt>
      <trkpt lat="47.36322" lon="-0.4877">
        <ele>44.9</ele>
        <time>2022-07-22T12:37:56.665Z</time>
      </trkpt>
      <trkpt lat="47.36354" lon="-0.48796">
        <ele>47</ele>
        <time>2022-07-22T12:37:57.665Z</time>
      </trkpt>
      <trkpt lat="47.36385" lon="-0.48813">
        <ele>48.1</ele>
        <time>2022-07-22T12:37:58.665Z</time>
      </trkpt>
      <trkpt lat="47.36389" lon="-0.4881">
        <ele>48.1</ele>
        <time>2022-07-22T12:37:59.665Z</time>
      </trkpt>
      <trkpt lat="47.36396" lon="-0.48786">
        <ele>47.9</ele>
        <time>2022-07-22T12:38:00.665Z</time>
      </trkpt>
      <trkpt lat="47.36403" lon="-0.48774">
        <ele>47.9</ele>
        <time>2022-07-22T12:38:01.665Z</time>
      </trkpt>
      <trkpt lat="47.36474" lon="-0.48706">
        <ele>47.4</ele>
        <time>2022-07-22T12:38:02.665Z</time>
      </trkpt>
      <trkpt lat="47.36486" lon="-0.4869">
        <ele>47.1</ele>
        <time>2022-07-22T12:38:03.665Z</time>
      </trkpt>
      <trkpt lat="47.3649" lon="-0.48682">
        <ele>47</ele>
        <time>2022-07-22T12:38:04.665Z</time>
      </trkpt>
      <trkpt lat="47.36489" lon="-0.48675">
        <ele>47</ele>
        <time>2022-07-22T12:38:05.665Z</time>
      </trkpt>
      <trkpt lat="47.365" lon="-0.48673">
        <ele>47</ele>
        <time>2022-07-22T12:38:06.665Z</time>
      </trkpt>
      <trkpt lat="47.36513" lon="-0.48655">
        <ele>46.6</ele>
        <time>2022-07-22T12:38:07.665Z</time>
      </trkpt>
      <trkpt lat="47.36526" lon="-0.48643">
        <ele>46.3</ele>
        <time>2022-07-22T12:38:08.665Z</time>
      </trkpt>
      <trkpt lat="47.36565" lon="-0.48618">
        <ele>46</ele>
        <time>2022-07-22T12:38:09.665Z</time>
      </trkpt>
      <trkpt lat="47.36609" lon="-0.48583">
        <ele>45.3</ele>
        <time>2022-07-22T12:38:10.665Z</time>
      </trkpt>
      <trkpt lat="47.3673" lon="-0.48499">
        <ele>43</ele>
        <time>2022-07-22T12:38:11.665Z</time>
      </trkpt>
      <trkpt lat="47.36776" lon="-0.48471">
        <ele>42.1</ele>
        <time>2022-07-22T12:38:12.665Z</time>
      </trkpt>
      <trkpt lat="47.36786" lon="-0.48469">
        <ele>41.9</ele>
        <time>2022-07-22T12:38:13.665Z</time>
      </trkpt>
      <trkpt lat="47.36793" lon="-0.48477">
        <ele>41.7</ele>
        <time>2022-07-22T12:38:14.665Z</time>
      </trkpt>
      <trkpt lat="47.36808" lon="-0.48551">
        <ele>41.3</ele>
        <time>2022-07-22T12:38:15.665Z</time>
      </trkpt>
      <trkpt lat="47.36815" lon="-0.48565">
        <ele>41.2</ele>
        <time>2022-07-22T12:38:16.665Z</time>
      </trkpt>
      <trkpt lat="47.36826" lon="-0.48565">
        <ele>41</ele>
        <time>2022-07-22T12:38:17.665Z</time>
      </trkpt>
      <trkpt lat="47.36987" lon="-0.48513">
        <ele>38.4</ele>
        <time>2022-07-22T12:38:18.665Z</time>
      </trkpt>
      <trkpt lat="47.37072" lon="-0.48498">
        <ele>36.5</ele>
        <time>2022-07-22T12:38:19.665Z</time>
      </trkpt>
      <trkpt lat="47.37127" lon="-0.48485">
        <ele>34.6</ele>
        <time>2022-07-22T12:38:20.665Z</time>
      </trkpt>
      <trkpt lat="47.37139" lon="-0.48479">
        <ele>34.1</ele>
        <time>2022-07-22T12:38:21.665Z</time>
      </trkpt>
      <trkpt lat="47.37195" lon="-0.48431">
        <ele>32</ele>
        <time>2022-07-22T12:38:22.665Z</time>
      </trkpt>
      <trkpt lat="47.37225" lon="-0.48451">
        <ele>31.1</ele>
        <time>2022-07-22T12:38:23.665Z</time>
      </trkpt>
      <trkpt lat="47.37267" lon="-0.48486">
        <ele>29.7</ele>
        <time>2022-07-22T12:38:24.665Z</time>
      </trkpt>
      <trkpt lat="47.37286" lon="-0.48511">
        <ele>29.1</ele>
        <time>2022-07-22T12:38:25.665Z</time>
      </trkpt>
      <trkpt lat="47.37293" lon="-0.48531">
        <ele>29.2</ele>
        <time>2022-07-22T12:38:26.665Z</time>
      </trkpt>
      <trkpt lat="47.37295" lon="-0.4857">
        <ele>29.8</ele>
        <time>2022-07-22T12:38:27.665Z</time>
      </trkpt>
      <trkpt lat="47.37294" lon="-0.48602">
        <ele>30</ele>
        <time>2022-07-22T12:38:28.665Z</time>
      </trkpt>
      <trkpt lat="47.3729" lon="-0.48605">
        <ele>30</ele>
        <time>2022-07-22T12:38:29.665Z</time>
      </trkpt>
      <trkpt lat="47.37291" lon="-0.4859">
        <ele>30</ele>
        <time>2022-07-22T12:38:30.665Z</time>
      </trkpt>
      <trkpt lat="47.37296" lon="-0.48582">
        <ele>30</ele>
        <time>2022-07-22T12:38:31.665Z</time>
      </trkpt>
      <trkpt lat="47.37371" lon="-0.48541">
        <ele>29</ele>
        <time>2022-07-22T12:38:32.665Z</time>
      </trkpt>
      <trkpt lat="47.3744" lon="-0.48517">
        <ele>29</ele>
        <time>2022-07-22T12:38:33.665Z</time>
      </trkpt>
      <trkpt lat="47.37459" lon="-0.485">
        <ele>29.5</ele>
        <time>2022-07-22T12:38:34.665Z</time>
      </trkpt>
      <trkpt lat="47.37479" lon="-0.48473">
        <ele>30.4</ele>
        <time>2022-07-22T12:38:35.665Z</time>
      </trkpt>
      <trkpt lat="47.37526" lon="-0.48422">
        <ele>34.2</ele>
        <time>2022-07-22T12:38:36.665Z</time>
      </trkpt>
      <trkpt lat="47.37545" lon="-0.48391">
        <ele>34.9</ele>
        <time>2022-07-22T12:38:37.665Z</time>
      </trkpt>
      <trkpt lat="47.37581" lon="-0.4835">
        <ele>38.4</ele>
        <time>2022-07-22T12:38:38.665Z</time>
      </trkpt>
      <trkpt lat="47.37756" lon="-0.48234">
        <ele>48.6</ele>
        <time>2022-07-22T12:38:39.665Z</time>
      </trkpt>
      <trkpt lat="47.37817" lon="-0.48199">
        <ele>52.2</ele>
        <time>2022-07-22T12:38:40.665Z</time>
      </trkpt>
      <trkpt lat="47.37821" lon="-0.48204">
        <ele>52.2</ele>
        <time>2022-07-22T12:38:41.665Z</time>
      </trkpt>
      <trkpt lat="47.37826" lon="-0.48233">
        <ele>51.9</ele>
        <time>2022-07-22T12:38:42.665Z</time>
      </trkpt>
      <trkpt lat="47.37841" lon="-0.48286">
        <ele>51.8</ele>
        <time>2022-07-22T12:38:43.665Z</time>
      </trkpt>
      <trkpt lat="47.37853" lon="-0.48321">
        <ele>51.9</ele>
        <time>2022-07-22T12:38:44.665Z</time>
      </trkpt>
      <trkpt lat="47.37869" lon="-0.48393">
        <ele>51.5</ele>
        <time>2022-07-22T12:38:45.665Z</time>
      </trkpt>
      <trkpt lat="47.37885" lon="-0.48502">
        <ele>49</ele>
        <time>2022-07-22T12:38:46.665Z</time>
      </trkpt>
      <trkpt lat="47.3789" lon="-0.4856">
        <ele>47.4</ele>
        <time>2022-07-22T12:38:47.665Z</time>
      </trkpt>
      <trkpt lat="47.37897" lon="-0.48587">
        <ele>46.7</ele>
        <time>2022-07-22T12:38:48.665Z</time>
      </trkpt>
      <trkpt lat="47.37905" lon="-0.4859">
        <ele>46.8</ele>
        <time>2022-07-22T12:38:49.665Z</time>
      </trkpt>
      <trkpt lat="47.37921" lon="-0.48588">
        <ele>47.3</ele>
        <time>2022-07-22T12:38:50.665Z</time>
      </trkpt>
      <trkpt lat="47.3796" lon="-0.48601">
        <ele>47.5</ele>
        <time>2022-07-22T12:38:51.665Z</time>
      </trkpt>
      <trkpt lat="47.37983" lon="-0.48629">
        <ele>46.8</ele>
        <time>2022-07-22T12:38:52.665Z</time>
      </trkpt>
      <trkpt lat="47.38004" lon="-0.48639">
        <ele>47.1</ele>
        <time>2022-07-22T12:38:53.665Z</time>
      </trkpt>
      <trkpt lat="47.3801" lon="-0.48647">
        <ele>47.2</ele>
        <time>2022-07-22T12:38:54.665Z</time>
      </trkpt>
      <trkpt lat="47.38011" lon="-0.48672">
        <ele>47</ele>
        <time>2022-07-22T12:38:55.665Z</time>
      </trkpt>
      <trkpt lat="47.38014" lon="-0.48683">
        <ele>47</ele>
        <time>2022-07-22T12:38:56.665Z</time>
      </trkpt>
      <trkpt lat="47.38021" lon="-0.48687">
        <ele>47.3</ele>
        <time>2022-07-22T12:38:57.665Z</time>
      </trkpt>
      <trkpt lat="47.38028" lon="-0.48685">
        <ele>47.7</ele>
        <time>2022-07-22T12:38:58.665Z</time>
      </trkpt>
      <trkpt lat="47.38109" lon="-0.48634">
        <ele>50.2</ele>
        <time>2022-07-22T12:38:59.665Z</time>
      </trkpt>
      <trkpt lat="47.38145" lon="-0.48617">
        <ele>51.6</ele>
        <time>2022-07-22T12:39:00.665Z</time>
      </trkpt>
      <trkpt lat="47.38181" lon="-0.48609">
        <ele>52.6</ele>
        <time>2022-07-22T12:39:01.665Z</time>
      </trkpt>
      <trkpt lat="47.3824" lon="-0.48636">
        <ele>54</ele>
        <time>2022-07-22T12:39:02.665Z</time>
      </trkpt>
      <trkpt lat="47.38257" lon="-0.4864">
        <ele>54</ele>
        <time>2022-07-22T12:39:03.665Z</time>
      </trkpt>
      <trkpt lat="47.38283" lon="-0.48637">
        <ele>54.5</ele>
        <time>2022-07-22T12:39:04.665Z</time>
      </trkpt>
      <trkpt lat="47.38302" lon="-0.4863">
        <ele>54.8</ele>
        <time>2022-07-22T12:39:05.665Z</time>
      </trkpt>
      <trkpt lat="47.38329" lon="-0.48606">
        <ele>54.7</ele>
        <time>2022-07-22T12:39:06.665Z</time>
      </trkpt>
      <trkpt lat="47.38365" lon="-0.48541">
        <ele>55</ele>
        <time>2022-07-22T12:39:07.665Z</time>
      </trkpt>
      <trkpt lat="47.38388" lon="-0.48509">
        <ele>55</ele>
        <time>2022-07-22T12:39:08.665Z</time>
      </trkpt>
      <trkpt lat="47.38413" lon="-0.48485">
        <ele>54.6</ele>
        <time>2022-07-22T12:39:09.665Z</time>
      </trkpt>
      <trkpt lat="47.38437" lon="-0.48477">
        <ele>54.5</ele>
        <time>2022-07-22T12:39:10.665Z</time>
      </trkpt>
      <trkpt lat="47.38442" lon="-0.48478">
        <ele>54.5</ele>
        <time>2022-07-22T12:39:11.665Z</time>
      </trkpt>
      <trkpt lat="47.38446" lon="-0.48484">
        <ele>54.6</ele>
        <time>2022-07-22T12:39:12.665Z</time>
      </trkpt>
      <trkpt lat="47.38447" lon="-0.48493">
        <ele>54.7</ele>
        <time>2022-07-22T12:39:13.665Z</time>
      </trkpt>
      <trkpt lat="47.38446" lon="-0.48516">
        <ele>55</ele>
        <time>2022-07-22T12:39:14.665Z</time>
      </trkpt>
      <trkpt lat="47.38453" lon="-0.48526">
        <ele>54.9</ele>
        <time>2022-07-22T12:39:15.665Z</time>
      </trkpt>
      <trkpt lat="47.38477" lon="-0.48536">
        <ele>54.5</ele>
        <time>2022-07-22T12:39:16.665Z</time>
      </trkpt>
      <trkpt lat="47.38488" lon="-0.48544">
        <ele>54.5</ele>
        <time>2022-07-22T12:39:17.665Z</time>
      </trkpt>
      <trkpt lat="47.38496" lon="-0.48558">
        <ele>54.6</ele>
        <time>2022-07-22T12:39:18.665Z</time>
      </trkpt>
      <trkpt lat="47.38519" lon="-0.4862">
        <ele>55</ele>
        <time>2022-07-22T12:39:19.665Z</time>
      </trkpt>
      <trkpt lat="47.38528" lon="-0.48628">
        <ele>55</ele>
        <time>2022-07-22T12:39:20.665Z</time>
      </trkpt>
      <trkpt lat="47.38538" lon="-0.48624">
        <ele>55</ele>
        <time>2022-07-22T12:39:21.665Z</time>
      </trkpt>
      <trkpt lat="47.38629" lon="-0.48544">
        <ele>53.2</ele>
        <time>2022-07-22T12:39:22.665Z</time>
      </trkpt>
      <trkpt lat="47.38636" lon="-0.48525">
        <ele>52.8</ele>
        <time>2022-07-22T12:39:23.665Z</time>
      </trkpt>
      <trkpt lat="47.38633" lon="-0.48505">
        <ele>52.6</ele>
        <time>2022-07-22T12:39:24.665Z</time>
      </trkpt>
      <trkpt lat="47.38641" lon="-0.48489">
        <ele>52.3</ele>
        <time>2022-07-22T12:39:25.665Z</time>
      </trkpt>
      <trkpt lat="47.38678" lon="-0.48456">
        <ele>51.8</ele>
        <time>2022-07-22T12:39:26.665Z</time>
      </trkpt>
      <trkpt lat="47.3868" lon="-0.48461">
        <ele>51.8</ele>
        <time>2022-07-22T12:39:27.665Z</time>
      </trkpt>
      <trkpt lat="47.38665" lon="-0.48471">
        <ele>52</ele>
        <time>2022-07-22T12:39:28.665Z</time>
      </trkpt>
      <trkpt lat="47.38661" lon="-0.48485">
        <ele>52.1</ele>
        <time>2022-07-22T12:39:29.665Z</time>
      </trkpt>
      <trkpt lat="47.38676" lon="-0.48515">
        <ele>52</ele>
        <time>2022-07-22T12:39:30.665Z</time>
      </trkpt>
      <trkpt lat="47.38695" lon="-0.48595">
        <ele>53</ele>
        <time>2022-07-22T12:39:31.665Z</time>
      </trkpt>
      <trkpt lat="47.3872" lon="-0.48658">
        <ele>52.8</ele>
        <time>2022-07-22T12:39:32.665Z</time>
      </trkpt>
      <trkpt lat="47.38752" lon="-0.48785">
        <ele>53</ele>
        <time>2022-07-22T12:39:33.665Z</time>
      </trkpt>
      <trkpt lat="47.38761" lon="-0.48813">
        <ele>52.9</ele>
        <time>2022-07-22T12:39:34.665Z</time>
      </trkpt>
      <trkpt lat="47.38788" lon="-0.48917">
        <ele>53.1</ele>
        <time>2022-07-22T12:39:35.665Z</time>
      </trkpt>
      <trkpt lat="47.38791" lon="-0.48932">
        <ele>53.2</ele>
        <time>2022-07-22T12:39:36.665Z</time>
      </trkpt>
      <trkpt lat="47.38817" lon="-0.49038">
        <ele>53.5</ele>
        <time>2022-07-22T12:39:37.665Z</time>
      </trkpt>
      <trkpt lat="47.3884" lon="-0.49055">
        <ele>52.9</ele>
        <time>2022-07-22T12:39:38.665Z</time>
      </trkpt>
      <trkpt lat="47.38843" lon="-0.49068">
        <ele>52.8</ele>
        <time>2022-07-22T12:39:39.665Z</time>
      </trkpt>
      <trkpt lat="47.38855" lon="-0.49159">
        <ele>51.1</ele>
        <time>2022-07-22T12:39:40.665Z</time>
      </trkpt>
      <trkpt lat="47.38876" lon="-0.49285">
        <ele>48.7</ele>
        <time>2022-07-22T12:39:41.665Z</time>
      </trkpt>
      <trkpt lat="47.38886" lon="-0.4934">
        <ele>47.8</ele>
        <time>2022-07-22T12:39:42.665Z</time>
      </trkpt>
      <trkpt lat="47.38892" lon="-0.49342">
        <ele>47.6</ele>
        <time>2022-07-22T12:39:43.665Z</time>
      </trkpt>
      <trkpt lat="47.38907" lon="-0.49342">
        <ele>47.3</ele>
        <time>2022-07-22T12:39:44.665Z</time>
      </trkpt>
      <trkpt lat="47.38949" lon="-0.49325">
        <ele>46.5</ele>
        <time>2022-07-22T12:39:45.665Z</time>
      </trkpt>
      <trkpt lat="47.38995" lon="-0.49326">
        <ele>45.4</ele>
        <time>2022-07-22T12:39:46.665Z</time>
      </trkpt>
      <trkpt lat="47.39043" lon="-0.49339">
        <ele>44.3</ele>
        <time>2022-07-22T12:39:47.665Z</time>
      </trkpt>
      <trkpt lat="47.39048" lon="-0.49348">
        <ele>44.2</ele>
        <time>2022-07-22T12:39:48.665Z</time>
      </trkpt>
      <trkpt lat="47.39054" lon="-0.49421">
        <ele>44</ele>
        <time>2022-07-22T12:39:49.665Z</time>
      </trkpt>
      <trkpt lat="47.39056" lon="-0.49419">
        <ele>43.9</ele>
        <time>2022-07-22T12:39:50.665Z</time>
      </trkpt>
      <trkpt lat="47.39063" lon="-0.49545">
        <ele>43.6</ele>
        <time>2022-07-22T12:39:51.665Z</time>
      </trkpt>
      <trkpt lat="47.39068" lon="-0.49554">
        <ele>43.4</ele>
        <time>2022-07-22T12:39:52.665Z</time>
      </trkpt>
      <trkpt lat="47.39077" lon="-0.49556">
        <ele>43.2</ele>
        <time>2022-07-22T12:39:53.665Z</time>
      </trkpt>
      <trkpt lat="47.39118" lon="-0.4955">
        <ele>42.4</ele>
        <time>2022-07-22T12:39:54.665Z</time>
      </trkpt>
      <trkpt lat="47.39125" lon="-0.49558">
        <ele>42.3</ele>
        <time>2022-07-22T12:39:55.665Z</time>
      </trkpt>
      <trkpt lat="47.39126" lon="-0.49586">
        <ele>42.1</ele>
        <time>2022-07-22T12:39:56.665Z</time>
      </trkpt>
      <trkpt lat="47.39123" lon="-0.49645">
        <ele>41.6</ele>
        <time>2022-07-22T12:39:57.665Z</time>
      </trkpt>
      <trkpt lat="47.39125" lon="-0.4971">
        <ele>41.2</ele>
        <time>2022-07-22T12:39:58.665Z</time>
      </trkpt>
      <trkpt lat="47.39134" lon="-0.49762">
        <ele>40.7</ele>
        <time>2022-07-22T12:39:59.665Z</time>
      </trkpt>
      <trkpt lat="47.39141" lon="-0.49765">
        <ele>40.5</ele>
        <time>2022-07-22T12:40:00.665Z</time>
      </trkpt>
      <trkpt lat="47.39188" lon="-0.49752">
        <ele>39.7</ele>
        <time>2022-07-22T12:40:01.665Z</time>
      </trkpt>
      <trkpt lat="47.39297" lon="-0.49703">
        <ele>38.7</ele>
        <time>2022-07-22T12:40:02.665Z</time>
      </trkpt>
      <trkpt lat="47.39332" lon="-0.49693">
        <ele>38.9</ele>
        <time>2022-07-22T12:40:03.665Z</time>
      </trkpt>
      <trkpt lat="47.39368" lon="-0.49694">
        <ele>38.9</ele>
        <time>2022-07-22T12:40:04.665Z</time>
      </trkpt>
      <trkpt lat="47.39439" lon="-0.497">
        <ele>38.9</ele>
        <time>2022-07-22T12:40:05.665Z</time>
      </trkpt>
      <trkpt lat="47.39494" lon="-0.4969">
        <ele>39</ele>
        <time>2022-07-22T12:40:06.665Z</time>
      </trkpt>
      <trkpt lat="47.39585" lon="-0.49679">
        <ele>41.6</ele>
        <time>2022-07-22T12:40:07.665Z</time>
      </trkpt>
      <trkpt lat="47.39636" lon="-0.49662">
        <ele>42.7</ele>
        <time>2022-07-22T12:40:08.665Z</time>
      </trkpt>
      <trkpt lat="47.39636" lon="-0.4965">
        <ele>42.3</ele>
        <time>2022-07-22T12:40:09.665Z</time>
      </trkpt>
      <trkpt lat="47.3964" lon="-0.49644">
        <ele>42.1</ele>
        <time>2022-07-22T12:40:10.665Z</time>
      </trkpt>
      <trkpt lat="47.39658" lon="-0.49647">
        <ele>41.7</ele>
        <time>2022-07-22T12:40:11.665Z</time>
      </trkpt>
      <trkpt lat="47.39763" lon="-0.49647">
        <ele>40.1</ele>
        <time>2022-07-22T12:40:12.665Z</time>
      </trkpt>
      <trkpt lat="47.39865" lon="-0.49651">
        <ele>38.1</ele>
        <time>2022-07-22T12:40:13.665Z</time>
      </trkpt>
      <trkpt lat="47.39879" lon="-0.49672">
        <ele>38.7</ele>
        <time>2022-07-22T12:40:14.665Z</time>
      </trkpt>
      <trkpt lat="47.39892" lon="-0.49678">
        <ele>38.8</ele>
        <time>2022-07-22T12:40:15.665Z</time>
      </trkpt>
      <trkpt lat="47.39922" lon="-0.49659">
        <ele>37.8</ele>
        <time>2022-07-22T12:40:16.665Z</time>
      </trkpt>
      <trkpt lat="47.39954" lon="-0.49645">
        <ele>36.6</ele>
        <time>2022-07-22T12:40:17.665Z</time>
      </trkpt>
      <trkpt lat="47.39978" lon="-0.49639">
        <ele>35.9</ele>
        <time>2022-07-22T12:40:18.665Z</time>
      </trkpt>
      <trkpt lat="47.40001" lon="-0.49652">
        <ele>35.7</ele>
        <time>2022-07-22T12:40:19.665Z</time>
      </trkpt>
      <trkpt lat="47.40047" lon="-0.49706">
        <ele>36.9</ele>
        <time>2022-07-22T12:40:20.665Z</time>
      </trkpt>
      <trkpt lat="47.40055" lon="-0.49708">
        <ele>36.8</ele>
        <time>2022-07-22T12:40:21.665Z</time>
      </trkpt>
      <trkpt lat="47.40093" lon="-0.49747">
        <ele>37.5</ele>
        <time>2022-07-22T12:40:22.665Z</time>
      </trkpt>
      <trkpt lat="47.40159" lon="-0.49826">
        <ele>36.8</ele>
        <time>2022-07-22T12:40:23.665Z</time>
      </trkpt>
      <trkpt lat="47.40183" lon="-0.49848">
        <ele>35.2</ele>
        <time>2022-07-22T12:40:24.665Z</time>
      </trkpt>
      <trkpt lat="47.40205" lon="-0.49876">
        <ele>33.5</ele>
        <time>2022-07-22T12:40:25.665Z</time>
      </trkpt>
      <trkpt lat="47.40229" lon="-0.49902">
        <ele>31.8</ele>
        <time>2022-07-22T12:40:26.665Z</time>
      </trkpt>
      <trkpt lat="47.40299" lon="-0.49986">
        <ele>29</ele>
        <time>2022-07-22T12:40:27.665Z</time>
      </trkpt>
      <trkpt lat="47.40329" lon="-0.50031">
        <ele>29.4</ele>
        <time>2022-07-22T12:40:28.665Z</time>
      </trkpt>
      <trkpt lat="47.40344" lon="-0.5006">
        <ele>29.9</ele>
        <time>2022-07-22T12:40:29.665Z</time>
      </trkpt>
      <trkpt lat="47.40353" lon="-0.50067">
        <ele>30.1</ele>
        <time>2022-07-22T12:40:30.665Z</time>
      </trkpt>
      <trkpt lat="47.40375" lon="-0.50114">
        <ele>32</ele>
        <time>2022-07-22T12:40:31.665Z</time>
      </trkpt>
      <trkpt lat="47.40397" lon="-0.50158">
        <ele>33.6</ele>
        <time>2022-07-22T12:40:32.665Z</time>
      </trkpt>
      <trkpt lat="47.40453" lon="-0.50356">
        <ele>33.4</ele>
        <time>2022-07-22T12:40:33.665Z</time>
      </trkpt>
      <trkpt lat="47.40477" lon="-0.50427">
        <ele>31.3</ele>
        <time>2022-07-22T12:40:34.665Z</time>
      </trkpt>
      <trkpt lat="47.4049" lon="-0.50456">
        <ele>28.6</ele>
        <time>2022-07-22T12:40:35.665Z</time>
      </trkpt>
      <trkpt lat="47.40506" lon="-0.50483">
        <ele>25</ele>
        <time>2022-07-22T12:40:36.665Z</time>
      </trkpt>
      <trkpt lat="47.40519" lon="-0.50522">
        <ele>22.2</ele>
        <time>2022-07-22T12:40:37.665Z</time>
      </trkpt>
      <trkpt lat="47.4056" lon="-0.50597">
        <ele>20</ele>
        <time>2022-07-22T12:40:38.665Z</time>
      </trkpt>
      <trkpt lat="47.40579" lon="-0.50626">
        <ele>20</ele>
        <time>2022-07-22T12:40:39.665Z</time>
      </trkpt>
      <trkpt lat="47.4059" lon="-0.50636">
        <ele>20</ele>
        <time>2022-07-22T12:40:40.665Z</time>
      </trkpt>
      <trkpt lat="47.40603" lon="-0.50641">
        <ele>20</ele>
        <time>2022-07-22T12:40:41.665Z</time>
      </trkpt>
      <trkpt lat="47.40759" lon="-0.50671">
        <ele>19</ele>
        <time>2022-07-22T12:40:42.665Z</time>
      </trkpt>
      <trkpt lat="47.40768" lon="-0.50675">
        <ele>19</ele>
        <time>2022-07-22T12:40:43.665Z</time>
      </trkpt>
      <trkpt lat="47.40771" lon="-0.50686">
        <ele>19</ele>
        <time>2022-07-22T12:40:44.665Z</time>
      </trkpt>
      <trkpt lat="47.40771" lon="-0.50738">
        <ele>19</ele>
        <time>2022-07-22T12:40:45.665Z</time>
      </trkpt>
      <trkpt lat="47.40768" lon="-0.50771">
        <ele>19</ele>
        <time>2022-07-22T12:40:46.665Z</time>
      </trkpt>
      <trkpt lat="47.40755" lon="-0.50833">
        <ele>19</ele>
        <time>2022-07-22T12:40:47.665Z</time>
      </trkpt>
      <trkpt lat="47.40749" lon="-0.5085">
        <ele>19</ele>
        <time>2022-07-22T12:40:48.665Z</time>
      </trkpt>
      <trkpt lat="47.40741" lon="-0.50862">
        <ele>19</ele>
        <time>2022-07-22T12:40:49.665Z</time>
      </trkpt>
      <trkpt lat="47.40723" lon="-0.50876">
        <ele>19</ele>
        <time>2022-07-22T12:40:50.665Z</time>
      </trkpt>
      <trkpt lat="47.40606" lon="-0.50915">
        <ele>19.7</ele>
        <time>2022-07-22T12:40:51.665Z</time>
      </trkpt>
      <trkpt lat="47.40598" lon="-0.50923">
        <ele>19.8</ele>
        <time>2022-07-22T12:40:52.665Z</time>
      </trkpt>
      <trkpt lat="47.40595" lon="-0.50941">
        <ele>19.9</ele>
        <time>2022-07-22T12:40:53.665Z</time>
      </trkpt>
      <trkpt lat="47.40604" lon="-0.50985">
        <ele>19.3</ele>
        <time>2022-07-22T12:40:54.665Z</time>
      </trkpt>
      <trkpt lat="47.40619" lon="-0.50992">
        <ele>19.1</ele>
        <time>2022-07-22T12:40:55.665Z</time>
      </trkpt>
      <trkpt lat="47.40633" lon="-0.50989">
        <ele>19</ele>
        <time>2022-07-22T12:40:56.665Z</time>
      </trkpt>
      <trkpt lat="47.40647" lon="-0.50981">
        <ele>19</ele>
        <time>2022-07-22T12:40:57.665Z</time>
      </trkpt>
      <trkpt lat="47.40681" lon="-0.50971">
        <ele>19</ele>
        <time>2022-07-22T12:40:58.665Z</time>
      </trkpt>
      <trkpt lat="47.40791" lon="-0.50928">
        <ele>19</ele>
        <time>2022-07-22T12:40:59.665Z</time>
      </trkpt>
      <trkpt lat="47.4081" lon="-0.50927">
        <ele>19</ele>
        <time>2022-07-22T12:41:00.665Z</time>
      </trkpt>
      <trkpt lat="47.4083" lon="-0.50936">
        <ele>19.1</ele>
        <time>2022-07-22T12:41:01.665Z</time>
      </trkpt>
      <trkpt lat="47.40883" lon="-0.5097">
        <ele>19.4</ele>
        <time>2022-07-22T12:41:02.665Z</time>
      </trkpt>
      <trkpt lat="47.40896" lon="-0.50986">
        <ele>19.5</ele>
        <time>2022-07-22T12:41:03.665Z</time>
      </trkpt>
      <trkpt lat="47.40896" lon="-0.51009">
        <ele>19.2</ele>
        <time>2022-07-22T12:41:04.665Z</time>
      </trkpt>
      <trkpt lat="47.40889" lon="-0.51042">
        <ele>19</ele>
        <time>2022-07-22T12:41:05.665Z</time>
      </trkpt>
      <trkpt lat="47.4088" lon="-0.51076">
        <ele>19</ele>
        <time>2022-07-22T12:41:06.665Z</time>
      </trkpt>
      <trkpt lat="47.40881" lon="-0.51112">
        <ele>19</ele>
        <time>2022-07-22T12:41:07.665Z</time>
      </trkpt>
      <trkpt lat="47.40869" lon="-0.51241">
        <ele>19</ele>
        <time>2022-07-22T12:41:08.665Z</time>
      </trkpt>
      <trkpt lat="47.40871" lon="-0.51275">
        <ele>19</ele>
        <time>2022-07-22T12:41:09.665Z</time>
      </trkpt>
      <trkpt lat="47.40879" lon="-0.51308">
        <ele>19</ele>
        <time>2022-07-22T12:41:10.665Z</time>
      </trkpt>
      <trkpt lat="47.40894" lon="-0.51333">
        <ele>19</ele>
        <time>2022-07-22T12:41:11.665Z</time>
      </trkpt>
      <trkpt lat="47.40902" lon="-0.51334">
        <ele>19</ele>
        <time>2022-07-22T12:41:12.665Z</time>
      </trkpt>
      <trkpt lat="47.4092" lon="-0.5132">
        <ele>19</ele>
        <time>2022-07-22T12:41:13.665Z</time>
      </trkpt>
      <trkpt lat="47.40932" lon="-0.51315">
        <ele>19</ele>
        <time>2022-07-22T12:41:14.665Z</time>
      </trkpt>
      <trkpt lat="47.40944" lon="-0.51314">
        <ele>19</ele>
        <time>2022-07-22T12:41:15.665Z</time>
      </trkpt>
      <trkpt lat="47.40957" lon="-0.51318">
        <ele>19</ele>
        <time>2022-07-22T12:41:16.665Z</time>
      </trkpt>
      <trkpt lat="47.40989" lon="-0.51341">
        <ele>19</ele>
        <time>2022-07-22T12:41:17.665Z</time>
      </trkpt>
      <trkpt lat="47.41012" lon="-0.51348">
        <ele>19</ele>
        <time>2022-07-22T12:41:18.665Z</time>
      </trkpt>
      <trkpt lat="47.41023" lon="-0.51357">
        <ele>19</ele>
        <time>2022-07-22T12:41:19.665Z</time>
      </trkpt>
      <trkpt lat="47.41035" lon="-0.51363">
        <ele>19</ele>
        <time>2022-07-22T12:41:20.665Z</time>
      </trkpt>
      <trkpt lat="47.4106" lon="-0.51395">
        <ele>19</ele>
        <time>2022-07-22T12:41:21.665Z</time>
      </trkpt>
      <trkpt lat="47.41082" lon="-0.51408">
        <ele>19</ele>
        <time>2022-07-22T12:41:22.665Z</time>
      </trkpt>
      <trkpt lat="47.41087" lon="-0.51423">
        <ele>19</ele>
        <time>2022-07-22T12:41:23.665Z</time>
      </trkpt>
      <trkpt lat="47.41089" lon="-0.5145">
        <ele>19</ele>
        <time>2022-07-22T12:41:24.665Z</time>
      </trkpt>
      <trkpt lat="47.41079" lon="-0.51501">
        <ele>19</ele>
        <time>2022-07-22T12:41:25.665Z</time>
      </trkpt>
      <trkpt lat="47.41077" lon="-0.51533">
        <ele>19</ele>
        <time>2022-07-22T12:41:26.665Z</time>
      </trkpt>
      <trkpt lat="47.41063" lon="-0.5161">
        <ele>19</ele>
        <time>2022-07-22T12:41:27.665Z</time>
      </trkpt>
      <trkpt lat="47.41056" lon="-0.51677">
        <ele>19</ele>
        <time>2022-07-22T12:41:28.665Z</time>
      </trkpt>
      <trkpt lat="47.41032" lon="-0.51832">
        <ele>19</ele>
        <time>2022-07-22T12:41:29.665Z</time>
      </trkpt>
      <trkpt lat="47.41033" lon="-0.51847">
        <ele>19</ele>
        <time>2022-07-22T12:41:30.665Z</time>
      </trkpt>
      <trkpt lat="47.4104" lon="-0.51853">
        <ele>19</ele>
        <time>2022-07-22T12:41:31.665Z</time>
      </trkpt>
      <trkpt lat="47.41056" lon="-0.51854">
        <ele>19</ele>
        <time>2022-07-22T12:41:32.665Z</time>
      </trkpt>
      <trkpt lat="47.41091" lon="-0.51847">
        <ele>19.6</ele>
        <time>2022-07-22T12:41:33.665Z</time>
      </trkpt>
      <trkpt lat="47.41103" lon="-0.5184">
        <ele>19.9</ele>
        <time>2022-07-22T12:41:34.665Z</time>
      </trkpt>
      <trkpt lat="47.411" lon="-0.51843">
        <ele>19.8</ele>
        <time>2022-07-22T12:41:35.665Z</time>
      </trkpt>
      <trkpt lat="47.41102" lon="-0.51844">
        <ele>19.8</ele>
        <time>2022-07-22T12:41:36.665Z</time>
      </trkpt>
      <trkpt lat="47.41114" lon="-0.51839">
        <ele>20</ele>
        <time>2022-07-22T12:41:37.665Z</time>
      </trkpt>
      <trkpt lat="47.41143" lon="-0.51842">
        <ele>20</ele>
        <time>2022-07-22T12:41:38.665Z</time>
      </trkpt>
      <trkpt lat="47.41178" lon="-0.51839">
        <ele>20</ele>
        <time>2022-07-22T12:41:39.665Z</time>
      </trkpt>
      <trkpt lat="47.41195" lon="-0.51842">
        <ele>20</ele>
        <time>2022-07-22T12:41:40.665Z</time>
      </trkpt>
      <trkpt lat="47.41189" lon="-0.51842">
        <ele>20</ele>
        <time>2022-07-22T12:41:41.665Z</time>
      </trkpt>
      <trkpt lat="47.41186" lon="-0.51848">
        <ele>20</ele>
        <time>2022-07-22T12:41:42.665Z</time>
      </trkpt>
      <trkpt lat="47.41186" lon="-0.51867">
        <ele>20</ele>
        <time>2022-07-22T12:41:43.665Z</time>
      </trkpt>
      <trkpt lat="47.41176" lon="-0.51905">
        <ele>20</ele>
        <time>2022-07-22T12:41:44.665Z</time>
      </trkpt>
      <trkpt lat="47.41175" lon="-0.51919">
        <ele>20</ele>
        <time>2022-07-22T12:41:45.665Z</time>
      </trkpt>
      <trkpt lat="47.41165" lon="-0.51944">
        <ele>20</ele>
        <time>2022-07-22T12:41:46.665Z</time>
      </trkpt>
      <trkpt lat="47.41155" lon="-0.51983">
        <ele>19.8</ele>
        <time>2022-07-22T12:41:47.665Z</time>
      </trkpt>
      <trkpt lat="47.4115" lon="-0.51994">
        <ele>19.7</ele>
        <time>2022-07-22T12:41:48.665Z</time>
      </trkpt>
      <trkpt lat="47.41135" lon="-0.52052">
        <ele>19</ele>
        <time>2022-07-22T12:41:49.665Z</time>
      </trkpt>
      <trkpt lat="47.41134" lon="-0.52097">
        <ele>19</ele>
        <time>2022-07-22T12:41:50.665Z</time>
      </trkpt>
      <trkpt lat="47.41132" lon="-0.52103">
        <ele>19</ele>
        <time>2022-07-22T12:41:51.665Z</time>
      </trkpt>
      <trkpt lat="47.41134" lon="-0.52107">
        <ele>19</ele>
        <time>2022-07-22T12:41:52.665Z</time>
      </trkpt>
      <trkpt lat="47.41132" lon="-0.52149">
        <ele>18.8</ele>
        <time>2022-07-22T12:41:53.665Z</time>
      </trkpt>
      <trkpt lat="47.41135" lon="-0.52156">
        <ele>18.8</ele>
        <time>2022-07-22T12:41:54.665Z</time>
      </trkpt>
      <trkpt lat="47.41151" lon="-0.52168">
        <ele>18.9</ele>
        <time>2022-07-22T12:41:55.665Z</time>
      </trkpt>
      <trkpt lat="47.4115" lon="-0.52189">
        <ele>18.9</ele>
        <time>2022-07-22T12:41:56.665Z</time>
      </trkpt>
      <trkpt lat="47.41127" lon="-0.52227">
        <ele>18.6</ele>
        <time>2022-07-22T12:41:57.665Z</time>
      </trkpt>
      <trkpt lat="47.41089" lon="-0.52301">
        <ele>18.8</ele>
        <time>2022-07-22T12:41:58.665Z</time>
      </trkpt>
      <trkpt lat="47.41074" lon="-0.52351">
        <ele>18.9</ele>
        <time>2022-07-22T12:41:59.665Z</time>
      </trkpt>
      <trkpt lat="47.4106" lon="-0.52385">
        <ele>19</ele>
        <time>2022-07-22T12:42:00.665Z</time>
      </trkpt>
      <trkpt lat="47.41042" lon="-0.5241">
        <ele>19</ele>
        <time>2022-07-22T12:42:01.665Z</time>
      </trkpt>
      <trkpt lat="47.41036" lon="-0.52434">
        <ele>19</ele>
        <time>2022-07-22T12:42:02.665Z</time>
      </trkpt>
      <trkpt lat="47.40969" lon="-0.5246">
        <ele>19</ele>
        <time>2022-07-22T12:42:03.665Z</time>
      </trkpt>
      <trkpt lat="47.40951" lon="-0.52469">
        <ele>19</ele>
        <time>2022-07-22T12:42:04.665Z</time>
      </trkpt>
      <trkpt lat="47.40941" lon="-0.52468">
        <ele>19</ele>
        <time>2022-07-22T12:42:05.665Z</time>
      </trkpt>
      <trkpt lat="47.40917" lon="-0.52495">
        <ele>19</ele>
        <time>2022-07-22T12:42:06.665Z</time>
      </trkpt>
      <trkpt lat="47.40752" lon="-0.52558">
        <ele>18.9</ele>
        <time>2022-07-22T12:42:07.665Z</time>
      </trkpt>
      <trkpt lat="47.40746" lon="-0.52558">
        <ele>18.9</ele>
        <time>2022-07-22T12:42:08.665Z</time>
      </trkpt>
      <trkpt lat="47.40746" lon="-0.52552">
        <ele>18.9</ele>
        <time>2022-07-22T12:42:09.665Z</time>
      </trkpt>
      <trkpt lat="47.40853" lon="-0.52511">
        <ele>19</ele>
        <time>2022-07-22T12:42:10.665Z</time>
      </trkpt>
      <trkpt lat="47.40903" lon="-0.52488">
        <ele>19</ele>
        <time>2022-07-22T12:42:11.665Z</time>
      </trkpt>
      <trkpt lat="47.40957" lon="-0.52472">
        <ele>19</ele>
        <time>2022-07-22T12:42:12.665Z</time>
      </trkpt>
      <trkpt lat="47.41029" lon="-0.5244">
        <ele>19</ele>
        <time>2022-07-22T12:42:13.665Z</time>
      </trkpt>
      <trkpt lat="47.41203" lon="-0.52378">
        <ele>20</ele>
        <time>2022-07-22T12:42:14.665Z</time>
      </trkpt>
      <trkpt lat="47.41327" lon="-0.52345">
        <ele>17.5</ele>
        <time>2022-07-22T12:42:15.665Z</time>
      </trkpt>
      <trkpt lat="47.41354" lon="-0.52335">
        <ele>17.3</ele>
        <time>2022-07-22T12:42:16.665Z</time>
      </trkpt>
      <trkpt lat="47.41423" lon="-0.52324">
        <ele>20.4</ele>
        <time>2022-07-22T12:42:17.665Z</time>
      </trkpt>
      <trkpt lat="47.41479" lon="-0.52306">
        <ele>22.8</ele>
        <time>2022-07-22T12:42:18.665Z</time>
      </trkpt>
      <trkpt lat="47.41603" lon="-0.52321">
        <ele>22.4</ele>
        <time>2022-07-22T12:42:19.665Z</time>
      </trkpt>
      <trkpt lat="47.41712" lon="-0.52325">
        <ele>20.9</ele>
        <time>2022-07-22T12:42:20.665Z</time>
      </trkpt>
      <trkpt lat="47.41738" lon="-0.52329">
        <ele>20.9</ele>
        <time>2022-07-22T12:42:21.665Z</time>
      </trkpt>
      <trkpt lat="47.41812" lon="-0.52332">
        <ele>20.9</ele>
        <time>2022-07-22T12:42:22.665Z</time>
      </trkpt>
      <trkpt lat="47.41834" lon="-0.52323">
        <ele>20.5</ele>
        <time>2022-07-22T12:42:23.665Z</time>
      </trkpt>
      <trkpt lat="47.41845" lon="-0.52321">
        <ele>20.3</ele>
        <time>2022-07-22T12:42:24.665Z</time>
      </trkpt>
      <trkpt lat="47.41867" lon="-0.52336">
        <ele>20</ele>
        <time>2022-07-22T12:42:25.665Z</time>
      </trkpt>
      <trkpt lat="47.4197" lon="-0.52347">
        <ele>20</ele>
        <time>2022-07-22T12:42:26.665Z</time>
      </trkpt>
      <trkpt lat="47.42176" lon="-0.52356">
        <ele>20</ele>
        <time>2022-07-22T12:42:27.665Z</time>
      </trkpt>
      <trkpt lat="47.42279" lon="-0.52367">
        <ele>20</ele>
        <time>2022-07-22T12:42:28.665Z</time>
      </trkpt>
      <trkpt lat="47.42315" lon="-0.52393">
        <ele>20</ele>
        <time>2022-07-22T12:42:29.665Z</time>
      </trkpt>
      <trkpt lat="47.42324" lon="-0.52395">
        <ele>20</ele>
        <time>2022-07-22T12:42:30.665Z</time>
      </trkpt>
      <trkpt lat="47.42387" lon="-0.52448">
        <ele>20</ele>
        <time>2022-07-22T12:42:31.665Z</time>
      </trkpt>
      <trkpt lat="47.424" lon="-0.52454">
        <ele>20</ele>
        <time>2022-07-22T12:42:32.665Z</time>
      </trkpt>
      <trkpt lat="47.42445" lon="-0.52488">
        <ele>20</ele>
        <time>2022-07-22T12:42:33.665Z</time>
      </trkpt>
      <trkpt lat="47.42456" lon="-0.52499">
        <ele>20</ele>
        <time>2022-07-22T12:42:34.665Z</time>
      </trkpt>
      <trkpt lat="47.42468" lon="-0.52506">
        <ele>20</ele>
        <time>2022-07-22T12:42:35.665Z</time>
      </trkpt>
      <trkpt lat="47.42481" lon="-0.52508">
        <ele>20</ele>
        <time>2022-07-22T12:42:36.665Z</time>
      </trkpt>
      <trkpt lat="47.42554" lon="-0.52561">
        <ele>20</ele>
        <time>2022-07-22T12:42:37.665Z</time>
      </trkpt>
      <trkpt lat="47.42588" lon="-0.52582">
        <ele>20</ele>
        <time>2022-07-22T12:42:38.665Z</time>
      </trkpt>
      <trkpt lat="47.42644" lon="-0.52626">
        <ele>20</ele>
        <time>2022-07-22T12:42:39.665Z</time>
      </trkpt>
      <trkpt lat="47.42729" lon="-0.52684">
        <ele>20</ele>
        <time>2022-07-22T12:42:40.665Z</time>
      </trkpt>
      <trkpt lat="47.42772" lon="-0.5272">
        <ele>20</ele>
        <time>2022-07-22T12:42:41.665Z</time>
      </trkpt>
      <trkpt lat="47.42794" lon="-0.52734">
        <ele>20</ele>
        <time>2022-07-22T12:42:42.665Z</time>
      </trkpt>
      <trkpt lat="47.42799" lon="-0.52735">
        <ele>20</ele>
        <time>2022-07-22T12:42:43.665Z</time>
      </trkpt>
      <trkpt lat="47.4281" lon="-0.52694">
        <ele>20</ele>
        <time>2022-07-22T12:42:44.665Z</time>
      </trkpt>
      <trkpt lat="47.42816" lon="-0.52662">
        <ele>20</ele>
        <time>2022-07-22T12:42:45.665Z</time>
      </trkpt>
      <trkpt lat="47.42859" lon="-0.52493">
        <ele>19</ele>
        <time>2022-07-22T12:42:46.665Z</time>
      </trkpt>
      <trkpt lat="47.42869" lon="-0.52444">
        <ele>19</ele>
        <time>2022-07-22T12:42:47.665Z</time>
      </trkpt>
      <trkpt lat="47.42875" lon="-0.52427">
        <ele>19</ele>
        <time>2022-07-22T12:42:48.665Z</time>
      </trkpt>
      <trkpt lat="47.42887" lon="-0.5236">
        <ele>18.5</ele>
        <time>2022-07-22T12:42:49.665Z</time>
      </trkpt>
      <trkpt lat="47.42891" lon="-0.52325">
        <ele>18</ele>
        <time>2022-07-22T12:42:50.665Z</time>
      </trkpt>
      <trkpt lat="47.4288" lon="-0.52114">
        <ele>18</ele>
        <time>2022-07-22T12:42:51.665Z</time>
      </trkpt>
      <trkpt lat="47.42868" lon="-0.51973">
        <ele>18.3</ele>
        <time>2022-07-22T12:42:52.665Z</time>
      </trkpt>
      <trkpt lat="47.4287" lon="-0.51957">
        <ele>18.5</ele>
        <time>2022-07-22T12:42:53.665Z</time>
      </trkpt>
      <trkpt lat="47.4288" lon="-0.51947">
        <ele>18.5</ele>
        <time>2022-07-22T12:42:54.665Z</time>
      </trkpt>
      <trkpt lat="47.42892" lon="-0.51941">
        <ele>18.3</ele>
        <time>2022-07-22T12:42:55.665Z</time>
      </trkpt>
      <trkpt lat="47.42981" lon="-0.51946">
        <ele>18</ele>
        <time>2022-07-22T12:42:56.665Z</time>
      </trkpt>
      <trkpt lat="47.43017" lon="-0.51941">
        <ele>18</ele>
        <time>2022-07-22T12:42:57.665Z</time>
      </trkpt>
      <trkpt lat="47.4304" lon="-0.51934">
        <ele>18</ele>
        <time>2022-07-22T12:42:58.665Z</time>
      </trkpt>
      <trkpt lat="47.43049" lon="-0.51923">
        <ele>18</ele>
        <time>2022-07-22T12:42:59.665Z</time>
      </trkpt>
      <trkpt lat="47.43052" lon="-0.51908">
        <ele>18</ele>
        <time>2022-07-22T12:43:00.665Z</time>
      </trkpt>
      <trkpt lat="47.43054" lon="-0.51873">
        <ele>18</ele>
        <time>2022-07-22T12:43:01.665Z</time>
      </trkpt>
      <trkpt lat="47.43053" lon="-0.51623">
        <ele>18</ele>
        <time>2022-07-22T12:43:02.665Z</time>
      </trkpt>
      <trkpt lat="47.43056" lon="-0.51567">
        <ele>17.9</ele>
        <time>2022-07-22T12:43:03.665Z</time>
      </trkpt>
      <trkpt lat="47.43053" lon="-0.5151">
        <ele>18</ele>
        <time>2022-07-22T12:43:04.665Z</time>
      </trkpt>
      <trkpt lat="47.43055" lon="-0.51382">
        <ele>18</ele>
        <time>2022-07-22T12:43:05.665Z</time>
      </trkpt>
      <trkpt lat="47.43049" lon="-0.51329">
        <ele>18</ele>
        <time>2022-07-22T12:43:06.665Z</time>
      </trkpt>
      <trkpt lat="47.43052" lon="-0.51227">
        <ele>18</ele>
        <time>2022-07-22T12:43:07.665Z</time>
      </trkpt>
      <trkpt lat="47.43048" lon="-0.51139">
        <ele>18</ele>
        <time>2022-07-22T12:43:08.665Z</time>
      </trkpt>
      <trkpt lat="47.4305" lon="-0.51111">
        <ele>18</ele>
        <time>2022-07-22T12:43:09.665Z</time>
      </trkpt>
      <trkpt lat="47.43047" lon="-0.51078">
        <ele>18</ele>
        <time>2022-07-22T12:43:10.665Z</time>
      </trkpt>
      <trkpt lat="47.43045" lon="-0.50974">
        <ele>18.6</ele>
        <time>2022-07-22T12:43:11.665Z</time>
      </trkpt>
      <trkpt lat="47.43048" lon="-0.50687">
        <ele>18</ele>
        <time>2022-07-22T12:43:12.665Z</time>
      </trkpt>
      <trkpt lat="47.43043" lon="-0.50609">
        <ele>18</ele>
        <time>2022-07-22T12:43:13.665Z</time>
      </trkpt>
      <trkpt lat="47.43043" lon="-0.50579">
        <ele>18</ele>
        <time>2022-07-22T12:43:14.665Z</time>
      </trkpt>
      <trkpt lat="47.43045" lon="-0.50562">
        <ele>18</ele>
        <time>2022-07-22T12:43:15.665Z</time>
      </trkpt>
      <trkpt lat="47.43042" lon="-0.50537">
        <ele>18</ele>
        <time>2022-07-22T12:43:16.665Z</time>
      </trkpt>
      <trkpt lat="47.43045" lon="-0.50461">
        <ele>18</ele>
        <time>2022-07-22T12:43:17.665Z</time>
      </trkpt>
      <trkpt lat="47.43045" lon="-0.50387">
        <ele>18</ele>
        <time>2022-07-22T12:43:18.665Z</time>
      </trkpt>
      <trkpt lat="47.43039" lon="-0.50333">
        <ele>18</ele>
        <time>2022-07-22T12:43:19.665Z</time>
      </trkpt>
      <trkpt lat="47.43042" lon="-0.50246">
        <ele>18</ele>
        <time>2022-07-22T12:43:20.665Z</time>
      </trkpt>
      <trkpt lat="47.43041" lon="-0.50168">
        <ele>18</ele>
        <time>2022-07-22T12:43:21.665Z</time>
      </trkpt>
      <trkpt lat="47.43038" lon="-0.50145">
        <ele>18</ele>
        <time>2022-07-22T12:43:22.665Z</time>
      </trkpt>
      <trkpt lat="47.4304" lon="-0.50123">
        <ele>18</ele>
        <time>2022-07-22T12:43:23.665Z</time>
      </trkpt>
      <trkpt lat="47.43037" lon="-0.49924">
        <ele>18.5</ele>
        <time>2022-07-22T12:43:24.665Z</time>
      </trkpt>
      <trkpt lat="47.43034" lon="-0.4991">
        <ele>18.3</ele>
        <time>2022-07-22T12:43:25.665Z</time>
      </trkpt>
      <trkpt lat="47.43025" lon="-0.49907">
        <ele>18.2</ele>
        <time>2022-07-22T12:43:26.665Z</time>
      </trkpt>
      <trkpt lat="47.43006" lon="-0.49912">
        <ele>18</ele>
        <time>2022-07-22T12:43:27.665Z</time>
      </trkpt>
      <trkpt lat="47.42996" lon="-0.49906">
        <ele>18</ele>
        <time>2022-07-22T12:43:28.665Z</time>
      </trkpt>
      <trkpt lat="47.42949" lon="-0.49847">
        <ele>17.6</ele>
        <time>2022-07-22T12:43:29.665Z</time>
      </trkpt>
      <trkpt lat="47.42908" lon="-0.49782">
        <ele>17.6</ele>
        <time>2022-07-22T12:43:30.665Z</time>
      </trkpt>
      <trkpt lat="47.42866" lon="-0.49695">
        <ele>18.1</ele>
        <time>2022-07-22T12:43:31.665Z</time>
      </trkpt>
      <trkpt lat="47.42847" lon="-0.49675">
        <ele>18.6</ele>
        <time>2022-07-22T12:43:32.665Z</time>
      </trkpt>
      <trkpt lat="47.4284" lon="-0.49662">
        <ele>18.7</ele>
        <time>2022-07-22T12:43:33.665Z</time>
      </trkpt>
      <trkpt lat="47.42834" lon="-0.49632">
        <ele>18.9</ele>
        <time>2022-07-22T12:43:34.665Z</time>
      </trkpt>
      <trkpt lat="47.42815" lon="-0.49476">
        <ele>18.4</ele>
        <time>2022-07-22T12:43:35.665Z</time>
      </trkpt>
      <trkpt lat="47.42815" lon="-0.49425">
        <ele>18.4</ele>
        <time>2022-07-22T12:43:36.665Z</time>
      </trkpt>
      <trkpt lat="47.4281" lon="-0.494">
        <ele>18.5</ele>
        <time>2022-07-22T12:43:37.665Z</time>
      </trkpt>
      <trkpt lat="47.42807" lon="-0.49313">
        <ele>18.3</ele>
        <time>2022-07-22T12:43:38.665Z</time>
      </trkpt>
      <trkpt lat="47.42794" lon="-0.4923">
        <ele>18.3</ele>
        <time>2022-07-22T12:43:39.665Z</time>
      </trkpt>
      <trkpt lat="47.4278" lon="-0.49114">
        <ele>18</ele>
        <time>2022-07-22T12:43:40.665Z</time>
      </trkpt>
      <trkpt lat="47.42778" lon="-0.49067">
        <ele>17.9</ele>
        <time>2022-07-22T12:43:41.665Z</time>
      </trkpt>
      <trkpt lat="47.42764" lon="-0.48932">
        <ele>17.8</ele>
        <time>2022-07-22T12:43:42.665Z</time>
      </trkpt>
      <trkpt lat="47.42754" lon="-0.48763">
        <ele>17</ele>
        <time>2022-07-22T12:43:43.665Z</time>
      </trkpt>
      <trkpt lat="47.42741" lon="-0.48697">
        <ele>17</ele>
        <time>2022-07-22T12:43:44.665Z</time>
      </trkpt>
      <trkpt lat="47.42738" lon="-0.48647">
        <ele>16.6</ele>
        <time>2022-07-22T12:43:45.665Z</time>
      </trkpt>
      <trkpt lat="47.42739" lon="-0.48561">
        <ele>16</ele>
        <time>2022-07-22T12:43:46.665Z</time>
      </trkpt>
      <trkpt lat="47.42734" lon="-0.48492">
        <ele>16</ele>
        <time>2022-07-22T12:43:47.665Z</time>
      </trkpt>
      <trkpt lat="47.42728" lon="-0.48459">
        <ele>16</ele>
        <time>2022-07-22T12:43:48.665Z</time>
      </trkpt>
      <trkpt lat="47.42689" lon="-0.483">
        <ele>16</ele>
        <time>2022-07-22T12:43:49.665Z</time>
      </trkpt>
      <trkpt lat="47.42695" lon="-0.48218">
        <ele>16</ele>
        <time>2022-07-22T12:43:50.665Z</time>
      </trkpt>
      <trkpt lat="47.42695" lon="-0.48153">
        <ele>16</ele>
        <time>2022-07-22T12:43:51.665Z</time>
      </trkpt>
      <trkpt lat="47.42691" lon="-0.48106">
        <ele>16</ele>
        <time>2022-07-22T12:43:52.665Z</time>
      </trkpt>
      <trkpt lat="47.4268" lon="-0.48015">
        <ele>16</ele>
        <time>2022-07-22T12:43:53.665Z</time>
      </trkpt>
      <trkpt lat="47.42673" lon="-0.47943">
        <ele>16</ele>
        <time>2022-07-22T12:43:54.665Z</time>
      </trkpt>
      <trkpt lat="47.42667" lon="-0.4787">
        <ele>16</ele>
        <time>2022-07-22T12:43:55.665Z</time>
      </trkpt>
      <trkpt lat="47.42682" lon="-0.47735">
        <ele>16.3</ele>
        <time>2022-07-22T12:43:56.665Z</time>
      </trkpt>
      <trkpt lat="47.4269" lon="-0.47699">
        <ele>16.1</ele>
        <time>2022-07-22T12:43:57.665Z</time>
      </trkpt>
      <trkpt lat="47.42696" lon="-0.47681">
        <ele>16</ele>
        <time>2022-07-22T12:43:58.665Z</time>
      </trkpt>
      <trkpt lat="47.42698" lon="-0.4765">
        <ele>16.4</ele>
        <time>2022-07-22T12:43:59.665Z</time>
      </trkpt>
      <trkpt lat="47.42706" lon="-0.47616">
        <ele>16.8</ele>
        <time>2022-07-22T12:44:00.665Z</time>
      </trkpt>
      <trkpt lat="47.42714" lon="-0.47602">
        <ele>16.6</ele>
        <time>2022-07-22T12:44:01.665Z</time>
      </trkpt>
      <trkpt lat="47.42743" lon="-0.47578">
        <ele>16</ele>
        <time>2022-07-22T12:44:02.665Z</time>
      </trkpt>
      <trkpt lat="47.42776" lon="-0.47539">
        <ele>16</ele>
        <time>2022-07-22T12:44:03.665Z</time>
      </trkpt>
      <trkpt lat="47.42798" lon="-0.47476">
        <ele>16</ele>
        <time>2022-07-22T12:44:04.665Z</time>
      </trkpt>
      <trkpt lat="47.42823" lon="-0.4743">
        <ele>16</ele>
        <time>2022-07-22T12:44:05.665Z</time>
      </trkpt>
      <trkpt lat="47.42844" lon="-0.47407">
        <ele>16.2</ele>
        <time>2022-07-22T12:44:06.665Z</time>
      </trkpt>
      <trkpt lat="47.4288" lon="-0.47377">
        <ele>16.7</ele>
        <time>2022-07-22T12:44:07.665Z</time>
      </trkpt>
      <trkpt lat="47.42912" lon="-0.47364">
        <ele>16.9</ele>
        <time>2022-07-22T12:44:08.665Z</time>
      </trkpt>
      <trkpt lat="47.42917" lon="-0.47365">
        <ele>16.9</ele>
        <time>2022-07-22T12:44:09.665Z</time>
      </trkpt>
      <trkpt lat="47.42923" lon="-0.4738">
        <ele>16.7</ele>
        <time>2022-07-22T12:44:10.665Z</time>
      </trkpt>
      <trkpt lat="47.42926" lon="-0.47381">
        <ele>16.6</ele>
        <time>2022-07-22T12:44:11.665Z</time>
      </trkpt>
      <trkpt lat="47.42948" lon="-0.47291">
        <ele>17</ele>
        <time>2022-07-22T12:44:12.665Z</time>
      </trkpt>
      <trkpt lat="47.4295" lon="-0.47275">
        <ele>17</ele>
        <time>2022-07-22T12:44:13.665Z</time>
      </trkpt>
      <trkpt lat="47.4297" lon="-0.47207">
        <ele>17</ele>
        <time>2022-07-22T12:44:14.665Z</time>
      </trkpt>
      <trkpt lat="47.42974" lon="-0.47202">
        <ele>17</ele>
        <time>2022-07-22T12:44:15.665Z</time>
      </trkpt>
      <trkpt lat="47.43057" lon="-0.47261">
        <ele>17</ele>
        <time>2022-07-22T12:44:16.665Z</time>
      </trkpt>
      <trkpt lat="47.43065" lon="-0.47261">
        <ele>17</ele>
        <time>2022-07-22T12:44:17.665Z</time>
      </trkpt>
      <trkpt lat="47.43107" lon="-0.47285">
        <ele>17</ele>
        <time>2022-07-22T12:44:18.665Z</time>
      </trkpt>
      <trkpt lat="47.43115" lon="-0.47276">
        <ele>17</ele>
        <time>2022-07-22T12:44:19.665Z</time>
      </trkpt>
      <trkpt lat="47.43119" lon="-0.47264">
        <ele>17</ele>
        <time>2022-07-22T12:44:20.665Z</time>
      </trkpt>
      <trkpt lat="47.43118" lon="-0.47253">
        <ele>17</ele>
        <time>2022-07-22T12:44:21.665Z</time>
      </trkpt>
      <trkpt lat="47.43098" lon="-0.47225">
        <ele>17</ele>
        <time>2022-07-22T12:44:22.665Z</time>
      </trkpt>
      <trkpt lat="47.43078" lon="-0.47209">
        <ele>17</ele>
        <time>2022-07-22T12:44:23.665Z</time>
      </trkpt>
      <trkpt lat="47.43066" lon="-0.47193">
        <ele>17</ele>
        <time>2022-07-22T12:44:24.665Z</time>
      </trkpt>
      <trkpt lat="47.43061" lon="-0.47171">
        <ele>17</ele>
        <time>2022-07-22T12:44:25.665Z</time>
      </trkpt>
      <trkpt lat="47.43065" lon="-0.4716">
        <ele>17</ele>
        <time>2022-07-22T12:44:26.665Z</time>
      </trkpt>
      <trkpt lat="47.43072" lon="-0.47153">
        <ele>17</ele>
        <time>2022-07-22T12:44:27.665Z</time>
      </trkpt>
      <trkpt lat="47.43115" lon="-0.47137">
        <ele>17</ele>
        <time>2022-07-22T12:44:28.665Z</time>
      </trkpt>
      <trkpt lat="47.43219" lon="-0.47109">
        <ele>17</ele>
        <time>2022-07-22T12:44:29.665Z</time>
      </trkpt>
      <trkpt lat="47.43235" lon="-0.471">
        <ele>17.1</ele>
        <time>2022-07-22T12:44:30.665Z</time>
      </trkpt>
      <trkpt lat="47.43277" lon="-0.47086">
        <ele>17.7</ele>
        <time>2022-07-22T12:44:31.665Z</time>
      </trkpt>
      <trkpt lat="47.4332" lon="-0.47054">
        <ele>18</ele>
        <time>2022-07-22T12:44:32.665Z</time>
      </trkpt>
      <trkpt lat="47.43405" lon="-0.46948">
        <ele>18</ele>
        <time>2022-07-22T12:44:33.665Z</time>
      </trkpt>
      <trkpt lat="47.43429" lon="-0.46929">
        <ele>18</ele>
        <time>2022-07-22T12:44:34.665Z</time>
      </trkpt>
      <trkpt lat="47.43449" lon="-0.46893">
        <ele>18.1</ele>
        <time>2022-07-22T12:44:35.665Z</time>
      </trkpt>
      <trkpt lat="47.4347" lon="-0.46866">
        <ele>18.6</ele>
        <time>2022-07-22T12:44:36.665Z</time>
      </trkpt>
      <trkpt lat="47.43502" lon="-0.46833">
        <ele>19</ele>
        <time>2022-07-22T12:44:37.665Z</time>
      </trkpt>
      <trkpt lat="47.43509" lon="-0.46823">
        <ele>19</ele>
        <time>2022-07-22T12:44:38.665Z</time>
      </trkpt>
      <trkpt lat="47.43518" lon="-0.46817">
        <ele>19</ele>
        <time>2022-07-22T12:44:39.665Z</time>
      </trkpt>
      <trkpt lat="47.43561" lon="-0.4676">
        <ele>19</ele>
        <time>2022-07-22T12:44:40.665Z</time>
      </trkpt>
      <trkpt lat="47.43586" lon="-0.46734">
        <ele>19</ele>
        <time>2022-07-22T12:44:41.665Z</time>
      </trkpt>
      <trkpt lat="47.43601" lon="-0.46714">
        <ele>19</ele>
        <time>2022-07-22T12:44:42.665Z</time>
      </trkpt>
      <trkpt lat="47.4361" lon="-0.46694">
        <ele>19</ele>
        <time>2022-07-22T12:44:43.665Z</time>
      </trkpt>
      <trkpt lat="47.43618" lon="-0.46686">
        <ele>19</ele>
        <time>2022-07-22T12:44:44.665Z</time>
      </trkpt>
      <trkpt lat="47.43624" lon="-0.46684">
        <ele>19</ele>
        <time>2022-07-22T12:44:45.665Z</time>
      </trkpt>
      <trkpt lat="47.43657" lon="-0.46646">
        <ele>19</ele>
        <time>2022-07-22T12:44:46.665Z</time>
      </trkpt>
      <trkpt lat="47.4372" lon="-0.46562">
        <ele>19</ele>
        <time>2022-07-22T12:44:47.665Z</time>
      </trkpt>
      <trkpt lat="47.43736" lon="-0.46547">
        <ele>19</ele>
        <time>2022-07-22T12:44:48.665Z</time>
      </trkpt>
      <trkpt lat="47.43809" lon="-0.4646">
        <ele>18</ele>
        <time>2022-07-22T12:44:49.665Z</time>
      </trkpt>
      <trkpt lat="47.43833" lon="-0.46426">
        <ele>18</ele>
        <time>2022-07-22T12:44:50.665Z</time>
      </trkpt>
      <trkpt lat="47.43915" lon="-0.46339">
        <ele>18</ele>
        <time>2022-07-22T12:44:51.665Z</time>
      </trkpt>
      <trkpt lat="47.43943" lon="-0.46302">
        <ele>18</ele>
        <time>2022-07-22T12:44:52.665Z</time>
      </trkpt>
      <trkpt lat="47.43951" lon="-0.46297">
        <ele>18</ele>
        <time>2022-07-22T12:44:53.665Z</time>
      </trkpt>
      <trkpt lat="47.44012" lon="-0.46223">
        <ele>18</ele>
        <time>2022-07-22T12:44:54.665Z</time>
      </trkpt>
      <trkpt lat="47.4404" lon="-0.46172">
        <ele>18</ele>
        <time>2022-07-22T12:44:55.665Z</time>
      </trkpt>
      <trkpt lat="47.44062" lon="-0.46121">
        <ele>18</ele>
        <time>2022-07-22T12:44:56.665Z</time>
      </trkpt>
      <trkpt lat="47.44071" lon="-0.4609">
        <ele>18</ele>
        <time>2022-07-22T12:44:57.665Z</time>
      </trkpt>
      <trkpt lat="47.44084" lon="-0.4602">
        <ele>17.1</ele>
        <time>2022-07-22T12:44:58.665Z</time>
      </trkpt>
      <trkpt lat="47.44099" lon="-0.45915">
        <ele>17</ele>
        <time>2022-07-22T12:44:59.665Z</time>
      </trkpt>
      <trkpt lat="47.44101" lon="-0.45828">
        <ele>17</ele>
        <time>2022-07-22T12:45:00.665Z</time>
      </trkpt>
      <trkpt lat="47.4411" lon="-0.4575">
        <ele>17</ele>
        <time>2022-07-22T12:45:01.665Z</time>
      </trkpt>
      <trkpt lat="47.4411" lon="-0.45729">
        <ele>17</ele>
        <time>2022-07-22T12:45:02.665Z</time>
      </trkpt>
      <trkpt lat="47.44119" lon="-0.45664">
        <ele>17.3</ele>
        <time>2022-07-22T12:45:03.665Z</time>
      </trkpt>
      <trkpt lat="47.44139" lon="-0.45643">
        <ele>17.8</ele>
        <time>2022-07-22T12:45:04.665Z</time>
      </trkpt>
      <trkpt lat="47.44162" lon="-0.45616">
        <ele>17.4</ele>
        <time>2022-07-22T12:45:05.665Z</time>
      </trkpt>
      <trkpt lat="47.44215" lon="-0.4558">
        <ele>17</ele>
        <time>2022-07-22T12:45:06.665Z</time>
      </trkpt>
      <trkpt lat="47.44234" lon="-0.45572">
        <ele>17</ele>
        <time>2022-07-22T12:45:07.665Z</time>
      </trkpt>
      <trkpt lat="47.44316" lon="-0.45594">
        <ele>18</ele>
        <time>2022-07-22T12:45:08.665Z</time>
      </trkpt>
      <trkpt lat="47.44347" lon="-0.45619">
        <ele>18</ele>
        <time>2022-07-22T12:45:09.665Z</time>
      </trkpt>
      <trkpt lat="47.44361" lon="-0.45625">
        <ele>18</ele>
        <time>2022-07-22T12:45:10.665Z</time>
      </trkpt>
      <trkpt lat="47.44373" lon="-0.45638">
        <ele>18.2</ele>
        <time>2022-07-22T12:45:11.665Z</time>
      </trkpt>
      <trkpt lat="47.44364" lon="-0.45689">
        <ele>18</ele>
        <time>2022-07-22T12:45:12.665Z</time>
      </trkpt>
      <trkpt lat="47.44355" lon="-0.45786">
        <ele>17.9</ele>
        <time>2022-07-22T12:45:13.665Z</time>
      </trkpt>
      <trkpt lat="47.44347" lon="-0.45831">
        <ele>18</ele>
        <time>2022-07-22T12:45:14.665Z</time>
      </trkpt>
      <trkpt lat="47.44343" lon="-0.45857">
        <ele>18</ele>
        <time>2022-07-22T12:45:15.665Z</time>
      </trkpt>
      <trkpt lat="47.44337" lon="-0.4592">
        <ele>17.9</ele>
        <time>2022-07-22T12:45:16.665Z</time>
      </trkpt>
      <trkpt lat="47.44325" lon="-0.45971">
        <ele>17.3</ele>
        <time>2022-07-22T12:45:17.665Z</time>
      </trkpt>
      <trkpt lat="47.44316" lon="-0.46032">
        <ele>17.1</ele>
        <time>2022-07-22T12:45:18.665Z</time>
      </trkpt>
      <trkpt lat="47.44285" lon="-0.46163">
        <ele>18</ele>
        <time>2022-07-22T12:45:19.665Z</time>
      </trkpt>
      <trkpt lat="47.44262" lon="-0.46229">
        <ele>17.1</ele>
        <time>2022-07-22T12:45:20.665Z</time>
      </trkpt>
      <trkpt lat="47.44199" lon="-0.46371">
        <ele>19.5</ele>
        <time>2022-07-22T12:45:21.665Z</time>
      </trkpt>
      <trkpt lat="47.44186" lon="-0.4639">
        <ele>20.1</ele>
        <time>2022-07-22T12:45:22.665Z</time>
      </trkpt>
      <trkpt lat="47.44169" lon="-0.46432">
        <ele>20.4</ele>
        <time>2022-07-22T12:45:23.665Z</time>
      </trkpt>
      <trkpt lat="47.44107" lon="-0.46548">
        <ele>19.5</ele>
        <time>2022-07-22T12:45:24.665Z</time>
      </trkpt>
      <trkpt lat="47.44085" lon="-0.46579">
        <ele>18.5</ele>
        <time>2022-07-22T12:45:25.665Z</time>
      </trkpt>
      <trkpt lat="47.44061" lon="-0.46629">
        <ele>18.1</ele>
        <time>2022-07-22T12:45:26.665Z</time>
      </trkpt>
      <trkpt lat="47.44019" lon="-0.46703">
        <ele>18</ele>
        <time>2022-07-22T12:45:27.665Z</time>
      </trkpt>
      <trkpt lat="47.44006" lon="-0.46719">
        <ele>18</ele>
        <time>2022-07-22T12:45:28.665Z</time>
      </trkpt>
      <trkpt lat="47.43948" lon="-0.4684">
        <ele>18</ele>
        <time>2022-07-22T12:45:29.665Z</time>
      </trkpt>
      <trkpt lat="47.43923" lon="-0.46876">
        <ele>18.2</ele>
        <time>2022-07-22T12:45:30.665Z</time>
      </trkpt>
      <trkpt lat="47.4385" lon="-0.47012">
        <ele>18.7</ele>
        <time>2022-07-22T12:45:31.665Z</time>
      </trkpt>
      <trkpt lat="47.43823" lon="-0.47057">
        <ele>18.5</ele>
        <time>2022-07-22T12:45:32.665Z</time>
      </trkpt>
      <trkpt lat="47.43808" lon="-0.47068">
        <ele>18.6</ele>
        <time>2022-07-22T12:45:33.665Z</time>
      </trkpt>
      <trkpt lat="47.4378" lon="-0.47103">
        <ele>18.6</ele>
        <time>2022-07-22T12:45:34.665Z</time>
      </trkpt>
      <trkpt lat="47.43763" lon="-0.47119">
        <ele>18.7</ele>
        <time>2022-07-22T12:45:35.665Z</time>
      </trkpt>
      <trkpt lat="47.43752" lon="-0.47138">
        <ele>18.8</ele>
        <time>2022-07-22T12:45:36.665Z</time>
      </trkpt>
      <trkpt lat="47.43702" lon="-0.47203">
        <ele>19</ele>
        <time>2022-07-22T12:45:37.665Z</time>
      </trkpt>
      <trkpt lat="47.43669" lon="-0.4724">
        <ele>19</ele>
        <time>2022-07-22T12:45:38.665Z</time>
      </trkpt>
      <trkpt lat="47.43627" lon="-0.47303">
        <ele>18.5</ele>
        <time>2022-07-22T12:45:39.665Z</time>
      </trkpt>
      <trkpt lat="47.43613" lon="-0.47315">
        <ele>18.2</ele>
        <time>2022-07-22T12:45:40.665Z</time>
      </trkpt>
      <trkpt lat="47.43593" lon="-0.47341">
        <ele>18.2</ele>
        <time>2022-07-22T12:45:41.665Z</time>
      </trkpt>
      <trkpt lat="47.4358" lon="-0.47352">
        <ele>18.2</ele>
        <time>2022-07-22T12:45:42.665Z</time>
      </trkpt>
      <trkpt lat="47.43539" lon="-0.47404">
        <ele>18</ele>
        <time>2022-07-22T12:45:43.665Z</time>
      </trkpt>
      <trkpt lat="47.43472" lon="-0.47478">
        <ele>18</ele>
        <time>2022-07-22T12:45:44.665Z</time>
      </trkpt>
      <trkpt lat="47.43457" lon="-0.47499">
        <ele>17.9</ele>
        <time>2022-07-22T12:45:45.665Z</time>
      </trkpt>
      <trkpt lat="47.43455" lon="-0.47514">
        <ele>17.8</ele>
        <time>2022-07-22T12:45:46.665Z</time>
      </trkpt>
      <trkpt lat="47.4347" lon="-0.47536">
        <ele>18</ele>
        <time>2022-07-22T12:45:47.665Z</time>
      </trkpt>
      <trkpt lat="47.43523" lon="-0.47632">
        <ele>18</ele>
        <time>2022-07-22T12:45:48.665Z</time>
      </trkpt>
      <trkpt lat="47.43549" lon="-0.4771">
        <ele>18</ele>
        <time>2022-07-22T12:45:49.665Z</time>
      </trkpt>
      <trkpt lat="47.43593" lon="-0.47809">
        <ele>17.7</ele>
        <time>2022-07-22T12:45:50.665Z</time>
      </trkpt>
      <trkpt lat="47.43631" lon="-0.47914">
        <ele>17.9</ele>
        <time>2022-07-22T12:45:51.665Z</time>
      </trkpt>
      <trkpt lat="47.43644" lon="-0.47929">
        <ele>18</ele>
        <time>2022-07-22T12:45:52.665Z</time>
      </trkpt>
      <trkpt lat="47.43656" lon="-0.47949">
        <ele>18</ele>
        <time>2022-07-22T12:45:53.665Z</time>
      </trkpt>
      <trkpt lat="47.43673" lon="-0.47994">
        <ele>18</ele>
        <time>2022-07-22T12:45:54.665Z</time>
      </trkpt>
      <trkpt lat="47.43686" lon="-0.48004">
        <ele>18.2</ele>
        <time>2022-07-22T12:45:55.665Z</time>
      </trkpt>
      <trkpt lat="47.43701" lon="-0.48005">
        <ele>18.5</ele>
        <time>2022-07-22T12:45:56.665Z</time>
      </trkpt>
      <trkpt lat="47.43721" lon="-0.47985">
        <ele>18.8</ele>
        <time>2022-07-22T12:45:57.665Z</time>
      </trkpt>
      <trkpt lat="47.43737" lon="-0.4798">
        <ele>18.7</ele>
        <time>2022-07-22T12:45:58.665Z</time>
      </trkpt>
      <trkpt lat="47.43776" lon="-0.47991">
        <ele>18.9</ele>
        <time>2022-07-22T12:45:59.665Z</time>
      </trkpt>
      <trkpt lat="47.43804" lon="-0.47987">
        <ele>18.8</ele>
        <time>2022-07-22T12:46:00.665Z</time>
      </trkpt>
      <trkpt lat="47.43819" lon="-0.47975">
        <ele>18.4</ele>
        <time>2022-07-22T12:46:01.665Z</time>
      </trkpt>
      <trkpt lat="47.43827" lon="-0.4796">
        <ele>18</ele>
        <time>2022-07-22T12:46:02.665Z</time>
      </trkpt>
      <trkpt lat="47.43841" lon="-0.47945">
        <ele>17.5</ele>
        <time>2022-07-22T12:46:03.665Z</time>
      </trkpt>
      <trkpt lat="47.43887" lon="-0.47915">
        <ele>17</ele>
        <time>2022-07-22T12:46:04.665Z</time>
      </trkpt>
      <trkpt lat="47.43899" lon="-0.47911">
        <ele>17</ele>
        <time>2022-07-22T12:46:05.665Z</time>
      </trkpt>
      <trkpt lat="47.44011" lon="-0.47905">
        <ele>17.6</ele>
        <time>2022-07-22T12:46:06.665Z</time>
      </trkpt>
      <trkpt lat="47.44022" lon="-0.47899">
        <ele>17.7</ele>
        <time>2022-07-22T12:46:07.665Z</time>
      </trkpt>
      <trkpt lat="47.44068" lon="-0.47816">
        <ele>19</ele>
        <time>2022-07-22T12:46:08.665Z</time>
      </trkpt>
      <trkpt lat="47.44078" lon="-0.47794">
        <ele>19.3</ele>
        <time>2022-07-22T12:46:09.665Z</time>
      </trkpt>
      <trkpt lat="47.44101" lon="-0.47767">
        <ele>19.8</ele>
        <time>2022-07-22T12:46:10.665Z</time>
      </trkpt>
      <trkpt lat="47.4411" lon="-0.4775">
        <ele>20</ele>
        <time>2022-07-22T12:46:11.665Z</time>
      </trkpt>
      <trkpt lat="47.4412" lon="-0.47748">
        <ele>20</ele>
        <time>2022-07-22T12:46:12.665Z</time>
      </trkpt>
      <trkpt lat="47.44127" lon="-0.47765">
        <ele>19.8</ele>
        <time>2022-07-22T12:46:13.665Z</time>
      </trkpt>
      <trkpt lat="47.44128" lon="-0.47789">
        <ele>19.5</ele>
        <time>2022-07-22T12:46:14.665Z</time>
      </trkpt>
      <trkpt lat="47.44138" lon="-0.47821">
        <ele>19</ele>
        <time>2022-07-22T12:46:15.665Z</time>
      </trkpt>
      <trkpt lat="47.44175" lon="-0.47869">
        <ele>19</ele>
        <time>2022-07-22T12:46:16.665Z</time>
      </trkpt>
      <trkpt lat="47.44239" lon="-0.47923">
        <ele>19.9</ele>
        <time>2022-07-22T12:46:17.665Z</time>
      </trkpt>
      <trkpt lat="47.44276" lon="-0.47961">
        <ele>20.5</ele>
        <time>2022-07-22T12:46:18.665Z</time>
      </trkpt>
      <trkpt lat="47.44336" lon="-0.47994">
        <ele>22.7</ele>
        <time>2022-07-22T12:46:19.665Z</time>
      </trkpt>
      <trkpt lat="47.44368" lon="-0.48007">
        <ele>23.9</ele>
        <time>2022-07-22T12:46:20.665Z</time>
      </trkpt>
      <trkpt lat="47.44395" lon="-0.48031">
        <ele>24.9</ele>
        <time>2022-07-22T12:46:21.665Z</time>
      </trkpt>
      <trkpt lat="47.44396" lon="-0.48042">
        <ele>25</ele>
        <time>2022-07-22T12:46:22.665Z</time>
      </trkpt>
      <trkpt lat="47.44388" lon="-0.48064">
        <ele>24.5</ele>
        <time>2022-07-22T12:46:23.665Z</time>
      </trkpt>
      <trkpt lat="47.44373" lon="-0.48083">
        <ele>23.6</ele>
        <time>2022-07-22T12:46:24.665Z</time>
      </trkpt>
      <trkpt lat="47.44326" lon="-0.48122">
        <ele>20.3</ele>
        <time>2022-07-22T12:46:25.665Z</time>
      </trkpt>
      <trkpt lat="47.44325" lon="-0.48131">
        <ele>20.1</ele>
        <time>2022-07-22T12:46:26.665Z</time>
      </trkpt>
      <trkpt lat="47.4436" lon="-0.48203">
        <ele>19.8</ele>
        <time>2022-07-22T12:46:27.665Z</time>
      </trkpt>
      <trkpt lat="47.4439" lon="-0.48244">
        <ele>19.5</ele>
        <time>2022-07-22T12:46:28.665Z</time>
      </trkpt>
      <trkpt lat="47.44416" lon="-0.4827">
        <ele>19.9</ele>
        <time>2022-07-22T12:46:29.665Z</time>
      </trkpt>
      <trkpt lat="47.44478" lon="-0.48286">
        <ele>22</ele>
        <time>2022-07-22T12:46:30.665Z</time>
      </trkpt>
      <trkpt lat="47.44489" lon="-0.48292">
        <ele>22.3</ele>
        <time>2022-07-22T12:46:31.665Z</time>
      </trkpt>
      <trkpt lat="47.44531" lon="-0.48325">
        <ele>22.5</ele>
        <time>2022-07-22T12:46:32.665Z</time>
      </trkpt>
      <trkpt lat="47.44558" lon="-0.48341">
        <ele>22.1</ele>
        <time>2022-07-22T12:46:33.665Z</time>
      </trkpt>
      <trkpt lat="47.44586" lon="-0.48348">
        <ele>21.9</ele>
        <time>2022-07-22T12:46:34.665Z</time>
      </trkpt>
      <trkpt lat="47.44634" lon="-0.48336">
        <ele>23.2</ele>
        <time>2022-07-22T12:46:35.665Z</time>
      </trkpt>
      <trkpt lat="47.44683" lon="-0.48314">
        <ele>25.4</ele>
        <time>2022-07-22T12:46:36.665Z</time>
      </trkpt>
      <trkpt lat="47.44694" lon="-0.4832">
        <ele>25.6</ele>
        <time>2022-07-22T12:46:37.665Z</time>
      </trkpt>
      <trkpt lat="47.4471" lon="-0.48342">
        <ele>26.3</ele>
        <time>2022-07-22T12:46:38.665Z</time>
      </trkpt>
      <trkpt lat="47.44736" lon="-0.48404">
        <ele>25.7</ele>
        <time>2022-07-22T12:46:39.665Z</time>
      </trkpt>
      <trkpt lat="47.44764" lon="-0.48482">
        <ele>25</ele>
        <time>2022-07-22T12:46:40.665Z</time>
      </trkpt>
      <trkpt lat="47.44787" lon="-0.48533">
        <ele>26.6</ele>
        <time>2022-07-22T12:46:41.665Z</time>
      </trkpt>
      <trkpt lat="47.44798" lon="-0.48554">
        <ele>26.5</ele>
        <time>2022-07-22T12:46:42.665Z</time>
      </trkpt>
      <trkpt lat="47.44821" lon="-0.48566">
        <ele>27.7</ele>
        <time>2022-07-22T12:46:43.665Z</time>
      </trkpt>
      <trkpt lat="47.44849" lon="-0.48576">
        <ele>28.2</ele>
        <time>2022-07-22T12:46:44.665Z</time>
      </trkpt>
      <trkpt lat="47.44872" lon="-0.48576">
        <ele>27.8</ele>
        <time>2022-07-22T12:46:45.665Z</time>
      </trkpt>
      <trkpt lat="47.44902" lon="-0.48569">
        <ele>26.9</ele>
        <time>2022-07-22T12:46:46.665Z</time>
      </trkpt>
      <trkpt lat="47.44943" lon="-0.48543">
        <ele>27.1</ele>
        <time>2022-07-22T12:46:47.665Z</time>
      </trkpt>
      <trkpt lat="47.4495" lon="-0.48543">
        <ele>26.9</ele>
        <time>2022-07-22T12:46:48.665Z</time>
      </trkpt>
      <trkpt lat="47.44969" lon="-0.48554">
        <ele>25.8</ele>
        <time>2022-07-22T12:46:49.665Z</time>
      </trkpt>
      <trkpt lat="47.4498" lon="-0.48574">
        <ele>25.4</ele>
        <time>2022-07-22T12:46:50.665Z</time>
      </trkpt>
      <trkpt lat="47.45013" lon="-0.48594">
        <ele>27</ele>
        <time>2022-07-22T12:46:51.665Z</time>
      </trkpt>
      <trkpt lat="47.4505" lon="-0.48613">
        <ele>29.8</ele>
        <time>2022-07-22T12:46:52.665Z</time>
      </trkpt>
      <trkpt lat="47.45061" lon="-0.48633">
        <ele>30</ele>
        <time>2022-07-22T12:46:53.665Z</time>
      </trkpt>
      <trkpt lat="47.4507" lon="-0.48642">
        <ele>29.9</ele>
        <time>2022-07-22T12:46:54.665Z</time>
      </trkpt>
      <trkpt lat="47.45103" lon="-0.48704">
        <ele>29.3</ele>
        <time>2022-07-22T12:46:55.665Z</time>
      </trkpt>
      <trkpt lat="47.45139" lon="-0.48762">
        <ele>28.9</ele>
        <time>2022-07-22T12:46:56.665Z</time>
      </trkpt>
      <trkpt lat="47.4515" lon="-0.48788">
        <ele>29.3</ele>
        <time>2022-07-22T12:46:57.665Z</time>
      </trkpt>
      <trkpt lat="47.45163" lon="-0.48834">
        <ele>29.3</ele>
        <time>2022-07-22T12:46:58.665Z</time>
      </trkpt>
      <trkpt lat="47.45182" lon="-0.48887">
        <ele>29.1</ele>
        <time>2022-07-22T12:46:59.665Z</time>
      </trkpt>
      <trkpt lat="47.45194" lon="-0.48902">
        <ele>28.5</ele>
        <time>2022-07-22T12:47:00.665Z</time>
      </trkpt>
      <trkpt lat="47.45233" lon="-0.48911">
        <ele>26</ele>
        <time>2022-07-22T12:47:01.665Z</time>
      </trkpt>
      <trkpt lat="47.45243" lon="-0.48928">
        <ele>25.7</ele>
        <time>2022-07-22T12:47:02.665Z</time>
      </trkpt>
      <trkpt lat="47.45248" lon="-0.48969">
        <ele>25.6</ele>
        <time>2022-07-22T12:47:03.665Z</time>
      </trkpt>
      <trkpt lat="47.45248" lon="-0.48982">
        <ele>25.6</ele>
        <time>2022-07-22T12:47:04.665Z</time>
      </trkpt>
      <trkpt lat="47.4525" lon="-0.48998">
        <ele>25.5</ele>
        <time>2022-07-22T12:47:05.665Z</time>
      </trkpt>
      <trkpt lat="47.45275" lon="-0.49049">
        <ele>26.3</ele>
        <time>2022-07-22T12:47:06.665Z</time>
      </trkpt>
      <trkpt lat="47.4531" lon="-0.49072">
        <ele>26.9</ele>
        <time>2022-07-22T12:47:07.665Z</time>
      </trkpt>
      <trkpt lat="47.45318" lon="-0.4908">
        <ele>27.3</ele>
        <time>2022-07-22T12:47:08.665Z</time>
      </trkpt>
      <trkpt lat="47.45322" lon="-0.49091">
        <ele>27.7</ele>
        <time>2022-07-22T12:47:09.665Z</time>
      </trkpt>
      <trkpt lat="47.45322" lon="-0.49108">
        <ele>28.6</ele>
        <time>2022-07-22T12:47:10.665Z</time>
      </trkpt>
      <trkpt lat="47.45289" lon="-0.49142">
        <ele>31</ele>
        <time>2022-07-22T12:47:11.665Z</time>
      </trkpt>
      <trkpt lat="47.45299" lon="-0.49155">
        <ele>30.9</ele>
        <time>2022-07-22T12:47:12.665Z</time>
      </trkpt>
      <trkpt lat="47.4531" lon="-0.49176">
        <ele>30.5</ele>
        <time>2022-07-22T12:47:13.665Z</time>
      </trkpt>
      <trkpt lat="47.45335" lon="-0.49238">
        <ele>30.2</ele>
        <time>2022-07-22T12:47:14.665Z</time>
      </trkpt>
      <trkpt lat="47.45345" lon="-0.49253">
        <ele>30.5</ele>
        <time>2022-07-22T12:47:15.665Z</time>
      </trkpt>
      <trkpt lat="47.45346" lon="-0.49264">
        <ele>30.6</ele>
        <time>2022-07-22T12:47:16.665Z</time>
      </trkpt>
      <trkpt lat="47.45344" lon="-0.49271">
        <ele>30.6</ele>
        <time>2022-07-22T12:47:17.665Z</time>
      </trkpt>
      <trkpt lat="47.45331" lon="-0.49289">
        <ele>30.3</ele>
        <time>2022-07-22T12:47:18.665Z</time>
      </trkpt>
      <trkpt lat="47.45324" lon="-0.49338">
        <ele>30</ele>
        <time>2022-07-22T12:47:19.665Z</time>
      </trkpt>
      <trkpt lat="47.45326" lon="-0.4935">
        <ele>30</ele>
        <time>2022-07-22T12:47:20.665Z</time>
      </trkpt>
      <trkpt lat="47.45334" lon="-0.49369">
        <ele>29.8</ele>
        <time>2022-07-22T12:47:21.665Z</time>
      </trkpt>
      <trkpt lat="47.45353" lon="-0.49397">
        <ele>29.2</ele>
        <time>2022-07-22T12:47:22.665Z</time>
      </trkpt>
      <trkpt lat="47.45359" lon="-0.49418">
        <ele>29.2</ele>
        <time>2022-07-22T12:47:23.665Z</time>
      </trkpt>
      <trkpt lat="47.4538" lon="-0.49454">
        <ele>29.9</ele>
        <time>2022-07-22T12:47:24.665Z</time>
      </trkpt>
      <trkpt lat="47.45411" lon="-0.4949">
        <ele>30</ele>
        <time>2022-07-22T12:47:25.665Z</time>
      </trkpt>
      <trkpt lat="47.45453" lon="-0.4956">
        <ele>29.9</ele>
        <time>2022-07-22T12:47:26.665Z</time>
      </trkpt>
      <trkpt lat="47.45459" lon="-0.49578">
        <ele>29.7</ele>
        <time>2022-07-22T12:47:27.665Z</time>
      </trkpt>
      <trkpt lat="47.45472" lon="-0.49626">
        <ele>29.8</ele>
        <time>2022-07-22T12:47:28.665Z</time>
      </trkpt>
      <trkpt lat="47.45482" lon="-0.49643">
        <ele>30</ele>
        <time>2022-07-22T12:47:29.665Z</time>
      </trkpt>
      <trkpt lat="47.4551" lon="-0.49657">
        <ele>30</ele>
        <time>2022-07-22T12:47:30.665Z</time>
      </trkpt>
      <trkpt lat="47.45538" lon="-0.49676">
        <ele>30</ele>
        <time>2022-07-22T12:47:31.665Z</time>
      </trkpt>
      <trkpt lat="47.45548" lon="-0.49689">
        <ele>30</ele>
        <time>2022-07-22T12:47:32.665Z</time>
      </trkpt>
      <trkpt lat="47.45559" lon="-0.49712">
        <ele>30</ele>
        <time>2022-07-22T12:47:33.665Z</time>
      </trkpt>
      <trkpt lat="47.45564" lon="-0.49752">
        <ele>30</ele>
        <time>2022-07-22T12:47:34.665Z</time>
      </trkpt>
      <trkpt lat="47.45586" lon="-0.49815">
        <ele>29.7</ele>
        <time>2022-07-22T12:47:35.665Z</time>
      </trkpt>
      <trkpt lat="47.45595" lon="-0.49831">
        <ele>29.3</ele>
        <time>2022-07-22T12:47:36.665Z</time>
      </trkpt>
      <trkpt lat="47.4562" lon="-0.49914">
        <ele>28.1</ele>
        <time>2022-07-22T12:47:37.665Z</time>
      </trkpt>
      <trkpt lat="47.45664" lon="-0.49971">
        <ele>29.3</ele>
        <time>2022-07-22T12:47:38.665Z</time>
      </trkpt>
      <trkpt lat="47.45658" lon="-0.49987">
        <ele>28.8</ele>
        <time>2022-07-22T12:47:39.665Z</time>
      </trkpt>
      <trkpt lat="47.45641" lon="-0.50016">
        <ele>29.2</ele>
        <time>2022-07-22T12:47:40.665Z</time>
      </trkpt>
      <trkpt lat="47.45635" lon="-0.50041">
        <ele>30.3</ele>
        <time>2022-07-22T12:47:41.665Z</time>
      </trkpt>
      <trkpt lat="47.45626" lon="-0.50092">
        <ele>32.6</ele>
        <time>2022-07-22T12:47:42.665Z</time>
      </trkpt>
      <trkpt lat="47.45593" lon="-0.50158">
        <ele>32.7</ele>
        <time>2022-07-22T12:47:43.665Z</time>
      </trkpt>
      <trkpt lat="47.45593" lon="-0.50177">
        <ele>32.5</ele>
        <time>2022-07-22T12:47:44.665Z</time>
      </trkpt>
      <trkpt lat="47.45598" lon="-0.50192">
        <ele>32.6</ele>
        <time>2022-07-22T12:47:45.665Z</time>
      </trkpt>
      <trkpt lat="47.45639" lon="-0.50283">
        <ele>37.2</ele>
        <time>2022-07-22T12:47:46.665Z</time>
      </trkpt>
      <trkpt lat="47.45734" lon="-0.50481">
        <ele>36.8</ele>
        <time>2022-07-22T12:47:47.665Z</time>
      </trkpt>
      <trkpt lat="47.45744" lon="-0.50485">
        <ele>36.7</ele>
        <time>2022-07-22T12:47:48.665Z</time>
      </trkpt>
      <trkpt lat="47.45778" lon="-0.50482">
        <ele>35.8</ele>
        <time>2022-07-22T12:47:49.665Z</time>
      </trkpt>
      <trkpt lat="47.45824" lon="-0.50486">
        <ele>35.8</ele>
        <time>2022-07-22T12:47:50.665Z</time>
      </trkpt>
      <trkpt lat="47.45884" lon="-0.50477">
        <ele>35</ele>
        <time>2022-07-22T12:47:51.665Z</time>
      </trkpt>
      <trkpt lat="47.4591" lon="-0.50467">
        <ele>35</ele>
        <time>2022-07-22T12:47:52.665Z</time>
      </trkpt>
      <trkpt lat="47.45929" lon="-0.50448">
        <ele>35.3</ele>
        <time>2022-07-22T12:47:53.665Z</time>
      </trkpt>
      <trkpt lat="47.45941" lon="-0.50422">
        <ele>35.7</ele>
        <time>2022-07-22T12:47:54.665Z</time>
      </trkpt>
      <trkpt lat="47.45949" lon="-0.50419">
        <ele>35.8</ele>
        <time>2022-07-22T12:47:55.665Z</time>
      </trkpt>
      <trkpt lat="47.45952" lon="-0.50425">
        <ele>35.9</ele>
        <time>2022-07-22T12:47:56.665Z</time>
      </trkpt>
      <trkpt lat="47.45957" lon="-0.50447">
        <ele>35.8</ele>
        <time>2022-07-22T12:47:57.665Z</time>
      </trkpt>
      <trkpt lat="47.45986" lon="-0.50495">
        <ele>34.8</ele>
        <time>2022-07-22T12:47:58.665Z</time>
      </trkpt>
      <trkpt lat="47.45996" lon="-0.50533">
        <ele>35.4</ele>
        <time>2022-07-22T12:47:59.665Z</time>
      </trkpt>
      <trkpt lat="47.46013" lon="-0.50628">
        <ele>35.6</ele>
        <time>2022-07-22T12:48:00.665Z</time>
      </trkpt>
      <trkpt lat="47.46018" lon="-0.50644">
        <ele>36.3</ele>
        <time>2022-07-22T12:48:01.665Z</time>
      </trkpt>
      <trkpt lat="47.46032" lon="-0.50672">
        <ele>39.4</ele>
        <time>2022-07-22T12:48:02.665Z</time>
      </trkpt>
      <trkpt lat="47.46051" lon="-0.5072">
        <ele>43.6</ele>
        <time>2022-07-22T12:48:03.665Z</time>
      </trkpt>
      <trkpt lat="47.46046" lon="-0.50744">
        <ele>44.2</ele>
        <time>2022-07-22T12:48:04.665Z</time>
      </trkpt>
      <trkpt lat="47.46036" lon="-0.5077">
        <ele>44.6</ele>
        <time>2022-07-22T12:48:05.665Z</time>
      </trkpt>
      <trkpt lat="47.46038" lon="-0.50821">
        <ele>44.9</ele>
        <time>2022-07-22T12:48:06.665Z</time>
      </trkpt>
      <trkpt lat="47.4605" lon="-0.5089">
        <ele>42.7</ele>
        <time>2022-07-22T12:48:07.665Z</time>
      </trkpt>
      <trkpt lat="47.46044" lon="-0.50917">
        <ele>41.5</ele>
        <time>2022-07-22T12:48:08.665Z</time>
      </trkpt>
      <trkpt lat="47.46053" lon="-0.50958">
        <ele>40.3</ele>
        <time>2022-07-22T12:48:09.665Z</time>
      </trkpt>
      <trkpt lat="47.46051" lon="-0.50972">
        <ele>39.8</ele>
        <time>2022-07-22T12:48:10.665Z</time>
      </trkpt>
      <trkpt lat="47.46055" lon="-0.51">
        <ele>39.4</ele>
        <time>2022-07-22T12:48:11.665Z</time>
      </trkpt>
      <trkpt lat="47.46088" lon="-0.51143">
        <ele>37.8</ele>
        <time>2022-07-22T12:48:12.665Z</time>
      </trkpt>
      <trkpt lat="47.46059" lon="-0.51179">
        <ele>35.6</ele>
        <time>2022-07-22T12:48:13.665Z</time>
      </trkpt>
      <trkpt lat="47.46026" lon="-0.51237">
        <ele>35</ele>
        <time>2022-07-22T12:48:14.665Z</time>
      </trkpt>
      <trkpt lat="47.46005" lon="-0.51262">
        <ele>35.8</ele>
        <time>2022-07-22T12:48:15.665Z</time>
      </trkpt>
      <trkpt lat="47.45907" lon="-0.51323">
        <ele>38.2</ele>
        <time>2022-07-22T12:48:16.665Z</time>
      </trkpt>
      <trkpt lat="47.45898" lon="-0.51332">
        <ele>38.5</ele>
        <time>2022-07-22T12:48:17.665Z</time>
      </trkpt>
      <trkpt lat="47.45863" lon="-0.51383">
        <ele>39</ele>
        <time>2022-07-22T12:48:18.665Z</time>
      </trkpt>
      <trkpt lat="47.45813" lon="-0.51461">
        <ele>39.6</ele>
        <time>2022-07-22T12:48:19.665Z</time>
      </trkpt>
      <trkpt lat="47.45806" lon="-0.51474">
        <ele>39.8</ele>
        <time>2022-07-22T12:48:20.665Z</time>
      </trkpt>
      <trkpt lat="47.45802" lon="-0.5149">
        <ele>40</ele>
        <time>2022-07-22T12:48:21.665Z</time>
      </trkpt>
      <trkpt lat="47.45802" lon="-0.51506">
        <ele>40</ele>
        <time>2022-07-22T12:48:22.665Z</time>
      </trkpt>
      <trkpt lat="47.45828" lon="-0.51578">
        <ele>40</ele>
        <time>2022-07-22T12:48:23.665Z</time>
      </trkpt>
      <trkpt lat="47.45846" lon="-0.51618">
        <ele>40</ele>
        <time>2022-07-22T12:48:24.665Z</time>
      </trkpt>
      <trkpt lat="47.45913" lon="-0.51947">
        <ele>40</ele>
        <time>2022-07-22T12:48:25.665Z</time>
      </trkpt>
      <trkpt lat="47.45931" lon="-0.5202">
        <ele>40</ele>
        <time>2022-07-22T12:48:26.665Z</time>
      </trkpt>
      <trkpt lat="47.45945" lon="-0.52108">
        <ele>38.9</ele>
        <time>2022-07-22T12:48:27.665Z</time>
      </trkpt>
      <trkpt lat="47.45954" lon="-0.52139">
        <ele>38.9</ele>
        <time>2022-07-22T12:48:28.665Z</time>
      </trkpt>
      <trkpt lat="47.45952" lon="-0.52158">
        <ele>38.8</ele>
        <time>2022-07-22T12:48:29.665Z</time>
      </trkpt>
      <trkpt lat="47.45952" lon="-0.52177">
        <ele>38.6</ele>
        <time>2022-07-22T12:48:30.665Z</time>
      </trkpt>
      <trkpt lat="47.45956" lon="-0.52198">
        <ele>38.4</ele>
        <time>2022-07-22T12:48:31.665Z</time>
      </trkpt>
      <trkpt lat="47.45963" lon="-0.52216">
        <ele>38.2</ele>
        <time>2022-07-22T12:48:32.665Z</time>
      </trkpt>
      <trkpt lat="47.45983" lon="-0.52307">
        <ele>37</ele>
        <time>2022-07-22T12:48:33.665Z</time>
      </trkpt>
      <trkpt lat="47.46025" lon="-0.52536">
        <ele>37</ele>
        <time>2022-07-22T12:48:34.665Z</time>
      </trkpt>
      <trkpt lat="47.46034" lon="-0.52537">
        <ele>37</ele>
        <time>2022-07-22T12:48:35.665Z</time>
      </trkpt>
      <trkpt lat="47.46064" lon="-0.52516">
        <ele>37</ele>
        <time>2022-07-22T12:48:36.665Z</time>
      </trkpt>
      <trkpt lat="47.46074" lon="-0.52514">
        <ele>37</ele>
        <time>2022-07-22T12:48:37.665Z</time>
      </trkpt>
      <trkpt lat="47.46081" lon="-0.52515">
        <ele>37</ele>
        <time>2022-07-22T12:48:38.665Z</time>
      </trkpt>
      <trkpt lat="47.46093" lon="-0.52526">
        <ele>37</ele>
        <time>2022-07-22T12:48:39.665Z</time>
      </trkpt>
    </trkseg>
  </trk>
</gpx>